<?xml version="1.0" encoding="UTF-8" standalone="no" ?>
<gpx xmlns="http://www.topografix.com/GPX/1/1" xmlns:xsi="http://www.w3.org/2001/XMLSchema-instance" xsi:schemaLocation="http://www.topografix.com/GPX/1/1 http://www.topografix.com/GPX/1/1/gpx.xsd" version="1.1" creator="VisuGPX - https://www.visugpx.com">
  <metadata>
    <name>Sortie_cyclo_15_05_2013 (Lannion  -  la côte de granit)</name>
    <desc><![CDATA[Circuit côtier. 
A éviter l\'été => circulation importante.]]></desc>
  </metadata>
  <trk>
    <name><![CDATA[15-MAI-13 18:02:25]]></name>
    <trkseg>
      <trkpt lat="48.74698" lon="-3.45509">
        <ele>156.35</ele>
        <time>2013-05-15T13:17:35Z</time>
      </trkpt>
      <trkpt lat="48.74699" lon="-3.45509">
        <ele>156.35</ele>
        <time>2013-05-15T13:17:56Z</time>
      </trkpt>
      <trkpt lat="48.74698" lon="-3.45509">
        <ele>156.35</ele>
        <time>2013-05-15T13:18:01Z</time>
      </trkpt>
      <trkpt lat="48.74699" lon="-3.45513">
        <ele>156.35</ele>
        <time>2013-05-15T13:18:03Z</time>
      </trkpt>
      <trkpt lat="48.74689" lon="-3.45529">
        <ele>155.87</ele>
        <time>2013-05-15T13:18:08Z</time>
      </trkpt>
      <trkpt lat="48.74684" lon="-3.45529">
        <ele>155.87</ele>
        <time>2013-05-15T13:18:09Z</time>
      </trkpt>
      <trkpt lat="48.74679" lon="-3.45526">
        <ele>155.87</ele>
        <time>2013-05-15T13:18:10Z</time>
      </trkpt>
      <trkpt lat="48.74675" lon="-3.45522">
        <ele>155.87</ele>
        <time>2013-05-15T13:18:11Z</time>
      </trkpt>
      <trkpt lat="48.7467" lon="-3.45517">
        <ele>155.87</ele>
        <time>2013-05-15T13:18:12Z</time>
      </trkpt>
      <trkpt lat="48.74633" lon="-3.4548">
        <ele>153.47</ele>
        <time>2013-05-15T13:18:19Z</time>
      </trkpt>
      <trkpt lat="48.74627" lon="-3.45478">
        <ele>152.51</ele>
        <time>2013-05-15T13:18:20Z</time>
      </trkpt>
      <trkpt lat="48.74623" lon="-3.45478">
        <ele>151.54</ele>
        <time>2013-05-15T13:18:21Z</time>
      </trkpt>
      <trkpt lat="48.74618" lon="-3.45482">
        <ele>151.06</ele>
        <time>2013-05-15T13:18:22Z</time>
      </trkpt>
      <trkpt lat="48.74614" lon="-3.45489">
        <ele>150.58</ele>
        <time>2013-05-15T13:18:23Z</time>
      </trkpt>
      <trkpt lat="48.7461" lon="-3.45496">
        <ele>149.62</ele>
        <time>2013-05-15T13:18:24Z</time>
      </trkpt>
      <trkpt lat="48.74608" lon="-3.45503">
        <ele>145.78</ele>
        <time>2013-05-15T13:18:25Z</time>
      </trkpt>
      <trkpt lat="48.74606" lon="-3.45509">
        <ele>142.41</ele>
        <time>2013-05-15T13:18:26Z</time>
      </trkpt>
      <trkpt lat="48.74605" lon="-3.45515">
        <ele>139.05</ele>
        <time>2013-05-15T13:18:27Z</time>
      </trkpt>
      <trkpt lat="48.74606" lon="-3.45519">
        <ele>136.64</ele>
        <time>2013-05-15T13:18:28Z</time>
      </trkpt>
      <trkpt lat="48.74608" lon="-3.45523">
        <ele>134.72</ele>
        <time>2013-05-15T13:18:29Z</time>
      </trkpt>
      <trkpt lat="48.74611" lon="-3.45526">
        <ele>131.84</ele>
        <time>2013-05-15T13:18:30Z</time>
      </trkpt>
      <trkpt lat="48.74614" lon="-3.45529">
        <ele>129.92</ele>
        <time>2013-05-15T13:18:31Z</time>
      </trkpt>
      <trkpt lat="48.74617" lon="-3.45532">
        <ele>127.51</ele>
        <time>2013-05-15T13:18:32Z</time>
      </trkpt>
      <trkpt lat="48.74623" lon="-3.45538">
        <ele>123.19</ele>
        <time>2013-05-15T13:18:34Z</time>
      </trkpt>
      <trkpt lat="48.74628" lon="-3.45544">
        <ele>119.34</ele>
        <time>2013-05-15T13:18:36Z</time>
      </trkpt>
      <trkpt lat="48.74634" lon="-3.4555">
        <ele>115.98</ele>
        <time>2013-05-15T13:18:38Z</time>
      </trkpt>
      <trkpt lat="48.74639" lon="-3.45556">
        <ele>112.61</ele>
        <time>2013-05-15T13:18:40Z</time>
      </trkpt>
      <trkpt lat="48.74645" lon="-3.45562">
        <ele>109.73</ele>
        <time>2013-05-15T13:18:42Z</time>
      </trkpt>
      <trkpt lat="48.74654" lon="-3.4557">
        <ele>105.4</ele>
        <time>2013-05-15T13:18:45Z</time>
      </trkpt>
      <trkpt lat="48.74662" lon="-3.45579">
        <ele>101.56</ele>
        <time>2013-05-15T13:18:48Z</time>
      </trkpt>
      <trkpt lat="48.74671" lon="-3.45588">
        <ele>98.19</ele>
        <time>2013-05-15T13:18:51Z</time>
      </trkpt>
      <trkpt lat="48.74681" lon="-3.45603">
        <ele>94.83</ele>
        <time>2013-05-15T13:18:55Z</time>
      </trkpt>
      <trkpt lat="48.74693" lon="-3.45622">
        <ele>91.46</ele>
        <time>2013-05-15T13:19:00Z</time>
      </trkpt>
      <trkpt lat="48.74696" lon="-3.45631">
        <ele>90.5</ele>
        <time>2013-05-15T13:19:02Z</time>
      </trkpt>
      <trkpt lat="48.747" lon="-3.45644">
        <ele>89.06</ele>
        <time>2013-05-15T13:19:05Z</time>
      </trkpt>
      <trkpt lat="48.74707" lon="-3.45694">
        <ele>85.69</ele>
        <time>2013-05-15T13:19:15Z</time>
      </trkpt>
      <trkpt lat="48.74705" lon="-3.45789">
        <ele>82.81</ele>
        <time>2013-05-15T13:19:34Z</time>
      </trkpt>
      <trkpt lat="48.74702" lon="-3.459">
        <ele>81.37</ele>
        <time>2013-05-15T13:19:55Z</time>
      </trkpt>
      <trkpt lat="48.74705" lon="-3.45939">
        <ele>80.89</ele>
        <time>2013-05-15T13:20:04Z</time>
      </trkpt>
      <trkpt lat="48.74695" lon="-3.4602">
        <ele>81.37</ele>
        <time>2013-05-15T13:20:18Z</time>
      </trkpt>
      <trkpt lat="48.74694" lon="-3.461">
        <ele>81.85</ele>
        <time>2013-05-15T13:20:32Z</time>
      </trkpt>
      <trkpt lat="48.74694" lon="-3.46104">
        <ele>81.85</ele>
        <time>2013-05-15T13:20:33Z</time>
      </trkpt>
      <trkpt lat="48.74695" lon="-3.46108">
        <ele>81.37</ele>
        <time>2013-05-15T13:20:34Z</time>
      </trkpt>
      <trkpt lat="48.74695" lon="-3.46111">
        <ele>81.85</ele>
        <time>2013-05-15T13:20:35Z</time>
      </trkpt>
      <trkpt lat="48.74696" lon="-3.46113">
        <ele>81.85</ele>
        <time>2013-05-15T13:20:36Z</time>
      </trkpt>
      <trkpt lat="48.74696" lon="-3.46116">
        <ele>80.89</ele>
        <time>2013-05-15T13:20:41Z</time>
      </trkpt>
      <trkpt lat="48.74696" lon="-3.46118">
        <ele>80.89</ele>
        <time>2013-05-15T13:20:42Z</time>
      </trkpt>
      <trkpt lat="48.74697" lon="-3.46121">
        <ele>81.37</ele>
        <time>2013-05-15T13:20:43Z</time>
      </trkpt>
      <trkpt lat="48.74699" lon="-3.46123">
        <ele>81.37</ele>
        <time>2013-05-15T13:20:44Z</time>
      </trkpt>
      <trkpt lat="48.74701" lon="-3.46127">
        <ele>81.37</ele>
        <time>2013-05-15T13:20:45Z</time>
      </trkpt>
      <trkpt lat="48.74703" lon="-3.4613">
        <ele>81.37</ele>
        <time>2013-05-15T13:20:46Z</time>
      </trkpt>
      <trkpt lat="48.74709" lon="-3.46145">
        <ele>81.85</ele>
        <time>2013-05-15T13:20:49Z</time>
      </trkpt>
      <trkpt lat="48.7471" lon="-3.46151">
        <ele>81.85</ele>
        <time>2013-05-15T13:20:50Z</time>
      </trkpt>
      <trkpt lat="48.74711" lon="-3.46158">
        <ele>82.33</ele>
        <time>2013-05-15T13:20:51Z</time>
      </trkpt>
      <trkpt lat="48.74711" lon="-3.46165">
        <ele>81.85</ele>
        <time>2013-05-15T13:20:52Z</time>
      </trkpt>
      <trkpt lat="48.7471" lon="-3.46172">
        <ele>81.85</ele>
        <time>2013-05-15T13:20:53Z</time>
      </trkpt>
      <trkpt lat="48.74708" lon="-3.46178">
        <ele>81.85</ele>
        <time>2013-05-15T13:20:54Z</time>
      </trkpt>
      <trkpt lat="48.74705" lon="-3.46184">
        <ele>81.85</ele>
        <time>2013-05-15T13:20:55Z</time>
      </trkpt>
      <trkpt lat="48.74702" lon="-3.46189">
        <ele>81.37</ele>
        <time>2013-05-15T13:20:56Z</time>
      </trkpt>
      <trkpt lat="48.74698" lon="-3.46194">
        <ele>81.37</ele>
        <time>2013-05-15T13:20:57Z</time>
      </trkpt>
      <trkpt lat="48.74694" lon="-3.46199">
        <ele>81.37</ele>
        <time>2013-05-15T13:20:58Z</time>
      </trkpt>
      <trkpt lat="48.7469" lon="-3.46203">
        <ele>81.37</ele>
        <time>2013-05-15T13:20:59Z</time>
      </trkpt>
      <trkpt lat="48.74686" lon="-3.46208">
        <ele>81.37</ele>
        <time>2013-05-15T13:21:00Z</time>
      </trkpt>
      <trkpt lat="48.74683" lon="-3.46213">
        <ele>81.37</ele>
        <time>2013-05-15T13:21:01Z</time>
      </trkpt>
      <trkpt lat="48.7468" lon="-3.4622">
        <ele>81.37</ele>
        <time>2013-05-15T13:21:02Z</time>
      </trkpt>
      <trkpt lat="48.74679" lon="-3.46227">
        <ele>81.85</ele>
        <time>2013-05-15T13:21:03Z</time>
      </trkpt>
      <trkpt lat="48.74677" lon="-3.46234">
        <ele>82.33</ele>
        <time>2013-05-15T13:21:04Z</time>
      </trkpt>
      <trkpt lat="48.74677" lon="-3.4624">
        <ele>82.81</ele>
        <time>2013-05-15T13:21:05Z</time>
      </trkpt>
      <trkpt lat="48.74666" lon="-3.46384">
        <ele>83.29</ele>
        <time>2013-05-15T13:21:25Z</time>
      </trkpt>
      <trkpt lat="48.74655" lon="-3.46532">
        <ele>81.37</ele>
        <time>2013-05-15T13:21:42Z</time>
      </trkpt>
      <trkpt lat="48.74647" lon="-3.46639">
        <ele>79.45</ele>
        <time>2013-05-15T13:21:53Z</time>
      </trkpt>
      <trkpt lat="48.74648" lon="-3.46648">
        <ele>79.45</ele>
        <time>2013-05-15T13:21:54Z</time>
      </trkpt>
      <trkpt lat="48.74648" lon="-3.46665">
        <ele>78.97</ele>
        <time>2013-05-15T13:21:56Z</time>
      </trkpt>
      <trkpt lat="48.74646" lon="-3.46673">
        <ele>78.97</ele>
        <time>2013-05-15T13:21:57Z</time>
      </trkpt>
      <trkpt lat="48.74644" lon="-3.46681">
        <ele>78.97</ele>
        <time>2013-05-15T13:21:58Z</time>
      </trkpt>
      <trkpt lat="48.74642" lon="-3.46689">
        <ele>78.97</ele>
        <time>2013-05-15T13:21:59Z</time>
      </trkpt>
      <trkpt lat="48.7464" lon="-3.46697">
        <ele>78.97</ele>
        <time>2013-05-15T13:22:00Z</time>
      </trkpt>
      <trkpt lat="48.7464" lon="-3.46705">
        <ele>78.97</ele>
        <time>2013-05-15T13:22:01Z</time>
      </trkpt>
      <trkpt lat="48.7464" lon="-3.46713">
        <ele>78.97</ele>
        <time>2013-05-15T13:22:02Z</time>
      </trkpt>
      <trkpt lat="48.7464" lon="-3.46737">
        <ele>79.45</ele>
        <time>2013-05-15T13:22:05Z</time>
      </trkpt>
      <trkpt lat="48.7463" lon="-3.46862">
        <ele>81.37</ele>
        <time>2013-05-15T13:22:22Z</time>
      </trkpt>
      <trkpt lat="48.74591" lon="-3.46993">
        <ele>82.81</ele>
        <time>2013-05-15T13:22:41Z</time>
      </trkpt>
      <trkpt lat="48.74521" lon="-3.47089">
        <ele>82.33</ele>
        <time>2013-05-15T13:22:58Z</time>
      </trkpt>
      <trkpt lat="48.74421" lon="-3.47185">
        <ele>79.93</ele>
        <time>2013-05-15T13:23:17Z</time>
      </trkpt>
      <trkpt lat="48.7434" lon="-3.47262">
        <ele>78.97</ele>
        <time>2013-05-15T13:23:33Z</time>
      </trkpt>
      <trkpt lat="48.74337" lon="-3.47268">
        <ele>78.97</ele>
        <time>2013-05-15T13:23:34Z</time>
      </trkpt>
      <trkpt lat="48.74335" lon="-3.47276">
        <ele>78.97</ele>
        <time>2013-05-15T13:23:35Z</time>
      </trkpt>
      <trkpt lat="48.74336" lon="-3.47283">
        <ele>79.45</ele>
        <time>2013-05-15T13:23:36Z</time>
      </trkpt>
      <trkpt lat="48.74338" lon="-3.4729">
        <ele>79.45</ele>
        <time>2013-05-15T13:23:37Z</time>
      </trkpt>
      <trkpt lat="48.74342" lon="-3.47297">
        <ele>79.45</ele>
        <time>2013-05-15T13:23:38Z</time>
      </trkpt>
      <trkpt lat="48.74345" lon="-3.47303">
        <ele>79.45</ele>
        <time>2013-05-15T13:23:39Z</time>
      </trkpt>
      <trkpt lat="48.74379" lon="-3.47378">
        <ele>81.85</ele>
        <time>2013-05-15T13:23:51Z</time>
      </trkpt>
      <trkpt lat="48.7439" lon="-3.47391">
        <ele>81.85</ele>
        <time>2013-05-15T13:23:54Z</time>
      </trkpt>
      <trkpt lat="48.74394" lon="-3.47394">
        <ele>81.85</ele>
        <time>2013-05-15T13:23:55Z</time>
      </trkpt>
      <trkpt lat="48.74399" lon="-3.47396">
        <ele>81.85</ele>
        <time>2013-05-15T13:23:56Z</time>
      </trkpt>
      <trkpt lat="48.74408" lon="-3.47401">
        <ele>82.33</ele>
        <time>2013-05-15T13:23:58Z</time>
      </trkpt>
      <trkpt lat="48.74417" lon="-3.47407">
        <ele>81.85</ele>
        <time>2013-05-15T13:24:00Z</time>
      </trkpt>
      <trkpt lat="48.74421" lon="-3.47411">
        <ele>81.85</ele>
        <time>2013-05-15T13:24:01Z</time>
      </trkpt>
      <trkpt lat="48.74424" lon="-3.47416">
        <ele>81.85</ele>
        <time>2013-05-15T13:24:02Z</time>
      </trkpt>
      <trkpt lat="48.74427" lon="-3.47422">
        <ele>82.33</ele>
        <time>2013-05-15T13:24:03Z</time>
      </trkpt>
      <trkpt lat="48.74429" lon="-3.47428">
        <ele>82.33</ele>
        <time>2013-05-15T13:24:04Z</time>
      </trkpt>
      <trkpt lat="48.74431" lon="-3.47435">
        <ele>82.81</ele>
        <time>2013-05-15T13:24:05Z</time>
      </trkpt>
      <trkpt lat="48.74432" lon="-3.47442">
        <ele>82.81</ele>
        <time>2013-05-15T13:24:06Z</time>
      </trkpt>
      <trkpt lat="48.74432" lon="-3.47449">
        <ele>82.81</ele>
        <time>2013-05-15T13:24:07Z</time>
      </trkpt>
      <trkpt lat="48.74432" lon="-3.47456">
        <ele>83.29</ele>
        <time>2013-05-15T13:24:08Z</time>
      </trkpt>
      <trkpt lat="48.74431" lon="-3.47461">
        <ele>82.81</ele>
        <time>2013-05-15T13:24:09Z</time>
      </trkpt>
      <trkpt lat="48.7443" lon="-3.47466">
        <ele>82.33</ele>
        <time>2013-05-15T13:24:10Z</time>
      </trkpt>
      <trkpt lat="48.74428" lon="-3.4747">
        <ele>82.33</ele>
        <time>2013-05-15T13:24:11Z</time>
      </trkpt>
      <trkpt lat="48.74426" lon="-3.47474">
        <ele>82.33</ele>
        <time>2013-05-15T13:24:12Z</time>
      </trkpt>
      <trkpt lat="48.74425" lon="-3.47478">
        <ele>82.33</ele>
        <time>2013-05-15T13:24:13Z</time>
      </trkpt>
      <trkpt lat="48.74423" lon="-3.47483">
        <ele>81.85</ele>
        <time>2013-05-15T13:24:14Z</time>
      </trkpt>
      <trkpt lat="48.74422" lon="-3.4749">
        <ele>82.33</ele>
        <time>2013-05-15T13:24:15Z</time>
      </trkpt>
      <trkpt lat="48.74423" lon="-3.47496">
        <ele>82.33</ele>
        <time>2013-05-15T13:24:16Z</time>
      </trkpt>
      <trkpt lat="48.74425" lon="-3.47502">
        <ele>82.81</ele>
        <time>2013-05-15T13:24:17Z</time>
      </trkpt>
      <trkpt lat="48.74428" lon="-3.47508">
        <ele>82.81</ele>
        <time>2013-05-15T13:24:18Z</time>
      </trkpt>
      <trkpt lat="48.74431" lon="-3.47513">
        <ele>82.81</ele>
        <time>2013-05-15T13:24:19Z</time>
      </trkpt>
      <trkpt lat="48.74434" lon="-3.47519">
        <ele>83.29</ele>
        <time>2013-05-15T13:24:20Z</time>
      </trkpt>
      <trkpt lat="48.74475" lon="-3.47595">
        <ele>82.33</ele>
        <time>2013-05-15T13:24:33Z</time>
      </trkpt>
      <trkpt lat="48.74484" lon="-3.47615">
        <ele>82.33</ele>
        <time>2013-05-15T13:24:36Z</time>
      </trkpt>
      <trkpt lat="48.74488" lon="-3.4762">
        <ele>81.85</ele>
        <time>2013-05-15T13:24:37Z</time>
      </trkpt>
      <trkpt lat="48.74493" lon="-3.47625">
        <ele>81.85</ele>
        <time>2013-05-15T13:24:38Z</time>
      </trkpt>
      <trkpt lat="48.74496" lon="-3.4763">
        <ele>81.85</ele>
        <time>2013-05-15T13:24:39Z</time>
      </trkpt>
      <trkpt lat="48.74499" lon="-3.47638">
        <ele>81.85</ele>
        <time>2013-05-15T13:24:40Z</time>
      </trkpt>
      <trkpt lat="48.74501" lon="-3.47646">
        <ele>81.37</ele>
        <time>2013-05-15T13:24:41Z</time>
      </trkpt>
      <trkpt lat="48.74504" lon="-3.47654">
        <ele>81.85</ele>
        <time>2013-05-15T13:24:42Z</time>
      </trkpt>
      <trkpt lat="48.74507" lon="-3.47661">
        <ele>81.37</ele>
        <time>2013-05-15T13:24:43Z</time>
      </trkpt>
      <trkpt lat="48.74512" lon="-3.47667">
        <ele>81.37</ele>
        <time>2013-05-15T13:24:44Z</time>
      </trkpt>
      <trkpt lat="48.74516" lon="-3.47672">
        <ele>80.89</ele>
        <time>2013-05-15T13:24:45Z</time>
      </trkpt>
      <trkpt lat="48.74521" lon="-3.47678">
        <ele>80.89</ele>
        <time>2013-05-15T13:24:46Z</time>
      </trkpt>
      <trkpt lat="48.74525" lon="-3.47685">
        <ele>80.89</ele>
        <time>2013-05-15T13:24:47Z</time>
      </trkpt>
      <trkpt lat="48.74528" lon="-3.47691">
        <ele>81.37</ele>
        <time>2013-05-15T13:24:48Z</time>
      </trkpt>
      <trkpt lat="48.74591" lon="-3.47824">
        <ele>78</ele>
        <time>2013-05-15T13:25:05Z</time>
      </trkpt>
      <trkpt lat="48.74622" lon="-3.47912">
        <ele>81.85</ele>
        <time>2013-05-15T13:25:18Z</time>
      </trkpt>
      <trkpt lat="48.74624" lon="-3.47917">
        <ele>81.37</ele>
        <time>2013-05-15T13:25:19Z</time>
      </trkpt>
      <trkpt lat="48.74669" lon="-3.48032">
        <ele>84.73</ele>
        <time>2013-05-15T13:25:40Z</time>
      </trkpt>
      <trkpt lat="48.74712" lon="-3.48145">
        <ele>85.21</ele>
        <time>2013-05-15T13:26:00Z</time>
      </trkpt>
      <trkpt lat="48.74751" lon="-3.48247">
        <ele>87.14</ele>
        <time>2013-05-15T13:26:17Z</time>
      </trkpt>
      <trkpt lat="48.74795" lon="-3.48356">
        <ele>90.5</ele>
        <time>2013-05-15T13:26:35Z</time>
      </trkpt>
      <trkpt lat="48.74829" lon="-3.48445">
        <ele>93.39</ele>
        <time>2013-05-15T13:26:51Z</time>
      </trkpt>
      <trkpt lat="48.74856" lon="-3.48514">
        <ele>96.75</ele>
        <time>2013-05-15T13:27:04Z</time>
      </trkpt>
      <trkpt lat="48.74871" lon="-3.48545">
        <ele>97.23</ele>
        <time>2013-05-15T13:27:14Z</time>
      </trkpt>
      <trkpt lat="48.74892" lon="-3.48585">
        <ele>99.15</ele>
        <time>2013-05-15T13:27:25Z</time>
      </trkpt>
      <trkpt lat="48.74896" lon="-3.48593">
        <ele>99.63</ele>
        <time>2013-05-15T13:27:27Z</time>
      </trkpt>
      <trkpt lat="48.74897" lon="-3.48597">
        <ele>100.11</ele>
        <time>2013-05-15T13:27:28Z</time>
      </trkpt>
      <trkpt lat="48.74897" lon="-3.48601">
        <ele>99.63</ele>
        <time>2013-05-15T13:27:29Z</time>
      </trkpt>
      <trkpt lat="48.74896" lon="-3.48605">
        <ele>100.11</ele>
        <time>2013-05-15T13:27:30Z</time>
      </trkpt>
      <trkpt lat="48.74893" lon="-3.48608">
        <ele>99.63</ele>
        <time>2013-05-15T13:27:31Z</time>
      </trkpt>
      <trkpt lat="48.74889" lon="-3.48609">
        <ele>100.11</ele>
        <time>2013-05-15T13:27:32Z</time>
      </trkpt>
      <trkpt lat="48.74885" lon="-3.48611">
        <ele>99.63</ele>
        <time>2013-05-15T13:27:33Z</time>
      </trkpt>
      <trkpt lat="48.74882" lon="-3.48614">
        <ele>99.63</ele>
        <time>2013-05-15T13:27:34Z</time>
      </trkpt>
      <trkpt lat="48.74878" lon="-3.48619">
        <ele>99.63</ele>
        <time>2013-05-15T13:27:35Z</time>
      </trkpt>
      <trkpt lat="48.74876" lon="-3.48624">
        <ele>99.63</ele>
        <time>2013-05-15T13:27:36Z</time>
      </trkpt>
      <trkpt lat="48.74875" lon="-3.48631">
        <ele>99.63</ele>
        <time>2013-05-15T13:27:37Z</time>
      </trkpt>
      <trkpt lat="48.74874" lon="-3.48638">
        <ele>99.63</ele>
        <time>2013-05-15T13:27:38Z</time>
      </trkpt>
      <trkpt lat="48.74875" lon="-3.48644">
        <ele>100.11</ele>
        <time>2013-05-15T13:27:39Z</time>
      </trkpt>
      <trkpt lat="48.74875" lon="-3.48651">
        <ele>100.11</ele>
        <time>2013-05-15T13:27:40Z</time>
      </trkpt>
      <trkpt lat="48.74876" lon="-3.48657">
        <ele>100.6</ele>
        <time>2013-05-15T13:27:41Z</time>
      </trkpt>
      <trkpt lat="48.74878" lon="-3.48663">
        <ele>100.6</ele>
        <time>2013-05-15T13:27:42Z</time>
      </trkpt>
      <trkpt lat="48.74878" lon="-3.48669">
        <ele>100.6</ele>
        <time>2013-05-15T13:27:43Z</time>
      </trkpt>
      <trkpt lat="48.74877" lon="-3.48675">
        <ele>101.08</ele>
        <time>2013-05-15T13:27:44Z</time>
      </trkpt>
      <trkpt lat="48.74875" lon="-3.48681">
        <ele>101.56</ele>
        <time>2013-05-15T13:27:45Z</time>
      </trkpt>
      <trkpt lat="48.74872" lon="-3.48686">
        <ele>101.56</ele>
        <time>2013-05-15T13:27:46Z</time>
      </trkpt>
      <trkpt lat="48.74868" lon="-3.4869">
        <ele>101.08</ele>
        <time>2013-05-15T13:27:47Z</time>
      </trkpt>
      <trkpt lat="48.74822" lon="-3.48731">
        <ele>101.56</ele>
        <time>2013-05-15T13:27:59Z</time>
      </trkpt>
      <trkpt lat="48.74818" lon="-3.48733">
        <ele>101.56</ele>
        <time>2013-05-15T13:28:00Z</time>
      </trkpt>
      <trkpt lat="48.74722" lon="-3.48761">
        <ele>101.08</ele>
        <time>2013-05-15T13:28:18Z</time>
      </trkpt>
      <trkpt lat="48.74716" lon="-3.48763">
        <ele>101.08</ele>
        <time>2013-05-15T13:28:19Z</time>
      </trkpt>
      <trkpt lat="48.74711" lon="-3.48767">
        <ele>101.08</ele>
        <time>2013-05-15T13:28:20Z</time>
      </trkpt>
      <trkpt lat="48.74665" lon="-3.4881">
        <ele>101.56</ele>
        <time>2013-05-15T13:28:30Z</time>
      </trkpt>
      <trkpt lat="48.74661" lon="-3.48815">
        <ele>102.04</ele>
        <time>2013-05-15T13:28:31Z</time>
      </trkpt>
      <trkpt lat="48.74658" lon="-3.48821">
        <ele>102.04</ele>
        <time>2013-05-15T13:28:32Z</time>
      </trkpt>
      <trkpt lat="48.74656" lon="-3.48827">
        <ele>102.52</ele>
        <time>2013-05-15T13:28:33Z</time>
      </trkpt>
      <trkpt lat="48.74654" lon="-3.48832">
        <ele>103</ele>
        <time>2013-05-15T13:28:34Z</time>
      </trkpt>
      <trkpt lat="48.74626" lon="-3.48889">
        <ele>103.48</ele>
        <time>2013-05-15T13:28:46Z</time>
      </trkpt>
      <trkpt lat="48.74622" lon="-3.48887">
        <ele>103.48</ele>
        <time>2013-05-15T13:28:47Z</time>
      </trkpt>
      <trkpt lat="48.74602" lon="-3.48879">
        <ele>103.96</ele>
        <time>2013-05-15T13:28:52Z</time>
      </trkpt>
      <trkpt lat="48.74598" lon="-3.4888">
        <ele>103.96</ele>
        <time>2013-05-15T13:28:53Z</time>
      </trkpt>
      <trkpt lat="48.74595" lon="-3.48883">
        <ele>103.96</ele>
        <time>2013-05-15T13:28:54Z</time>
      </trkpt>
      <trkpt lat="48.74592" lon="-3.48888">
        <ele>104.44</ele>
        <time>2013-05-15T13:28:55Z</time>
      </trkpt>
      <trkpt lat="48.74591" lon="-3.48894">
        <ele>103.96</ele>
        <time>2013-05-15T13:28:56Z</time>
      </trkpt>
      <trkpt lat="48.7459" lon="-3.48902">
        <ele>104.44</ele>
        <time>2013-05-15T13:28:57Z</time>
      </trkpt>
      <trkpt lat="48.7459" lon="-3.48909">
        <ele>103.96</ele>
        <time>2013-05-15T13:28:58Z</time>
      </trkpt>
      <trkpt lat="48.74591" lon="-3.48917">
        <ele>103.96</ele>
        <time>2013-05-15T13:28:59Z</time>
      </trkpt>
      <trkpt lat="48.74592" lon="-3.48925">
        <ele>103.96</ele>
        <time>2013-05-15T13:29:00Z</time>
      </trkpt>
      <trkpt lat="48.74596" lon="-3.49045">
        <ele>104.44</ele>
        <time>2013-05-15T13:29:15Z</time>
      </trkpt>
      <trkpt lat="48.74592" lon="-3.49091">
        <ele>104.44</ele>
        <time>2013-05-15T13:29:21Z</time>
      </trkpt>
      <trkpt lat="48.74585" lon="-3.49213">
        <ele>104.92</ele>
        <time>2013-05-15T13:29:37Z</time>
      </trkpt>
      <trkpt lat="48.74582" lon="-3.49313">
        <ele>104.92</ele>
        <time>2013-05-15T13:29:50Z</time>
      </trkpt>
      <trkpt lat="48.74581" lon="-3.49321">
        <ele>104.92</ele>
        <time>2013-05-15T13:29:51Z</time>
      </trkpt>
      <trkpt lat="48.74579" lon="-3.49329">
        <ele>104.92</ele>
        <time>2013-05-15T13:29:52Z</time>
      </trkpt>
      <trkpt lat="48.74577" lon="-3.49336">
        <ele>103.96</ele>
        <time>2013-05-15T13:29:53Z</time>
      </trkpt>
      <trkpt lat="48.74574" lon="-3.49344">
        <ele>103.96</ele>
        <time>2013-05-15T13:29:54Z</time>
      </trkpt>
      <trkpt lat="48.74539" lon="-3.49427">
        <ele>100.6</ele>
        <time>2013-05-15T13:30:03Z</time>
      </trkpt>
      <trkpt lat="48.74534" lon="-3.49438">
        <ele>100.11</ele>
        <time>2013-05-15T13:30:04Z</time>
      </trkpt>
      <trkpt lat="48.74521" lon="-3.49472">
        <ele>99.63</ele>
        <time>2013-05-15T13:30:07Z</time>
      </trkpt>
      <trkpt lat="48.74518" lon="-3.49485">
        <ele>99.15</ele>
        <time>2013-05-15T13:30:08Z</time>
      </trkpt>
      <trkpt lat="48.74515" lon="-3.49499">
        <ele>98.67</ele>
        <time>2013-05-15T13:30:09Z</time>
      </trkpt>
      <trkpt lat="48.74513" lon="-3.49512">
        <ele>98.19</ele>
        <time>2013-05-15T13:30:10Z</time>
      </trkpt>
      <trkpt lat="48.74512" lon="-3.49526">
        <ele>98.19</ele>
        <time>2013-05-15T13:30:11Z</time>
      </trkpt>
      <trkpt lat="48.74511" lon="-3.4954">
        <ele>97.71</ele>
        <time>2013-05-15T13:30:12Z</time>
      </trkpt>
      <trkpt lat="48.74512" lon="-3.49554">
        <ele>97.23</ele>
        <time>2013-05-15T13:30:13Z</time>
      </trkpt>
      <trkpt lat="48.74519" lon="-3.49635">
        <ele>94.35</ele>
        <time>2013-05-15T13:30:19Z</time>
      </trkpt>
      <trkpt lat="48.74518" lon="-3.49674">
        <ele>92.9</ele>
        <time>2013-05-15T13:30:22Z</time>
      </trkpt>
      <trkpt lat="48.74496" lon="-3.49819">
        <ele>92.9</ele>
        <time>2013-05-15T13:30:35Z</time>
      </trkpt>
      <trkpt lat="48.74471" lon="-3.49935">
        <ele>94.35</ele>
        <time>2013-05-15T13:30:49Z</time>
      </trkpt>
      <trkpt lat="48.74453" lon="-3.50061">
        <ele>96.75</ele>
        <time>2013-05-15T13:31:04Z</time>
      </trkpt>
      <trkpt lat="48.74451" lon="-3.50087">
        <ele>97.23</ele>
        <time>2013-05-15T13:31:07Z</time>
      </trkpt>
      <trkpt lat="48.7445" lon="-3.50096">
        <ele>97.23</ele>
        <time>2013-05-15T13:31:08Z</time>
      </trkpt>
      <trkpt lat="48.74446" lon="-3.50113">
        <ele>96.75</ele>
        <time>2013-05-15T13:31:10Z</time>
      </trkpt>
      <trkpt lat="48.74443" lon="-3.50121">
        <ele>96.75</ele>
        <time>2013-05-15T13:31:11Z</time>
      </trkpt>
      <trkpt lat="48.744" lon="-3.50236">
        <ele>97.23</ele>
        <time>2013-05-15T13:31:25Z</time>
      </trkpt>
      <trkpt lat="48.74341" lon="-3.50397">
        <ele>94.35</ele>
        <time>2013-05-15T13:31:44Z</time>
      </trkpt>
      <trkpt lat="48.74302" lon="-3.50532">
        <ele>90.98</ele>
        <time>2013-05-15T13:31:58Z</time>
      </trkpt>
      <trkpt lat="48.74268" lon="-3.50682">
        <ele>88.58</ele>
        <time>2013-05-15T13:32:12Z</time>
      </trkpt>
      <trkpt lat="48.74223" lon="-3.50781">
        <ele>85.21</ele>
        <time>2013-05-15T13:32:22Z</time>
      </trkpt>
      <trkpt lat="48.74198" lon="-3.50892">
        <ele>86.66</ele>
        <time>2013-05-15T13:32:34Z</time>
      </trkpt>
      <trkpt lat="48.74192" lon="-3.50928">
        <ele>88.58</ele>
        <time>2013-05-15T13:32:39Z</time>
      </trkpt>
      <trkpt lat="48.74178" lon="-3.51039">
        <ele>90.98</ele>
        <time>2013-05-15T13:32:54Z</time>
      </trkpt>
      <trkpt lat="48.74163" lon="-3.51178">
        <ele>92.9</ele>
        <time>2013-05-15T13:33:12Z</time>
      </trkpt>
      <trkpt lat="48.74137" lon="-3.51286">
        <ele>94.35</ele>
        <time>2013-05-15T13:33:27Z</time>
      </trkpt>
      <trkpt lat="48.74095" lon="-3.51439">
        <ele>90.98</ele>
        <time>2013-05-15T13:33:44Z</time>
      </trkpt>
      <trkpt lat="48.74077" lon="-3.51565">
        <ele>88.1</ele>
        <time>2013-05-15T13:33:56Z</time>
      </trkpt>
      <trkpt lat="48.74074" lon="-3.51658">
        <ele>85.21</ele>
        <time>2013-05-15T13:34:04Z</time>
      </trkpt>
      <trkpt lat="48.74085" lon="-3.51785">
        <ele>82.33</ele>
        <time>2013-05-15T13:34:14Z</time>
      </trkpt>
      <trkpt lat="48.74079" lon="-3.51944">
        <ele>80.41</ele>
        <time>2013-05-15T13:34:29Z</time>
      </trkpt>
      <trkpt lat="48.74078" lon="-3.51996">
        <ele>82.33</ele>
        <time>2013-05-15T13:34:35Z</time>
      </trkpt>
      <trkpt lat="48.74072" lon="-3.5208">
        <ele>83.29</ele>
        <time>2013-05-15T13:34:45Z</time>
      </trkpt>
      <trkpt lat="48.74062" lon="-3.52156">
        <ele>84.25</ele>
        <time>2013-05-15T13:34:55Z</time>
      </trkpt>
      <trkpt lat="48.74053" lon="-3.52274">
        <ele>85.69</ele>
        <time>2013-05-15T13:35:10Z</time>
      </trkpt>
      <trkpt lat="48.74055" lon="-3.52323">
        <ele>86.18</ele>
        <time>2013-05-15T13:35:16Z</time>
      </trkpt>
      <trkpt lat="48.74057" lon="-3.52343">
        <ele>87.14</ele>
        <time>2013-05-15T13:35:19Z</time>
      </trkpt>
      <trkpt lat="48.74061" lon="-3.52452">
        <ele>89.06</ele>
        <time>2013-05-15T13:35:33Z</time>
      </trkpt>
      <trkpt lat="48.74072" lon="-3.52571">
        <ele>90.98</ele>
        <time>2013-05-15T13:35:49Z</time>
      </trkpt>
      <trkpt lat="48.74082" lon="-3.52708">
        <ele>89.06</ele>
        <time>2013-05-15T13:36:04Z</time>
      </trkpt>
      <trkpt lat="48.74083" lon="-3.52849">
        <ele>86.66</ele>
        <time>2013-05-15T13:36:18Z</time>
      </trkpt>
      <trkpt lat="48.74086" lon="-3.52868">
        <ele>86.66</ele>
        <time>2013-05-15T13:36:20Z</time>
      </trkpt>
      <trkpt lat="48.74107" lon="-3.52985">
        <ele>84.25</ele>
        <time>2013-05-15T13:36:32Z</time>
      </trkpt>
      <trkpt lat="48.7411" lon="-3.52995">
        <ele>83.77</ele>
        <time>2013-05-15T13:36:33Z</time>
      </trkpt>
      <trkpt lat="48.7414" lon="-3.53129">
        <ele>80.41</ele>
        <time>2013-05-15T13:36:46Z</time>
      </trkpt>
      <trkpt lat="48.74148" lon="-3.5321">
        <ele>79.45</ele>
        <time>2013-05-15T13:36:54Z</time>
      </trkpt>
      <trkpt lat="48.74147" lon="-3.53265">
        <ele>80.41</ele>
        <time>2013-05-15T13:37:00Z</time>
      </trkpt>
      <trkpt lat="48.74145" lon="-3.53273">
        <ele>80.41</ele>
        <time>2013-05-15T13:37:01Z</time>
      </trkpt>
      <trkpt lat="48.74143" lon="-3.53281">
        <ele>80.41</ele>
        <time>2013-05-15T13:37:02Z</time>
      </trkpt>
      <trkpt lat="48.74091" lon="-3.53383">
        <ele>81.37</ele>
        <time>2013-05-15T13:37:17Z</time>
      </trkpt>
      <trkpt lat="48.74016" lon="-3.5345">
        <ele>78.48</ele>
        <time>2013-05-15T13:37:29Z</time>
      </trkpt>
      <trkpt lat="48.73927" lon="-3.53541">
        <ele>78.48</ele>
        <time>2013-05-15T13:37:44Z</time>
      </trkpt>
      <trkpt lat="48.73898" lon="-3.53583">
        <ele>78</ele>
        <time>2013-05-15T13:37:50Z</time>
      </trkpt>
      <trkpt lat="48.73894" lon="-3.53591">
        <ele>77.52</ele>
        <time>2013-05-15T13:37:51Z</time>
      </trkpt>
      <trkpt lat="48.7389" lon="-3.536">
        <ele>77.52</ele>
        <time>2013-05-15T13:37:52Z</time>
      </trkpt>
      <trkpt lat="48.73886" lon="-3.5361">
        <ele>77.52</ele>
        <time>2013-05-15T13:37:53Z</time>
      </trkpt>
      <trkpt lat="48.73883" lon="-3.5362">
        <ele>77.52</ele>
        <time>2013-05-15T13:37:54Z</time>
      </trkpt>
      <trkpt lat="48.73881" lon="-3.5363">
        <ele>77.52</ele>
        <time>2013-05-15T13:37:55Z</time>
      </trkpt>
      <trkpt lat="48.73855" lon="-3.53779">
        <ele>74.16</ele>
        <time>2013-05-15T13:38:09Z</time>
      </trkpt>
      <trkpt lat="48.73842" lon="-3.53871">
        <ele>73.68</ele>
        <time>2013-05-15T13:38:17Z</time>
      </trkpt>
      <trkpt lat="48.73842" lon="-3.53881">
        <ele>73.68</ele>
        <time>2013-05-15T13:38:18Z</time>
      </trkpt>
      <trkpt lat="48.73843" lon="-3.53891">
        <ele>73.68</ele>
        <time>2013-05-15T13:38:19Z</time>
      </trkpt>
      <trkpt lat="48.73843" lon="-3.539">
        <ele>74.16</ele>
        <time>2013-05-15T13:38:20Z</time>
      </trkpt>
      <trkpt lat="48.73844" lon="-3.53908">
        <ele>74.64</ele>
        <time>2013-05-15T13:38:21Z</time>
      </trkpt>
      <trkpt lat="48.73849" lon="-3.53935">
        <ele>76.56</ele>
        <time>2013-05-15T13:38:25Z</time>
      </trkpt>
      <trkpt lat="48.73851" lon="-3.53941">
        <ele>77.04</ele>
        <time>2013-05-15T13:38:26Z</time>
      </trkpt>
      <trkpt lat="48.73853" lon="-3.53948">
        <ele>77.52</ele>
        <time>2013-05-15T13:38:27Z</time>
      </trkpt>
      <trkpt lat="48.73862" lon="-3.53997">
        <ele>78.48</ele>
        <time>2013-05-15T13:38:34Z</time>
      </trkpt>
      <trkpt lat="48.73863" lon="-3.54004">
        <ele>78.48</ele>
        <time>2013-05-15T13:38:35Z</time>
      </trkpt>
      <trkpt lat="48.73863" lon="-3.54011">
        <ele>78.48</ele>
        <time>2013-05-15T13:38:36Z</time>
      </trkpt>
      <trkpt lat="48.73863" lon="-3.54019">
        <ele>78.97</ele>
        <time>2013-05-15T13:38:37Z</time>
      </trkpt>
      <trkpt lat="48.73862" lon="-3.54026">
        <ele>78.48</ele>
        <time>2013-05-15T13:38:38Z</time>
      </trkpt>
      <trkpt lat="48.7386" lon="-3.54033">
        <ele>78.48</ele>
        <time>2013-05-15T13:38:39Z</time>
      </trkpt>
      <trkpt lat="48.73858" lon="-3.5404">
        <ele>78.48</ele>
        <time>2013-05-15T13:38:40Z</time>
      </trkpt>
      <trkpt lat="48.73848" lon="-3.54082">
        <ele>78.48</ele>
        <time>2013-05-15T13:38:47Z</time>
      </trkpt>
      <trkpt lat="48.73848" lon="-3.54086">
        <ele>78</ele>
        <time>2013-05-15T13:38:48Z</time>
      </trkpt>
      <trkpt lat="48.7385" lon="-3.5409">
        <ele>77.52</ele>
        <time>2013-05-15T13:38:49Z</time>
      </trkpt>
      <trkpt lat="48.73852" lon="-3.54092">
        <ele>77.04</ele>
        <time>2013-05-15T13:38:50Z</time>
      </trkpt>
      <trkpt lat="48.73854" lon="-3.54093">
        <ele>76.56</ele>
        <time>2013-05-15T13:38:51Z</time>
      </trkpt>
      <trkpt lat="48.73856" lon="-3.54094">
        <ele>76.56</ele>
        <time>2013-05-15T13:38:52Z</time>
      </trkpt>
      <trkpt lat="48.73857" lon="-3.54094">
        <ele>76.56</ele>
        <time>2013-05-15T13:38:53Z</time>
      </trkpt>
      <trkpt lat="48.73858" lon="-3.54096">
        <ele>76.08</ele>
        <time>2013-05-15T13:39:10Z</time>
      </trkpt>
      <trkpt lat="48.73861" lon="-3.54096">
        <ele>76.08</ele>
        <time>2013-05-15T13:39:33Z</time>
      </trkpt>
      <trkpt lat="48.73857" lon="-3.54099">
        <ele>76.08</ele>
        <time>2013-05-15T13:39:54Z</time>
      </trkpt>
      <trkpt lat="48.73856" lon="-3.541">
        <ele>76.56</ele>
        <time>2013-05-15T13:40:22Z</time>
      </trkpt>
      <trkpt lat="48.73855" lon="-3.541">
        <ele>76.08</ele>
        <time>2013-05-15T13:40:51Z</time>
      </trkpt>
      <trkpt lat="48.73853" lon="-3.541">
        <ele>76.56</ele>
        <time>2013-05-15T13:41:18Z</time>
      </trkpt>
      <trkpt lat="48.73853" lon="-3.54101">
        <ele>76.56</ele>
        <time>2013-05-15T13:41:46Z</time>
      </trkpt>
      <trkpt lat="48.73853" lon="-3.54101">
        <ele>76.56</ele>
        <time>2013-05-15T13:42:12Z</time>
      </trkpt>
      <trkpt lat="48.73853" lon="-3.54101">
        <ele>76.08</ele>
        <time>2013-05-15T13:42:15Z</time>
      </trkpt>
      <trkpt lat="48.73854" lon="-3.54102">
        <ele>76.56</ele>
        <time>2013-05-15T13:42:16Z</time>
      </trkpt>
      <trkpt lat="48.73858" lon="-3.54103">
        <ele>76.56</ele>
        <time>2013-05-15T13:42:18Z</time>
      </trkpt>
      <trkpt lat="48.73873" lon="-3.54106">
        <ele>77.04</ele>
        <time>2013-05-15T13:42:22Z</time>
      </trkpt>
      <trkpt lat="48.73878" lon="-3.54107">
        <ele>76.56</ele>
        <time>2013-05-15T13:42:23Z</time>
      </trkpt>
      <trkpt lat="48.73958" lon="-3.54129">
        <ele>77.52</ele>
        <time>2013-05-15T13:42:38Z</time>
      </trkpt>
      <trkpt lat="48.74055" lon="-3.5416">
        <ele>77.04</ele>
        <time>2013-05-15T13:42:57Z</time>
      </trkpt>
      <trkpt lat="48.7406" lon="-3.54161">
        <ele>77.04</ele>
        <time>2013-05-15T13:42:58Z</time>
      </trkpt>
      <trkpt lat="48.74099" lon="-3.54167">
        <ele>76.08</ele>
        <time>2013-05-15T13:43:05Z</time>
      </trkpt>
      <trkpt lat="48.74105" lon="-3.5417">
        <ele>75.6</ele>
        <time>2013-05-15T13:43:06Z</time>
      </trkpt>
      <trkpt lat="48.7411" lon="-3.54173">
        <ele>76.08</ele>
        <time>2013-05-15T13:43:07Z</time>
      </trkpt>
      <trkpt lat="48.74116" lon="-3.54177">
        <ele>75.6</ele>
        <time>2013-05-15T13:43:08Z</time>
      </trkpt>
      <trkpt lat="48.74121" lon="-3.54181">
        <ele>75.6</ele>
        <time>2013-05-15T13:43:09Z</time>
      </trkpt>
      <trkpt lat="48.74145" lon="-3.54202">
        <ele>75.6</ele>
        <time>2013-05-15T13:43:14Z</time>
      </trkpt>
      <trkpt lat="48.7415" lon="-3.54205">
        <ele>76.56</ele>
        <time>2013-05-15T13:43:15Z</time>
      </trkpt>
      <trkpt lat="48.74155" lon="-3.54207">
        <ele>77.04</ele>
        <time>2013-05-15T13:43:16Z</time>
      </trkpt>
      <trkpt lat="48.74178" lon="-3.54211">
        <ele>77.52</ele>
        <time>2013-05-15T13:43:21Z</time>
      </trkpt>
      <trkpt lat="48.7421" lon="-3.54195">
        <ele>78</ele>
        <time>2013-05-15T13:43:28Z</time>
      </trkpt>
      <trkpt lat="48.74214" lon="-3.54191">
        <ele>77.52</ele>
        <time>2013-05-15T13:43:29Z</time>
      </trkpt>
      <trkpt lat="48.74218" lon="-3.54185">
        <ele>77.52</ele>
        <time>2013-05-15T13:43:30Z</time>
      </trkpt>
      <trkpt lat="48.74222" lon="-3.54179">
        <ele>77.04</ele>
        <time>2013-05-15T13:43:31Z</time>
      </trkpt>
      <trkpt lat="48.74224" lon="-3.54172">
        <ele>77.52</ele>
        <time>2013-05-15T13:43:32Z</time>
      </trkpt>
      <trkpt lat="48.74226" lon="-3.54164">
        <ele>77.52</ele>
        <time>2013-05-15T13:43:33Z</time>
      </trkpt>
      <trkpt lat="48.74228" lon="-3.54156">
        <ele>77.52</ele>
        <time>2013-05-15T13:43:34Z</time>
      </trkpt>
      <trkpt lat="48.74251" lon="-3.54068">
        <ele>78</ele>
        <time>2013-05-15T13:43:46Z</time>
      </trkpt>
      <trkpt lat="48.74254" lon="-3.54061">
        <ele>77.52</ele>
        <time>2013-05-15T13:43:47Z</time>
      </trkpt>
      <trkpt lat="48.74312" lon="-3.5393">
        <ele>77.52</ele>
        <time>2013-05-15T13:44:04Z</time>
      </trkpt>
      <trkpt lat="48.74358" lon="-3.53837">
        <ele>76.56</ele>
        <time>2013-05-15T13:44:16Z</time>
      </trkpt>
      <trkpt lat="48.74366" lon="-3.5381">
        <ele>78</ele>
        <time>2013-05-15T13:44:20Z</time>
      </trkpt>
      <trkpt lat="48.74379" lon="-3.5376">
        <ele>80.41</ele>
        <time>2013-05-15T13:44:28Z</time>
      </trkpt>
      <trkpt lat="48.74387" lon="-3.53723">
        <ele>82.33</ele>
        <time>2013-05-15T13:44:34Z</time>
      </trkpt>
      <trkpt lat="48.74389" lon="-3.53717">
        <ele>82.33</ele>
        <time>2013-05-15T13:44:35Z</time>
      </trkpt>
      <trkpt lat="48.7439" lon="-3.5371">
        <ele>82.81</ele>
        <time>2013-05-15T13:44:36Z</time>
      </trkpt>
      <trkpt lat="48.74409" lon="-3.53589">
        <ele>85.69</ele>
        <time>2013-05-15T13:44:53Z</time>
      </trkpt>
      <trkpt lat="48.74411" lon="-3.53582">
        <ele>85.69</ele>
        <time>2013-05-15T13:44:54Z</time>
      </trkpt>
      <trkpt lat="48.74432" lon="-3.53463">
        <ele>87.14</ele>
        <time>2013-05-15T13:45:10Z</time>
      </trkpt>
      <trkpt lat="48.7444" lon="-3.53433">
        <ele>87.62</ele>
        <time>2013-05-15T13:45:14Z</time>
      </trkpt>
      <trkpt lat="48.74489" lon="-3.53362">
        <ele>88.1</ele>
        <time>2013-05-15T13:45:27Z</time>
      </trkpt>
      <trkpt lat="48.74581" lon="-3.53279">
        <ele>87.14</ele>
        <time>2013-05-15T13:45:46Z</time>
      </trkpt>
      <trkpt lat="48.7464" lon="-3.53198">
        <ele>88.1</ele>
        <time>2013-05-15T13:46:00Z</time>
      </trkpt>
      <trkpt lat="48.74644" lon="-3.53193">
        <ele>88.1</ele>
        <time>2013-05-15T13:46:01Z</time>
      </trkpt>
      <trkpt lat="48.74697" lon="-3.53079">
        <ele>88.58</ele>
        <time>2013-05-15T13:46:17Z</time>
      </trkpt>
      <trkpt lat="48.74732" lon="-3.52937">
        <ele>89.06</ele>
        <time>2013-05-15T13:46:35Z</time>
      </trkpt>
      <trkpt lat="48.74736" lon="-3.52921">
        <ele>89.06</ele>
        <time>2013-05-15T13:46:37Z</time>
      </trkpt>
      <trkpt lat="48.7477" lon="-3.52817">
        <ele>91.94</ele>
        <time>2013-05-15T13:46:52Z</time>
      </trkpt>
      <trkpt lat="48.74783" lon="-3.52795">
        <ele>92.42</ele>
        <time>2013-05-15T13:46:56Z</time>
      </trkpt>
      <trkpt lat="48.74838" lon="-3.52729">
        <ele>95.31</ele>
        <time>2013-05-15T13:47:10Z</time>
      </trkpt>
      <trkpt lat="48.74842" lon="-3.52723">
        <ele>95.31</ele>
        <time>2013-05-15T13:47:11Z</time>
      </trkpt>
      <trkpt lat="48.74845" lon="-3.52717">
        <ele>95.31</ele>
        <time>2013-05-15T13:47:12Z</time>
      </trkpt>
      <trkpt lat="48.74891" lon="-3.52611">
        <ele>98.67</ele>
        <time>2013-05-15T13:47:29Z</time>
      </trkpt>
      <trkpt lat="48.74914" lon="-3.52554">
        <ele>100.11</ele>
        <time>2013-05-15T13:47:38Z</time>
      </trkpt>
      <trkpt lat="48.74921" lon="-3.52542">
        <ele>100.6</ele>
        <time>2013-05-15T13:47:40Z</time>
      </trkpt>
      <trkpt lat="48.74938" lon="-3.52517">
        <ele>101.56</ele>
        <time>2013-05-15T13:47:45Z</time>
      </trkpt>
      <trkpt lat="48.74943" lon="-3.52514">
        <ele>102.04</ele>
        <time>2013-05-15T13:47:46Z</time>
      </trkpt>
      <trkpt lat="48.74956" lon="-3.52502">
        <ele>102.52</ele>
        <time>2013-05-15T13:47:49Z</time>
      </trkpt>
      <trkpt lat="48.74961" lon="-3.52499">
        <ele>102.52</ele>
        <time>2013-05-15T13:47:50Z</time>
      </trkpt>
      <trkpt lat="48.74965" lon="-3.52496">
        <ele>102.52</ele>
        <time>2013-05-15T13:47:51Z</time>
      </trkpt>
      <trkpt lat="48.7497" lon="-3.52492">
        <ele>102.52</ele>
        <time>2013-05-15T13:47:52Z</time>
      </trkpt>
      <trkpt lat="48.74974" lon="-3.52488">
        <ele>102.52</ele>
        <time>2013-05-15T13:47:53Z</time>
      </trkpt>
      <trkpt lat="48.74983" lon="-3.5248">
        <ele>102.52</ele>
        <time>2013-05-15T13:47:55Z</time>
      </trkpt>
      <trkpt lat="48.74987" lon="-3.52475">
        <ele>102.52</ele>
        <time>2013-05-15T13:47:56Z</time>
      </trkpt>
      <trkpt lat="48.74991" lon="-3.5247">
        <ele>102.52</ele>
        <time>2013-05-15T13:47:57Z</time>
      </trkpt>
      <trkpt lat="48.74994" lon="-3.52464">
        <ele>102.52</ele>
        <time>2013-05-15T13:47:58Z</time>
      </trkpt>
      <trkpt lat="48.74997" lon="-3.52458">
        <ele>102.04</ele>
        <time>2013-05-15T13:47:59Z</time>
      </trkpt>
      <trkpt lat="48.74999" lon="-3.52451">
        <ele>102.04</ele>
        <time>2013-05-15T13:48:00Z</time>
      </trkpt>
      <trkpt lat="48.75001" lon="-3.52443">
        <ele>102.04</ele>
        <time>2013-05-15T13:48:01Z</time>
      </trkpt>
      <trkpt lat="48.75028" lon="-3.52324">
        <ele>103.48</ele>
        <time>2013-05-15T13:48:17Z</time>
      </trkpt>
      <trkpt lat="48.75036" lon="-3.52296">
        <ele>104.44</ele>
        <time>2013-05-15T13:48:21Z</time>
      </trkpt>
      <trkpt lat="48.75041" lon="-3.52283">
        <ele>104.44</ele>
        <time>2013-05-15T13:48:23Z</time>
      </trkpt>
      <trkpt lat="48.75044" lon="-3.52277">
        <ele>104.92</ele>
        <time>2013-05-15T13:48:24Z</time>
      </trkpt>
      <trkpt lat="48.75056" lon="-3.52262">
        <ele>104.92</ele>
        <time>2013-05-15T13:48:27Z</time>
      </trkpt>
      <trkpt lat="48.75065" lon="-3.52254">
        <ele>105.4</ele>
        <time>2013-05-15T13:48:29Z</time>
      </trkpt>
      <trkpt lat="48.7507" lon="-3.52251">
        <ele>105.4</ele>
        <time>2013-05-15T13:48:30Z</time>
      </trkpt>
      <trkpt lat="48.75075" lon="-3.52248">
        <ele>105.4</ele>
        <time>2013-05-15T13:48:31Z</time>
      </trkpt>
      <trkpt lat="48.75086" lon="-3.52245">
        <ele>105.4</ele>
        <time>2013-05-15T13:48:33Z</time>
      </trkpt>
      <trkpt lat="48.75162" lon="-3.52248">
        <ele>105.4</ele>
        <time>2013-05-15T13:48:47Z</time>
      </trkpt>
      <trkpt lat="48.75252" lon="-3.52219">
        <ele>107.32</ele>
        <time>2013-05-15T13:49:04Z</time>
      </trkpt>
      <trkpt lat="48.7532" lon="-3.52189">
        <ele>107.32</ele>
        <time>2013-05-15T13:49:17Z</time>
      </trkpt>
      <trkpt lat="48.75344" lon="-3.52169">
        <ele>107.32</ele>
        <time>2013-05-15T13:49:22Z</time>
      </trkpt>
      <trkpt lat="48.75348" lon="-3.52164">
        <ele>107.32</ele>
        <time>2013-05-15T13:49:23Z</time>
      </trkpt>
      <trkpt lat="48.75352" lon="-3.52159">
        <ele>106.84</ele>
        <time>2013-05-15T13:49:24Z</time>
      </trkpt>
      <trkpt lat="48.75366" lon="-3.52134">
        <ele>107.32</ele>
        <time>2013-05-15T13:49:28Z</time>
      </trkpt>
      <trkpt lat="48.75369" lon="-3.52129">
        <ele>107.32</ele>
        <time>2013-05-15T13:49:29Z</time>
      </trkpt>
      <trkpt lat="48.75373" lon="-3.52126">
        <ele>107.32</ele>
        <time>2013-05-15T13:49:30Z</time>
      </trkpt>
      <trkpt lat="48.75377" lon="-3.52125">
        <ele>107.32</ele>
        <time>2013-05-15T13:49:31Z</time>
      </trkpt>
      <trkpt lat="48.7538" lon="-3.52126">
        <ele>107.32</ele>
        <time>2013-05-15T13:49:32Z</time>
      </trkpt>
      <trkpt lat="48.75384" lon="-3.52127">
        <ele>106.84</ele>
        <time>2013-05-15T13:49:33Z</time>
      </trkpt>
      <trkpt lat="48.75387" lon="-3.52131">
        <ele>107.32</ele>
        <time>2013-05-15T13:49:34Z</time>
      </trkpt>
      <trkpt lat="48.75389" lon="-3.52137">
        <ele>107.32</ele>
        <time>2013-05-15T13:49:35Z</time>
      </trkpt>
      <trkpt lat="48.7539" lon="-3.52143">
        <ele>106.84</ele>
        <time>2013-05-15T13:49:36Z</time>
      </trkpt>
      <trkpt lat="48.75392" lon="-3.5215">
        <ele>106.84</ele>
        <time>2013-05-15T13:49:37Z</time>
      </trkpt>
      <trkpt lat="48.75395" lon="-3.52157">
        <ele>107.32</ele>
        <time>2013-05-15T13:49:38Z</time>
      </trkpt>
      <trkpt lat="48.7544" lon="-3.52281">
        <ele>108.29</ele>
        <time>2013-05-15T13:49:55Z</time>
      </trkpt>
      <trkpt lat="48.75446" lon="-3.52289">
        <ele>108.77</ele>
        <time>2013-05-15T13:49:57Z</time>
      </trkpt>
      <trkpt lat="48.75453" lon="-3.52295">
        <ele>108.77</ele>
        <time>2013-05-15T13:49:59Z</time>
      </trkpt>
      <trkpt lat="48.75455" lon="-3.52301">
        <ele>108.77</ele>
        <time>2013-05-15T13:50:00Z</time>
      </trkpt>
      <trkpt lat="48.75458" lon="-3.52308">
        <ele>108.77</ele>
        <time>2013-05-15T13:50:01Z</time>
      </trkpt>
      <trkpt lat="48.75462" lon="-3.52324">
        <ele>107.81</ele>
        <time>2013-05-15T13:50:03Z</time>
      </trkpt>
      <trkpt lat="48.75463" lon="-3.52332">
        <ele>107.81</ele>
        <time>2013-05-15T13:50:04Z</time>
      </trkpt>
      <trkpt lat="48.75496" lon="-3.52462">
        <ele>108.29</ele>
        <time>2013-05-15T13:50:20Z</time>
      </trkpt>
      <trkpt lat="48.75555" lon="-3.52567">
        <ele>108.77</ele>
        <time>2013-05-15T13:50:36Z</time>
      </trkpt>
      <trkpt lat="48.75628" lon="-3.52673">
        <ele>108.29</ele>
        <time>2013-05-15T13:50:54Z</time>
      </trkpt>
      <trkpt lat="48.75689" lon="-3.52792">
        <ele>106.36</ele>
        <time>2013-05-15T13:51:10Z</time>
      </trkpt>
      <trkpt lat="48.75745" lon="-3.52946">
        <ele>103.48</ele>
        <time>2013-05-15T13:51:28Z</time>
      </trkpt>
      <trkpt lat="48.75768" lon="-3.53033">
        <ele>100.11</ele>
        <time>2013-05-15T13:51:37Z</time>
      </trkpt>
      <trkpt lat="48.75791" lon="-3.53121">
        <ele>97.23</ele>
        <time>2013-05-15T13:51:45Z</time>
      </trkpt>
      <trkpt lat="48.75813" lon="-3.53207">
        <ele>93.87</ele>
        <time>2013-05-15T13:51:52Z</time>
      </trkpt>
      <trkpt lat="48.75816" lon="-3.53219">
        <ele>93.87</ele>
        <time>2013-05-15T13:51:53Z</time>
      </trkpt>
      <trkpt lat="48.75851" lon="-3.53356">
        <ele>95.31</ele>
        <time>2013-05-15T13:52:07Z</time>
      </trkpt>
      <trkpt lat="48.75875" lon="-3.5345">
        <ele>98.67</ele>
        <time>2013-05-15T13:52:20Z</time>
      </trkpt>
      <trkpt lat="48.75905" lon="-3.53567">
        <ele>100.11</ele>
        <time>2013-05-15T13:52:36Z</time>
      </trkpt>
      <trkpt lat="48.75931" lon="-3.53671">
        <ele>101.56</ele>
        <time>2013-05-15T13:52:50Z</time>
      </trkpt>
      <trkpt lat="48.75957" lon="-3.53756">
        <ele>102.04</ele>
        <time>2013-05-15T13:53:02Z</time>
      </trkpt>
      <trkpt lat="48.75988" lon="-3.53849">
        <ele>103</ele>
        <time>2013-05-15T13:53:15Z</time>
      </trkpt>
      <trkpt lat="48.7599" lon="-3.53856">
        <ele>103</ele>
        <time>2013-05-15T13:53:16Z</time>
      </trkpt>
      <trkpt lat="48.76008" lon="-3.53896">
        <ele>103</ele>
        <time>2013-05-15T13:53:22Z</time>
      </trkpt>
      <trkpt lat="48.7601" lon="-3.53903">
        <ele>103</ele>
        <time>2013-05-15T13:53:23Z</time>
      </trkpt>
      <trkpt lat="48.76063" lon="-3.53993">
        <ele>102.52</ele>
        <time>2013-05-15T13:53:37Z</time>
      </trkpt>
      <trkpt lat="48.76111" lon="-3.54077">
        <ele>101.56</ele>
        <time>2013-05-15T13:53:49Z</time>
      </trkpt>
      <trkpt lat="48.7618" lon="-3.54212">
        <ele>100.11</ele>
        <time>2013-05-15T13:54:08Z</time>
      </trkpt>
      <trkpt lat="48.76239" lon="-3.54335">
        <ele>98.19</ele>
        <time>2013-05-15T13:54:23Z</time>
      </trkpt>
      <trkpt lat="48.76295" lon="-3.5444">
        <ele>96.75</ele>
        <time>2013-05-15T13:54:37Z</time>
      </trkpt>
      <trkpt lat="48.7635" lon="-3.5453">
        <ele>96.75</ele>
        <time>2013-05-15T13:54:50Z</time>
      </trkpt>
      <trkpt lat="48.76415" lon="-3.54639">
        <ele>96.75</ele>
        <time>2013-05-15T13:55:06Z</time>
      </trkpt>
      <trkpt lat="48.76475" lon="-3.54741">
        <ele>96.75</ele>
        <time>2013-05-15T13:55:21Z</time>
      </trkpt>
      <trkpt lat="48.76525" lon="-3.54833">
        <ele>95.79</ele>
        <time>2013-05-15T13:55:34Z</time>
      </trkpt>
      <trkpt lat="48.76573" lon="-3.54919">
        <ele>94.83</ele>
        <time>2013-05-15T13:55:46Z</time>
      </trkpt>
      <trkpt lat="48.76636" lon="-3.55032">
        <ele>93.87</ele>
        <time>2013-05-15T13:56:02Z</time>
      </trkpt>
      <trkpt lat="48.76644" lon="-3.55046">
        <ele>92.9</ele>
        <time>2013-05-15T13:56:04Z</time>
      </trkpt>
      <trkpt lat="48.76672" lon="-3.55097">
        <ele>91.94</ele>
        <time>2013-05-15T13:56:11Z</time>
      </trkpt>
      <trkpt lat="48.76676" lon="-3.55103">
        <ele>91.94</ele>
        <time>2013-05-15T13:56:12Z</time>
      </trkpt>
      <trkpt lat="48.76682" lon="-3.55108">
        <ele>91.94</ele>
        <time>2013-05-15T13:56:13Z</time>
      </trkpt>
      <trkpt lat="48.76687" lon="-3.55112">
        <ele>91.94</ele>
        <time>2013-05-15T13:56:14Z</time>
      </trkpt>
      <trkpt lat="48.76691" lon="-3.55118">
        <ele>91.94</ele>
        <time>2013-05-15T13:56:15Z</time>
      </trkpt>
      <trkpt lat="48.76694" lon="-3.55126">
        <ele>91.94</ele>
        <time>2013-05-15T13:56:16Z</time>
      </trkpt>
      <trkpt lat="48.76695" lon="-3.55135">
        <ele>91.94</ele>
        <time>2013-05-15T13:56:17Z</time>
      </trkpt>
      <trkpt lat="48.76696" lon="-3.55144">
        <ele>91.94</ele>
        <time>2013-05-15T13:56:18Z</time>
      </trkpt>
      <trkpt lat="48.76698" lon="-3.55153">
        <ele>91.94</ele>
        <time>2013-05-15T13:56:19Z</time>
      </trkpt>
      <trkpt lat="48.76699" lon="-3.55162">
        <ele>91.94</ele>
        <time>2013-05-15T13:56:20Z</time>
      </trkpt>
      <trkpt lat="48.76702" lon="-3.55171">
        <ele>91.94</ele>
        <time>2013-05-15T13:56:21Z</time>
      </trkpt>
      <trkpt lat="48.76705" lon="-3.55179">
        <ele>91.94</ele>
        <time>2013-05-15T13:56:22Z</time>
      </trkpt>
      <trkpt lat="48.76719" lon="-3.55223">
        <ele>91.46</ele>
        <time>2013-05-15T13:56:27Z</time>
      </trkpt>
      <trkpt lat="48.76747" lon="-3.55365">
        <ele>90.5</ele>
        <time>2013-05-15T13:56:42Z</time>
      </trkpt>
      <trkpt lat="48.76768" lon="-3.55524">
        <ele>88.1</ele>
        <time>2013-05-15T13:56:57Z</time>
      </trkpt>
      <trkpt lat="48.76791" lon="-3.55641">
        <ele>87.62</ele>
        <time>2013-05-15T13:57:07Z</time>
      </trkpt>
      <trkpt lat="48.76838" lon="-3.55803">
        <ele>84.25</ele>
        <time>2013-05-15T13:57:23Z</time>
      </trkpt>
      <trkpt lat="48.76899" lon="-3.5597">
        <ele>82.33</ele>
        <time>2013-05-15T13:57:40Z</time>
      </trkpt>
      <trkpt lat="48.76902" lon="-3.5598">
        <ele>81.85</ele>
        <time>2013-05-15T13:57:41Z</time>
      </trkpt>
      <trkpt lat="48.76904" lon="-3.55989">
        <ele>81.85</ele>
        <time>2013-05-15T13:57:42Z</time>
      </trkpt>
      <trkpt lat="48.76904" lon="-3.55999">
        <ele>81.85</ele>
        <time>2013-05-15T13:57:43Z</time>
      </trkpt>
      <trkpt lat="48.76904" lon="-3.56009">
        <ele>81.85</ele>
        <time>2013-05-15T13:57:44Z</time>
      </trkpt>
      <trkpt lat="48.76904" lon="-3.56019">
        <ele>82.33</ele>
        <time>2013-05-15T13:57:45Z</time>
      </trkpt>
      <trkpt lat="48.769" lon="-3.56185">
        <ele>81.37</ele>
        <time>2013-05-15T13:58:02Z</time>
      </trkpt>
      <trkpt lat="48.76891" lon="-3.56324">
        <ele>81.37</ele>
        <time>2013-05-15T13:58:16Z</time>
      </trkpt>
      <trkpt lat="48.76892" lon="-3.56332">
        <ele>81.37</ele>
        <time>2013-05-15T13:58:17Z</time>
      </trkpt>
      <trkpt lat="48.76893" lon="-3.5634">
        <ele>80.89</ele>
        <time>2013-05-15T13:58:18Z</time>
      </trkpt>
      <trkpt lat="48.76896" lon="-3.56347">
        <ele>80.89</ele>
        <time>2013-05-15T13:58:19Z</time>
      </trkpt>
      <trkpt lat="48.76898" lon="-3.56355">
        <ele>81.37</ele>
        <time>2013-05-15T13:58:20Z</time>
      </trkpt>
      <trkpt lat="48.769" lon="-3.56363">
        <ele>81.37</ele>
        <time>2013-05-15T13:58:21Z</time>
      </trkpt>
      <trkpt lat="48.769" lon="-3.56372">
        <ele>81.37</ele>
        <time>2013-05-15T13:58:22Z</time>
      </trkpt>
      <trkpt lat="48.769" lon="-3.5638">
        <ele>81.37</ele>
        <time>2013-05-15T13:58:23Z</time>
      </trkpt>
      <trkpt lat="48.76898" lon="-3.56387">
        <ele>81.85</ele>
        <time>2013-05-15T13:58:24Z</time>
      </trkpt>
      <trkpt lat="48.76896" lon="-3.56394">
        <ele>81.85</ele>
        <time>2013-05-15T13:58:25Z</time>
      </trkpt>
      <trkpt lat="48.76893" lon="-3.56401">
        <ele>81.85</ele>
        <time>2013-05-15T13:58:26Z</time>
      </trkpt>
      <trkpt lat="48.76859" lon="-3.56478">
        <ele>80.89</ele>
        <time>2013-05-15T13:58:36Z</time>
      </trkpt>
      <trkpt lat="48.76855" lon="-3.56484">
        <ele>79.93</ele>
        <time>2013-05-15T13:58:37Z</time>
      </trkpt>
      <trkpt lat="48.7685" lon="-3.5649">
        <ele>79.93</ele>
        <time>2013-05-15T13:58:38Z</time>
      </trkpt>
      <trkpt lat="48.76844" lon="-3.56494">
        <ele>79.93</ele>
        <time>2013-05-15T13:58:39Z</time>
      </trkpt>
      <trkpt lat="48.76839" lon="-3.56498">
        <ele>79.93</ele>
        <time>2013-05-15T13:58:40Z</time>
      </trkpt>
      <trkpt lat="48.76761" lon="-3.56574">
        <ele>80.41</ele>
        <time>2013-05-15T13:58:54Z</time>
      </trkpt>
      <trkpt lat="48.76676" lon="-3.56702">
        <ele>81.37</ele>
        <time>2013-05-15T13:59:13Z</time>
      </trkpt>
      <trkpt lat="48.76594" lon="-3.56801">
        <ele>83.29</ele>
        <time>2013-05-15T13:59:30Z</time>
      </trkpt>
      <trkpt lat="48.76528" lon="-3.56864">
        <ele>82.81</ele>
        <time>2013-05-15T13:59:42Z</time>
      </trkpt>
      <trkpt lat="48.76478" lon="-3.56923">
        <ele>83.77</ele>
        <time>2013-05-15T13:59:52Z</time>
      </trkpt>
      <trkpt lat="48.76457" lon="-3.56959">
        <ele>85.69</ele>
        <time>2013-05-15T13:59:59Z</time>
      </trkpt>
      <trkpt lat="48.76446" lon="-3.56985">
        <ele>84.73</ele>
        <time>2013-05-15T14:00:03Z</time>
      </trkpt>
      <trkpt lat="48.76444" lon="-3.56994">
        <ele>84.25</ele>
        <time>2013-05-15T14:00:04Z</time>
      </trkpt>
      <trkpt lat="48.7643" lon="-3.57116">
        <ele>80.41</ele>
        <time>2013-05-15T14:00:15Z</time>
      </trkpt>
      <trkpt lat="48.76427" lon="-3.57128">
        <ele>79.93</ele>
        <time>2013-05-15T14:00:16Z</time>
      </trkpt>
      <trkpt lat="48.76423" lon="-3.57139">
        <ele>79.45</ele>
        <time>2013-05-15T14:00:17Z</time>
      </trkpt>
      <trkpt lat="48.76418" lon="-3.5715">
        <ele>78.97</ele>
        <time>2013-05-15T14:00:18Z</time>
      </trkpt>
      <trkpt lat="48.76413" lon="-3.57159">
        <ele>78.48</ele>
        <time>2013-05-15T14:00:19Z</time>
      </trkpt>
      <trkpt lat="48.76407" lon="-3.57168">
        <ele>78</ele>
        <time>2013-05-15T14:00:20Z</time>
      </trkpt>
      <trkpt lat="48.76358" lon="-3.5723">
        <ele>75.12</ele>
        <time>2013-05-15T14:00:27Z</time>
      </trkpt>
      <trkpt lat="48.76352" lon="-3.57242">
        <ele>74.64</ele>
        <time>2013-05-15T14:00:28Z</time>
      </trkpt>
      <trkpt lat="48.76346" lon="-3.57253">
        <ele>74.16</ele>
        <time>2013-05-15T14:00:29Z</time>
      </trkpt>
      <trkpt lat="48.76326" lon="-3.573">
        <ele>72.24</ele>
        <time>2013-05-15T14:00:33Z</time>
      </trkpt>
      <trkpt lat="48.7632" lon="-3.5731">
        <ele>71.76</ele>
        <time>2013-05-15T14:00:34Z</time>
      </trkpt>
      <trkpt lat="48.76313" lon="-3.57319">
        <ele>71.27</ele>
        <time>2013-05-15T14:00:35Z</time>
      </trkpt>
      <trkpt lat="48.76248" lon="-3.57434">
        <ele>68.39</ele>
        <time>2013-05-15T14:00:46Z</time>
      </trkpt>
      <trkpt lat="48.76234" lon="-3.57459">
        <ele>67.91</ele>
        <time>2013-05-15T14:00:49Z</time>
      </trkpt>
      <trkpt lat="48.76232" lon="-3.57465">
        <ele>67.91</ele>
        <time>2013-05-15T14:00:50Z</time>
      </trkpt>
      <trkpt lat="48.76232" lon="-3.57469">
        <ele>67.91</ele>
        <time>2013-05-15T14:00:51Z</time>
      </trkpt>
      <trkpt lat="48.76233" lon="-3.57473">
        <ele>67.43</ele>
        <time>2013-05-15T14:00:52Z</time>
      </trkpt>
      <trkpt lat="48.76236" lon="-3.57476">
        <ele>67.43</ele>
        <time>2013-05-15T14:00:53Z</time>
      </trkpt>
      <trkpt lat="48.76239" lon="-3.57479">
        <ele>67.91</ele>
        <time>2013-05-15T14:00:54Z</time>
      </trkpt>
      <trkpt lat="48.76243" lon="-3.57481">
        <ele>67.91</ele>
        <time>2013-05-15T14:00:55Z</time>
      </trkpt>
      <trkpt lat="48.76248" lon="-3.57483">
        <ele>68.39</ele>
        <time>2013-05-15T14:00:56Z</time>
      </trkpt>
      <trkpt lat="48.76252" lon="-3.57485">
        <ele>68.39</ele>
        <time>2013-05-15T14:00:57Z</time>
      </trkpt>
      <trkpt lat="48.76262" lon="-3.57491">
        <ele>68.87</ele>
        <time>2013-05-15T14:00:59Z</time>
      </trkpt>
      <trkpt lat="48.7636" lon="-3.57536">
        <ele>68.39</ele>
        <time>2013-05-15T14:01:17Z</time>
      </trkpt>
      <trkpt lat="48.76377" lon="-3.57541">
        <ele>68.39</ele>
        <time>2013-05-15T14:01:20Z</time>
      </trkpt>
      <trkpt lat="48.76471" lon="-3.57545">
        <ele>68.39</ele>
        <time>2013-05-15T14:01:36Z</time>
      </trkpt>
      <trkpt lat="48.76577" lon="-3.57549">
        <ele>66.47</ele>
        <time>2013-05-15T14:01:52Z</time>
      </trkpt>
      <trkpt lat="48.76634" lon="-3.57582">
        <ele>63.1</ele>
        <time>2013-05-15T14:02:00Z</time>
      </trkpt>
      <trkpt lat="48.76675" lon="-3.57633">
        <ele>63.1</ele>
        <time>2013-05-15T14:02:08Z</time>
      </trkpt>
      <trkpt lat="48.76729" lon="-3.57729">
        <ele>63.1</ele>
        <time>2013-05-15T14:02:22Z</time>
      </trkpt>
      <trkpt lat="48.7681" lon="-3.578">
        <ele>60.22</ele>
        <time>2013-05-15T14:02:37Z</time>
      </trkpt>
      <trkpt lat="48.76848" lon="-3.57809">
        <ele>57.34</ele>
        <time>2013-05-15T14:02:42Z</time>
      </trkpt>
      <trkpt lat="48.76898" lon="-3.57799">
        <ele>54.45</ele>
        <time>2013-05-15T14:02:48Z</time>
      </trkpt>
      <trkpt lat="48.76907" lon="-3.57796">
        <ele>53.97</ele>
        <time>2013-05-15T14:02:49Z</time>
      </trkpt>
      <trkpt lat="48.76999" lon="-3.57755">
        <ele>50.61</ele>
        <time>2013-05-15T14:03:01Z</time>
      </trkpt>
      <trkpt lat="48.77062" lon="-3.57758">
        <ele>48.2</ele>
        <time>2013-05-15T14:03:09Z</time>
      </trkpt>
      <trkpt lat="48.77069" lon="-3.57758">
        <ele>47.72</ele>
        <time>2013-05-15T14:03:10Z</time>
      </trkpt>
      <trkpt lat="48.77082" lon="-3.57758">
        <ele>46.28</ele>
        <time>2013-05-15T14:03:12Z</time>
      </trkpt>
      <trkpt lat="48.77087" lon="-3.57757">
        <ele>45.32</ele>
        <time>2013-05-15T14:03:13Z</time>
      </trkpt>
      <trkpt lat="48.77091" lon="-3.57755">
        <ele>44.84</ele>
        <time>2013-05-15T14:03:14Z</time>
      </trkpt>
      <trkpt lat="48.77093" lon="-3.57754">
        <ele>44.84</ele>
        <time>2013-05-15T14:03:15Z</time>
      </trkpt>
      <trkpt lat="48.77096" lon="-3.57753">
        <ele>45.32</ele>
        <time>2013-05-15T14:03:16Z</time>
      </trkpt>
      <trkpt lat="48.77099" lon="-3.57754">
        <ele>44.84</ele>
        <time>2013-05-15T14:03:17Z</time>
      </trkpt>
      <trkpt lat="48.77103" lon="-3.57758">
        <ele>44.84</ele>
        <time>2013-05-15T14:03:18Z</time>
      </trkpt>
      <trkpt lat="48.77108" lon="-3.57764">
        <ele>44.36</ele>
        <time>2013-05-15T14:03:19Z</time>
      </trkpt>
      <trkpt lat="48.77113" lon="-3.57768">
        <ele>44.36</ele>
        <time>2013-05-15T14:03:20Z</time>
      </trkpt>
      <trkpt lat="48.77125" lon="-3.57777">
        <ele>44.84</ele>
        <time>2013-05-15T14:03:22Z</time>
      </trkpt>
      <trkpt lat="48.77132" lon="-3.5778">
        <ele>43.88</ele>
        <time>2013-05-15T14:03:23Z</time>
      </trkpt>
      <trkpt lat="48.77139" lon="-3.57781">
        <ele>43.4</ele>
        <time>2013-05-15T14:03:24Z</time>
      </trkpt>
      <trkpt lat="48.77204" lon="-3.57792">
        <ele>40.03</ele>
        <time>2013-05-15T14:03:33Z</time>
      </trkpt>
      <trkpt lat="48.77278" lon="-3.57808">
        <ele>36.67</ele>
        <time>2013-05-15T14:03:42Z</time>
      </trkpt>
      <trkpt lat="48.77356" lon="-3.57824">
        <ele>33.78</ele>
        <time>2013-05-15T14:03:51Z</time>
      </trkpt>
      <trkpt lat="48.77463" lon="-3.57842">
        <ele>31.86</ele>
        <time>2013-05-15T14:04:04Z</time>
      </trkpt>
      <trkpt lat="48.77523" lon="-3.57856">
        <ele>31.86</ele>
        <time>2013-05-15T14:04:13Z</time>
      </trkpt>
      <trkpt lat="48.77623" lon="-3.57876">
        <ele>32.82</ele>
        <time>2013-05-15T14:04:30Z</time>
      </trkpt>
      <trkpt lat="48.77732" lon="-3.579">
        <ele>31.38</ele>
        <time>2013-05-15T14:04:48Z</time>
      </trkpt>
      <trkpt lat="48.77797" lon="-3.57915">
        <ele>28.5</ele>
        <time>2013-05-15T14:04:57Z</time>
      </trkpt>
      <trkpt lat="48.7787" lon="-3.57927">
        <ele>24.65</ele>
        <time>2013-05-15T14:05:06Z</time>
      </trkpt>
      <trkpt lat="48.77907" lon="-3.57922">
        <ele>22.25</ele>
        <time>2013-05-15T14:05:10Z</time>
      </trkpt>
      <trkpt lat="48.77954" lon="-3.57907">
        <ele>19.84</ele>
        <time>2013-05-15T14:05:15Z</time>
      </trkpt>
      <trkpt lat="48.77991" lon="-3.57894">
        <ele>16.48</ele>
        <time>2013-05-15T14:05:19Z</time>
      </trkpt>
      <trkpt lat="48.78009" lon="-3.57888">
        <ele>15.52</ele>
        <time>2013-05-15T14:05:21Z</time>
      </trkpt>
      <trkpt lat="48.78062" lon="-3.57869">
        <ele>12.63</ele>
        <time>2013-05-15T14:05:27Z</time>
      </trkpt>
      <trkpt lat="48.7819" lon="-3.57824">
        <ele>9.75</ele>
        <time>2013-05-15T14:05:43Z</time>
      </trkpt>
      <trkpt lat="48.78305" lon="-3.57784">
        <ele>10.23</ele>
        <time>2013-05-15T14:06:01Z</time>
      </trkpt>
      <trkpt lat="48.7842" lon="-3.57742">
        <ele>11.19</ele>
        <time>2013-05-15T14:06:20Z</time>
      </trkpt>
      <trkpt lat="48.78518" lon="-3.57707">
        <ele>11.67</ele>
        <time>2013-05-15T14:06:36Z</time>
      </trkpt>
      <trkpt lat="48.78524" lon="-3.57704">
        <ele>11.67</ele>
        <time>2013-05-15T14:06:37Z</time>
      </trkpt>
      <trkpt lat="48.78649" lon="-3.5766">
        <ele>11.67</ele>
        <time>2013-05-15T14:06:57Z</time>
      </trkpt>
      <trkpt lat="48.78738" lon="-3.57625">
        <ele>11.19</ele>
        <time>2013-05-15T14:07:13Z</time>
      </trkpt>
      <trkpt lat="48.78753" lon="-3.57615">
        <ele>10.71</ele>
        <time>2013-05-15T14:07:16Z</time>
      </trkpt>
      <trkpt lat="48.78773" lon="-3.57593">
        <ele>10.71</ele>
        <time>2013-05-15T14:07:20Z</time>
      </trkpt>
      <trkpt lat="48.78812" lon="-3.57491">
        <ele>10.71</ele>
        <time>2013-05-15T14:07:32Z</time>
      </trkpt>
      <trkpt lat="48.78852" lon="-3.57317">
        <ele>10.23</ele>
        <time>2013-05-15T14:07:49Z</time>
      </trkpt>
      <trkpt lat="48.78893" lon="-3.57142">
        <ele>9.27</ele>
        <time>2013-05-15T14:08:06Z</time>
      </trkpt>
      <trkpt lat="48.78943" lon="-3.56933">
        <ele>7.83</ele>
        <time>2013-05-15T14:08:26Z</time>
      </trkpt>
      <trkpt lat="48.78987" lon="-3.56751">
        <ele>7.83</ele>
        <time>2013-05-15T14:08:43Z</time>
      </trkpt>
      <trkpt lat="48.79024" lon="-3.56595">
        <ele>8.31</ele>
        <time>2013-05-15T14:08:59Z</time>
      </trkpt>
      <trkpt lat="48.79063" lon="-3.56435">
        <ele>9.27</ele>
        <time>2013-05-15T14:09:16Z</time>
      </trkpt>
      <trkpt lat="48.791" lon="-3.56278">
        <ele>9.27</ele>
        <time>2013-05-15T14:09:32Z</time>
      </trkpt>
      <trkpt lat="48.79138" lon="-3.56121">
        <ele>7.83</ele>
        <time>2013-05-15T14:09:47Z</time>
      </trkpt>
      <trkpt lat="48.79151" lon="-3.5607">
        <ele>7.83</ele>
        <time>2013-05-15T14:09:52Z</time>
      </trkpt>
      <trkpt lat="48.79168" lon="-3.55925">
        <ele>8.31</ele>
        <time>2013-05-15T14:10:06Z</time>
      </trkpt>
      <trkpt lat="48.7914" lon="-3.55772">
        <ele>7.35</ele>
        <time>2013-05-15T14:10:20Z</time>
      </trkpt>
      <trkpt lat="48.79115" lon="-3.55659">
        <ele>6.39</ele>
        <time>2013-05-15T14:10:31Z</time>
      </trkpt>
      <trkpt lat="48.79115" lon="-3.55648">
        <ele>6.39</ele>
        <time>2013-05-15T14:10:32Z</time>
      </trkpt>
      <trkpt lat="48.79119" lon="-3.55507">
        <ele>6.39</ele>
        <time>2013-05-15T14:10:45Z</time>
      </trkpt>
      <trkpt lat="48.7912" lon="-3.55496">
        <ele>6.87</ele>
        <time>2013-05-15T14:10:46Z</time>
      </trkpt>
      <trkpt lat="48.79122" lon="-3.55485">
        <ele>6.87</ele>
        <time>2013-05-15T14:10:47Z</time>
      </trkpt>
      <trkpt lat="48.79124" lon="-3.55475">
        <ele>6.87</ele>
        <time>2013-05-15T14:10:48Z</time>
      </trkpt>
      <trkpt lat="48.79127" lon="-3.55464">
        <ele>6.87</ele>
        <time>2013-05-15T14:10:49Z</time>
      </trkpt>
      <trkpt lat="48.79138" lon="-3.55426">
        <ele>7.83</ele>
        <time>2013-05-15T14:10:53Z</time>
      </trkpt>
      <trkpt lat="48.79187" lon="-3.55279">
        <ele>7.83</ele>
        <time>2013-05-15T14:11:09Z</time>
      </trkpt>
      <trkpt lat="48.79245" lon="-3.55212">
        <ele>9.27</ele>
        <time>2013-05-15T14:11:20Z</time>
      </trkpt>
      <trkpt lat="48.79251" lon="-3.55208">
        <ele>9.27</ele>
        <time>2013-05-15T14:11:21Z</time>
      </trkpt>
      <trkpt lat="48.79318" lon="-3.55159">
        <ele>10.23</ele>
        <time>2013-05-15T14:11:34Z</time>
      </trkpt>
      <trkpt lat="48.79363" lon="-3.55124">
        <ele>12.63</ele>
        <time>2013-05-15T14:11:46Z</time>
      </trkpt>
      <trkpt lat="48.79378" lon="-3.55111">
        <ele>13.6</ele>
        <time>2013-05-15T14:11:50Z</time>
      </trkpt>
      <trkpt lat="48.79381" lon="-3.55107">
        <ele>13.6</ele>
        <time>2013-05-15T14:11:51Z</time>
      </trkpt>
      <trkpt lat="48.79401" lon="-3.55083">
        <ele>13.12</ele>
        <time>2013-05-15T14:11:56Z</time>
      </trkpt>
      <trkpt lat="48.79442" lon="-3.55008">
        <ele>15.04</ele>
        <time>2013-05-15T14:12:09Z</time>
      </trkpt>
      <trkpt lat="48.79486" lon="-3.54858">
        <ele>15.52</ele>
        <time>2013-05-15T14:12:27Z</time>
      </trkpt>
      <trkpt lat="48.79526" lon="-3.5472">
        <ele>14.08</ele>
        <time>2013-05-15T14:12:42Z</time>
      </trkpt>
      <trkpt lat="48.79567" lon="-3.54585">
        <ele>10.71</ele>
        <time>2013-05-15T14:12:54Z</time>
      </trkpt>
      <trkpt lat="48.79625" lon="-3.54447">
        <ele>10.23</ele>
        <time>2013-05-15T14:13:08Z</time>
      </trkpt>
      <trkpt lat="48.79678" lon="-3.54328">
        <ele>13.12</ele>
        <time>2013-05-15T14:13:23Z</time>
      </trkpt>
      <trkpt lat="48.79747" lon="-3.54215">
        <ele>10.71</ele>
        <time>2013-05-15T14:13:37Z</time>
      </trkpt>
      <trkpt lat="48.79833" lon="-3.54102">
        <ele>10.23</ele>
        <time>2013-05-15T14:13:53Z</time>
      </trkpt>
      <trkpt lat="48.79867" lon="-3.54057">
        <ele>12.63</ele>
        <time>2013-05-15T14:14:01Z</time>
      </trkpt>
      <trkpt lat="48.79907" lon="-3.54004">
        <ele>16</ele>
        <time>2013-05-15T14:14:11Z</time>
      </trkpt>
      <trkpt lat="48.79943" lon="-3.53956">
        <ele>18.88</ele>
        <time>2013-05-15T14:14:21Z</time>
      </trkpt>
      <trkpt lat="48.79988" lon="-3.53895">
        <ele>21.77</ele>
        <time>2013-05-15T14:14:33Z</time>
      </trkpt>
      <trkpt lat="48.80003" lon="-3.53872">
        <ele>21.77</ele>
        <time>2013-05-15T14:14:37Z</time>
      </trkpt>
      <trkpt lat="48.80051" lon="-3.53767">
        <ele>18.88</ele>
        <time>2013-05-15T14:14:49Z</time>
      </trkpt>
      <trkpt lat="48.80091" lon="-3.53679">
        <ele>16</ele>
        <time>2013-05-15T14:14:57Z</time>
      </trkpt>
      <trkpt lat="48.80127" lon="-3.536">
        <ele>12.63</ele>
        <time>2013-05-15T14:15:04Z</time>
      </trkpt>
      <trkpt lat="48.80149" lon="-3.53554">
        <ele>11.19</ele>
        <time>2013-05-15T14:15:08Z</time>
      </trkpt>
      <trkpt lat="48.80176" lon="-3.53498">
        <ele>9.75</ele>
        <time>2013-05-15T14:15:13Z</time>
      </trkpt>
      <trkpt lat="48.802" lon="-3.5346">
        <ele>9.27</ele>
        <time>2013-05-15T14:15:17Z</time>
      </trkpt>
      <trkpt lat="48.80272" lon="-3.53407">
        <ele>9.75</ele>
        <time>2013-05-15T14:15:28Z</time>
      </trkpt>
      <trkpt lat="48.80395" lon="-3.53386">
        <ele>9.27</ele>
        <time>2013-05-15T14:15:46Z</time>
      </trkpt>
      <trkpt lat="48.80505" lon="-3.53369">
        <ele>6.87</ele>
        <time>2013-05-15T14:16:01Z</time>
      </trkpt>
      <trkpt lat="48.80634" lon="-3.53349">
        <ele>7.83</ele>
        <time>2013-05-15T14:16:19Z</time>
      </trkpt>
      <trkpt lat="48.80728" lon="-3.53375">
        <ele>6.87</ele>
        <time>2013-05-15T14:16:33Z</time>
      </trkpt>
      <trkpt lat="48.80823" lon="-3.53386">
        <ele>7.35</ele>
        <time>2013-05-15T14:16:47Z</time>
      </trkpt>
      <trkpt lat="48.80894" lon="-3.53328">
        <ele>8.79</ele>
        <time>2013-05-15T14:17:00Z</time>
      </trkpt>
      <trkpt lat="48.80973" lon="-3.5323">
        <ele>9.75</ele>
        <time>2013-05-15T14:17:17Z</time>
      </trkpt>
      <trkpt lat="48.81055" lon="-3.5313">
        <ele>10.23</ele>
        <time>2013-05-15T14:17:33Z</time>
      </trkpt>
      <trkpt lat="48.81114" lon="-3.53056">
        <ele>10.71</ele>
        <time>2013-05-15T14:17:45Z</time>
      </trkpt>
      <trkpt lat="48.81195" lon="-3.5296">
        <ele>9.75</ele>
        <time>2013-05-15T14:18:00Z</time>
      </trkpt>
      <trkpt lat="48.81287" lon="-3.5285">
        <ele>9.75</ele>
        <time>2013-05-15T14:18:17Z</time>
      </trkpt>
      <trkpt lat="48.81357" lon="-3.52766">
        <ele>10.71</ele>
        <time>2013-05-15T14:18:30Z</time>
      </trkpt>
      <trkpt lat="48.81448" lon="-3.52655">
        <ele>12.15</ele>
        <time>2013-05-15T14:18:48Z</time>
      </trkpt>
      <trkpt lat="48.81525" lon="-3.52551">
        <ele>11.19</ele>
        <time>2013-05-15T14:19:04Z</time>
      </trkpt>
      <trkpt lat="48.81575" lon="-3.52438">
        <ele>11.67</ele>
        <time>2013-05-15T14:19:17Z</time>
      </trkpt>
      <trkpt lat="48.81629" lon="-3.52274">
        <ele>10.71</ele>
        <time>2013-05-15T14:19:34Z</time>
      </trkpt>
      <trkpt lat="48.81702" lon="-3.52108">
        <ele>8.31</ele>
        <time>2013-05-15T14:19:51Z</time>
      </trkpt>
      <trkpt lat="48.81744" lon="-3.51983">
        <ele>8.31</ele>
        <time>2013-05-15T14:20:04Z</time>
      </trkpt>
      <trkpt lat="48.81812" lon="-3.51866">
        <ele>7.83</ele>
        <time>2013-05-15T14:20:19Z</time>
      </trkpt>
      <trkpt lat="48.81907" lon="-3.51738">
        <ele>7.83</ele>
        <time>2013-05-15T14:20:36Z</time>
      </trkpt>
      <trkpt lat="48.81977" lon="-3.51715">
        <ele>8.79</ele>
        <time>2013-05-15T14:20:47Z</time>
      </trkpt>
      <trkpt lat="48.82058" lon="-3.51742">
        <ele>9.75</ele>
        <time>2013-05-15T14:21:00Z</time>
      </trkpt>
      <trkpt lat="48.82181" lon="-3.51797">
        <ele>9.27</ele>
        <time>2013-05-15T14:21:20Z</time>
      </trkpt>
      <trkpt lat="48.82285" lon="-3.51816">
        <ele>8.79</ele>
        <time>2013-05-15T14:21:36Z</time>
      </trkpt>
      <trkpt lat="48.82401" lon="-3.5182">
        <ele>8.79</ele>
        <time>2013-05-15T14:21:54Z</time>
      </trkpt>
      <trkpt lat="48.82487" lon="-3.51795">
        <ele>9.27</ele>
        <time>2013-05-15T14:22:08Z</time>
      </trkpt>
      <trkpt lat="48.82583" lon="-3.51758">
        <ele>10.71</ele>
        <time>2013-05-15T14:22:24Z</time>
      </trkpt>
      <trkpt lat="48.82605" lon="-3.51749">
        <ele>11.67</ele>
        <time>2013-05-15T14:22:28Z</time>
      </trkpt>
      <trkpt lat="48.8261" lon="-3.51747">
        <ele>12.15</ele>
        <time>2013-05-15T14:22:29Z</time>
      </trkpt>
      <trkpt lat="48.82632" lon="-3.5174">
        <ele>13.6</ele>
        <time>2013-05-15T14:22:34Z</time>
      </trkpt>
      <trkpt lat="48.82649" lon="-3.51734">
        <ele>14.08</ele>
        <time>2013-05-15T14:22:38Z</time>
      </trkpt>
      <trkpt lat="48.82716" lon="-3.51702">
        <ele>16.96</ele>
        <time>2013-05-15T14:22:52Z</time>
      </trkpt>
      <trkpt lat="48.82727" lon="-3.51692">
        <ele>17.92</ele>
        <time>2013-05-15T14:22:55Z</time>
      </trkpt>
      <trkpt lat="48.82731" lon="-3.51687">
        <ele>17.44</ele>
        <time>2013-05-15T14:22:56Z</time>
      </trkpt>
      <trkpt lat="48.82758" lon="-3.51633">
        <ele>19.36</ele>
        <time>2013-05-15T14:23:06Z</time>
      </trkpt>
      <trkpt lat="48.82759" lon="-3.51627">
        <ele>19.84</ele>
        <time>2013-05-15T14:23:07Z</time>
      </trkpt>
      <trkpt lat="48.82764" lon="-3.51609">
        <ele>20.32</ele>
        <time>2013-05-15T14:23:10Z</time>
      </trkpt>
      <trkpt lat="48.82766" lon="-3.51602">
        <ele>20.81</ele>
        <time>2013-05-15T14:23:11Z</time>
      </trkpt>
      <trkpt lat="48.82766" lon="-3.51596">
        <ele>20.81</ele>
        <time>2013-05-15T14:23:12Z</time>
      </trkpt>
      <trkpt lat="48.82766" lon="-3.51589">
        <ele>20.81</ele>
        <time>2013-05-15T14:23:13Z</time>
      </trkpt>
      <trkpt lat="48.82765" lon="-3.51582">
        <ele>20.81</ele>
        <time>2013-05-15T14:23:14Z</time>
      </trkpt>
      <trkpt lat="48.82752" lon="-3.51463">
        <ele>18.4</ele>
        <time>2013-05-15T14:23:27Z</time>
      </trkpt>
      <trkpt lat="48.82739" lon="-3.51365">
        <ele>14.56</ele>
        <time>2013-05-15T14:23:35Z</time>
      </trkpt>
      <trkpt lat="48.82718" lon="-3.51256">
        <ele>11.67</ele>
        <time>2013-05-15T14:23:44Z</time>
      </trkpt>
      <trkpt lat="48.82702" lon="-3.51196">
        <ele>9.75</ele>
        <time>2013-05-15T14:23:50Z</time>
      </trkpt>
      <trkpt lat="48.82697" lon="-3.51187">
        <ele>9.27</ele>
        <time>2013-05-15T14:23:51Z</time>
      </trkpt>
      <trkpt lat="48.82647" lon="-3.51111">
        <ele>8.31</ele>
        <time>2013-05-15T14:24:01Z</time>
      </trkpt>
      <trkpt lat="48.82644" lon="-3.51104">
        <ele>8.31</ele>
        <time>2013-05-15T14:24:02Z</time>
      </trkpt>
      <trkpt lat="48.82641" lon="-3.51098">
        <ele>8.31</ele>
        <time>2013-05-15T14:24:03Z</time>
      </trkpt>
      <trkpt lat="48.82635" lon="-3.51086">
        <ele>8.31</ele>
        <time>2013-05-15T14:24:05Z</time>
      </trkpt>
      <trkpt lat="48.82631" lon="-3.51081">
        <ele>8.31</ele>
        <time>2013-05-15T14:24:06Z</time>
      </trkpt>
      <trkpt lat="48.82573" lon="-3.51004">
        <ele>9.27</ele>
        <time>2013-05-15T14:24:20Z</time>
      </trkpt>
      <trkpt lat="48.8255" lon="-3.50986">
        <ele>11.19</ele>
        <time>2013-05-15T14:24:27Z</time>
      </trkpt>
      <trkpt lat="48.82549" lon="-3.5098">
        <ele>10.71</ele>
        <time>2013-05-15T14:24:28Z</time>
      </trkpt>
      <trkpt lat="48.82548" lon="-3.50973">
        <ele>10.71</ele>
        <time>2013-05-15T14:24:29Z</time>
      </trkpt>
      <trkpt lat="48.82547" lon="-3.50966">
        <ele>10.71</ele>
        <time>2013-05-15T14:24:30Z</time>
      </trkpt>
      <trkpt lat="48.82545" lon="-3.50958">
        <ele>10.71</ele>
        <time>2013-05-15T14:24:31Z</time>
      </trkpt>
      <trkpt lat="48.82542" lon="-3.50952">
        <ele>11.19</ele>
        <time>2013-05-15T14:24:32Z</time>
      </trkpt>
      <trkpt lat="48.82538" lon="-3.50946">
        <ele>11.19</ele>
        <time>2013-05-15T14:24:33Z</time>
      </trkpt>
      <trkpt lat="48.82493" lon="-3.50836">
        <ele>13.12</ele>
        <time>2013-05-15T14:24:48Z</time>
      </trkpt>
      <trkpt lat="48.82476" lon="-3.50704">
        <ele>13.6</ele>
        <time>2013-05-15T14:25:02Z</time>
      </trkpt>
      <trkpt lat="48.82435" lon="-3.50584">
        <ele>12.15</ele>
        <time>2013-05-15T14:25:15Z</time>
      </trkpt>
      <trkpt lat="48.82377" lon="-3.50468">
        <ele>8.31</ele>
        <time>2013-05-15T14:25:26Z</time>
      </trkpt>
      <trkpt lat="48.82371" lon="-3.50456">
        <ele>8.31</ele>
        <time>2013-05-15T14:25:27Z</time>
      </trkpt>
      <trkpt lat="48.82324" lon="-3.50302">
        <ele>5.91</ele>
        <time>2013-05-15T14:25:39Z</time>
      </trkpt>
      <trkpt lat="48.82333" lon="-3.50163">
        <ele>7.35</ele>
        <time>2013-05-15T14:25:50Z</time>
      </trkpt>
      <trkpt lat="48.82369" lon="-3.4998">
        <ele>6.39</ele>
        <time>2013-05-15T14:26:06Z</time>
      </trkpt>
      <trkpt lat="48.824" lon="-3.49829">
        <ele>6.39</ele>
        <time>2013-05-15T14:26:20Z</time>
      </trkpt>
      <trkpt lat="48.82405" lon="-3.49786">
        <ele>5.42</ele>
        <time>2013-05-15T14:26:29Z</time>
      </trkpt>
      <trkpt lat="48.82406" lon="-3.49779">
        <ele>5.42</ele>
        <time>2013-05-15T14:26:35Z</time>
      </trkpt>
      <trkpt lat="48.82406" lon="-3.49777">
        <ele>5.91</ele>
        <time>2013-05-15T14:26:36Z</time>
      </trkpt>
      <trkpt lat="48.82405" lon="-3.49774">
        <ele>6.39</ele>
        <time>2013-05-15T14:26:37Z</time>
      </trkpt>
      <trkpt lat="48.82404" lon="-3.4977">
        <ele>5.91</ele>
        <time>2013-05-15T14:26:38Z</time>
      </trkpt>
      <trkpt lat="48.82403" lon="-3.49765">
        <ele>5.91</ele>
        <time>2013-05-15T14:26:39Z</time>
      </trkpt>
      <trkpt lat="48.82404" lon="-3.49759">
        <ele>6.39</ele>
        <time>2013-05-15T14:26:40Z</time>
      </trkpt>
      <trkpt lat="48.82406" lon="-3.49754">
        <ele>6.39</ele>
        <time>2013-05-15T14:26:41Z</time>
      </trkpt>
      <trkpt lat="48.82409" lon="-3.49748">
        <ele>6.87</ele>
        <time>2013-05-15T14:26:42Z</time>
      </trkpt>
      <trkpt lat="48.82414" lon="-3.49735">
        <ele>6.39</ele>
        <time>2013-05-15T14:26:44Z</time>
      </trkpt>
      <trkpt lat="48.82417" lon="-3.49727">
        <ele>6.39</ele>
        <time>2013-05-15T14:26:45Z</time>
      </trkpt>
      <trkpt lat="48.82441" lon="-3.49593">
        <ele>6.87</ele>
        <time>2013-05-15T14:26:59Z</time>
      </trkpt>
      <trkpt lat="48.82484" lon="-3.4941">
        <ele>8.79</ele>
        <time>2013-05-15T14:27:19Z</time>
      </trkpt>
      <trkpt lat="48.82538" lon="-3.49242">
        <ele>8.31</ele>
        <time>2013-05-15T14:27:37Z</time>
      </trkpt>
      <trkpt lat="48.82561" lon="-3.4909">
        <ele>6.87</ele>
        <time>2013-05-15T14:27:50Z</time>
      </trkpt>
      <trkpt lat="48.82537" lon="-3.48957">
        <ele>5.91</ele>
        <time>2013-05-15T14:28:02Z</time>
      </trkpt>
      <trkpt lat="48.8251" lon="-3.4885">
        <ele>8.79</ele>
        <time>2013-05-15T14:28:14Z</time>
      </trkpt>
      <trkpt lat="48.82487" lon="-3.4877">
        <ele>11.67</ele>
        <time>2013-05-15T14:28:25Z</time>
      </trkpt>
      <trkpt lat="48.8243" lon="-3.48663">
        <ele>14.56</ele>
        <time>2013-05-15T14:28:42Z</time>
      </trkpt>
      <trkpt lat="48.82375" lon="-3.48563">
        <ele>17.92</ele>
        <time>2013-05-15T14:28:58Z</time>
      </trkpt>
      <trkpt lat="48.82351" lon="-3.48501">
        <ele>19.36</ele>
        <time>2013-05-15T14:29:07Z</time>
      </trkpt>
      <trkpt lat="48.82349" lon="-3.48493">
        <ele>19.36</ele>
        <time>2013-05-15T14:29:08Z</time>
      </trkpt>
      <trkpt lat="48.82347" lon="-3.48468">
        <ele>19.36</ele>
        <time>2013-05-15T14:29:11Z</time>
      </trkpt>
      <trkpt lat="48.82348" lon="-3.48424">
        <ele>19.84</ele>
        <time>2013-05-15T14:29:16Z</time>
      </trkpt>
      <trkpt lat="48.82358" lon="-3.48318">
        <ele>21.29</ele>
        <time>2013-05-15T14:29:28Z</time>
      </trkpt>
      <trkpt lat="48.82375" lon="-3.48187">
        <ele>22.25</ele>
        <time>2013-05-15T14:29:43Z</time>
      </trkpt>
      <trkpt lat="48.82384" lon="-3.48038">
        <ele>21.77</ele>
        <time>2013-05-15T14:30:00Z</time>
      </trkpt>
      <trkpt lat="48.82387" lon="-3.48001">
        <ele>21.77</ele>
        <time>2013-05-15T14:30:11Z</time>
      </trkpt>
      <trkpt lat="48.82398" lon="-3.47908">
        <ele>23.21</ele>
        <time>2013-05-15T14:30:24Z</time>
      </trkpt>
      <trkpt lat="48.82425" lon="-3.47754">
        <ele>25.61</ele>
        <time>2013-05-15T14:30:44Z</time>
      </trkpt>
      <trkpt lat="48.82473" lon="-3.47642">
        <ele>28.5</ele>
        <time>2013-05-15T14:31:01Z</time>
      </trkpt>
      <trkpt lat="48.82539" lon="-3.47542">
        <ele>31.38</ele>
        <time>2013-05-15T14:31:19Z</time>
      </trkpt>
      <trkpt lat="48.82585" lon="-3.47474">
        <ele>34.26</ele>
        <time>2013-05-15T14:31:32Z</time>
      </trkpt>
      <trkpt lat="48.8264" lon="-3.4739">
        <ele>37.63</ele>
        <time>2013-05-15T14:31:48Z</time>
      </trkpt>
      <trkpt lat="48.82675" lon="-3.47329">
        <ele>40.03</ele>
        <time>2013-05-15T14:31:59Z</time>
      </trkpt>
      <trkpt lat="48.82681" lon="-3.47307">
        <ele>40.51</ele>
        <time>2013-05-15T14:32:02Z</time>
      </trkpt>
      <trkpt lat="48.82681" lon="-3.473">
        <ele>40.99</ele>
        <time>2013-05-15T14:32:03Z</time>
      </trkpt>
      <trkpt lat="48.82681" lon="-3.47292">
        <ele>40.99</ele>
        <time>2013-05-15T14:32:04Z</time>
      </trkpt>
      <trkpt lat="48.82681" lon="-3.47285">
        <ele>40.99</ele>
        <time>2013-05-15T14:32:05Z</time>
      </trkpt>
      <trkpt lat="48.8268" lon="-3.47277">
        <ele>41.47</ele>
        <time>2013-05-15T14:32:06Z</time>
      </trkpt>
      <trkpt lat="48.82678" lon="-3.4727">
        <ele>41.95</ele>
        <time>2013-05-15T14:32:07Z</time>
      </trkpt>
      <trkpt lat="48.82676" lon="-3.47264">
        <ele>42.44</ele>
        <time>2013-05-15T14:32:08Z</time>
      </trkpt>
      <trkpt lat="48.82674" lon="-3.47257">
        <ele>42.44</ele>
        <time>2013-05-15T14:32:09Z</time>
      </trkpt>
      <trkpt lat="48.82671" lon="-3.47251">
        <ele>42.92</ele>
        <time>2013-05-15T14:32:10Z</time>
      </trkpt>
      <trkpt lat="48.82667" lon="-3.47246">
        <ele>42.92</ele>
        <time>2013-05-15T14:32:11Z</time>
      </trkpt>
      <trkpt lat="48.82663" lon="-3.47242">
        <ele>43.4</ele>
        <time>2013-05-15T14:32:12Z</time>
      </trkpt>
      <trkpt lat="48.82659" lon="-3.47238">
        <ele>43.4</ele>
        <time>2013-05-15T14:32:13Z</time>
      </trkpt>
      <trkpt lat="48.82654" lon="-3.47235">
        <ele>43.4</ele>
        <time>2013-05-15T14:32:14Z</time>
      </trkpt>
      <trkpt lat="48.82649" lon="-3.47233">
        <ele>43.88</ele>
        <time>2013-05-15T14:32:15Z</time>
      </trkpt>
      <trkpt lat="48.82645" lon="-3.47231">
        <ele>44.84</ele>
        <time>2013-05-15T14:32:16Z</time>
      </trkpt>
      <trkpt lat="48.82635" lon="-3.47227">
        <ele>45.32</ele>
        <time>2013-05-15T14:32:18Z</time>
      </trkpt>
      <trkpt lat="48.82561" lon="-3.47211">
        <ele>48.68</ele>
        <time>2013-05-15T14:32:33Z</time>
      </trkpt>
      <trkpt lat="48.82496" lon="-3.47197">
        <ele>51.57</ele>
        <time>2013-05-15T14:32:46Z</time>
      </trkpt>
      <trkpt lat="48.82428" lon="-3.47181">
        <ele>54.93</ele>
        <time>2013-05-15T14:33:00Z</time>
      </trkpt>
      <trkpt lat="48.8234" lon="-3.47156">
        <ele>55.41</ele>
        <time>2013-05-15T14:33:17Z</time>
      </trkpt>
      <trkpt lat="48.82224" lon="-3.47119">
        <ele>56.37</ele>
        <time>2013-05-15T14:33:37Z</time>
      </trkpt>
      <trkpt lat="48.82113" lon="-3.47081">
        <ele>59.26</ele>
        <time>2013-05-15T14:33:57Z</time>
      </trkpt>
      <trkpt lat="48.81996" lon="-3.47044">
        <ele>59.26</ele>
        <time>2013-05-15T14:34:17Z</time>
      </trkpt>
      <trkpt lat="48.81903" lon="-3.47014">
        <ele>61.66</ele>
        <time>2013-05-15T14:34:33Z</time>
      </trkpt>
      <trkpt lat="48.81813" lon="-3.46984">
        <ele>63.1</ele>
        <time>2013-05-15T14:34:48Z</time>
      </trkpt>
      <trkpt lat="48.81713" lon="-3.4695">
        <ele>63.1</ele>
        <time>2013-05-15T14:35:03Z</time>
      </trkpt>
      <trkpt lat="48.81594" lon="-3.46909">
        <ele>63.58</ele>
        <time>2013-05-15T14:35:21Z</time>
      </trkpt>
      <trkpt lat="48.81493" lon="-3.46862">
        <ele>65.03</ele>
        <time>2013-05-15T14:35:38Z</time>
      </trkpt>
      <trkpt lat="48.81433" lon="-3.46772">
        <ele>62.14</ele>
        <time>2013-05-15T14:35:50Z</time>
      </trkpt>
      <trkpt lat="48.81413" lon="-3.46699">
        <ele>60.22</ele>
        <time>2013-05-15T14:35:56Z</time>
      </trkpt>
      <trkpt lat="48.81411" lon="-3.46539">
        <ele>57.82</ele>
        <time>2013-05-15T14:36:08Z</time>
      </trkpt>
      <trkpt lat="48.81403" lon="-3.46446">
        <ele>56.37</ele>
        <time>2013-05-15T14:36:16Z</time>
      </trkpt>
      <trkpt lat="48.81398" lon="-3.46434">
        <ele>56.37</ele>
        <time>2013-05-15T14:36:17Z</time>
      </trkpt>
      <trkpt lat="48.81391" lon="-3.46422">
        <ele>56.37</ele>
        <time>2013-05-15T14:36:18Z</time>
      </trkpt>
      <trkpt lat="48.81383" lon="-3.46409">
        <ele>55.89</ele>
        <time>2013-05-15T14:36:19Z</time>
      </trkpt>
      <trkpt lat="48.81375" lon="-3.46398">
        <ele>54.93</ele>
        <time>2013-05-15T14:36:20Z</time>
      </trkpt>
      <trkpt lat="48.81366" lon="-3.46388">
        <ele>54.93</ele>
        <time>2013-05-15T14:36:21Z</time>
      </trkpt>
      <trkpt lat="48.81358" lon="-3.46379">
        <ele>54.93</ele>
        <time>2013-05-15T14:36:22Z</time>
      </trkpt>
      <trkpt lat="48.81349" lon="-3.46372">
        <ele>54.93</ele>
        <time>2013-05-15T14:36:23Z</time>
      </trkpt>
      <trkpt lat="48.8134" lon="-3.46366">
        <ele>54.45</ele>
        <time>2013-05-15T14:36:24Z</time>
      </trkpt>
      <trkpt lat="48.81331" lon="-3.46361">
        <ele>53.49</ele>
        <time>2013-05-15T14:36:25Z</time>
      </trkpt>
      <trkpt lat="48.81322" lon="-3.46358">
        <ele>53.49</ele>
        <time>2013-05-15T14:36:26Z</time>
      </trkpt>
      <trkpt lat="48.81312" lon="-3.46356">
        <ele>53.97</ele>
        <time>2013-05-15T14:36:27Z</time>
      </trkpt>
      <trkpt lat="48.81304" lon="-3.46355">
        <ele>53.49</ele>
        <time>2013-05-15T14:36:28Z</time>
      </trkpt>
      <trkpt lat="48.81276" lon="-3.46357">
        <ele>52.05</ele>
        <time>2013-05-15T14:36:31Z</time>
      </trkpt>
      <trkpt lat="48.81145" lon="-3.46356">
        <ele>51.09</ele>
        <time>2013-05-15T14:36:46Z</time>
      </trkpt>
      <trkpt lat="48.81064" lon="-3.46331">
        <ele>48.68</ele>
        <time>2013-05-15T14:36:56Z</time>
      </trkpt>
      <trkpt lat="48.81056" lon="-3.46326">
        <ele>48.2</ele>
        <time>2013-05-15T14:36:57Z</time>
      </trkpt>
      <trkpt lat="48.81048" lon="-3.46319">
        <ele>48.2</ele>
        <time>2013-05-15T14:36:58Z</time>
      </trkpt>
      <trkpt lat="48.81034" lon="-3.46301">
        <ele>47.24</ele>
        <time>2013-05-15T14:37:00Z</time>
      </trkpt>
      <trkpt lat="48.81029" lon="-3.46288">
        <ele>46.76</ele>
        <time>2013-05-15T14:37:01Z</time>
      </trkpt>
      <trkpt lat="48.81026" lon="-3.46275">
        <ele>46.76</ele>
        <time>2013-05-15T14:37:02Z</time>
      </trkpt>
      <trkpt lat="48.81025" lon="-3.46262">
        <ele>47.24</ele>
        <time>2013-05-15T14:37:03Z</time>
      </trkpt>
      <trkpt lat="48.81024" lon="-3.46249">
        <ele>47.72</ele>
        <time>2013-05-15T14:37:04Z</time>
      </trkpt>
      <trkpt lat="48.81024" lon="-3.46238">
        <ele>48.68</ele>
        <time>2013-05-15T14:37:05Z</time>
      </trkpt>
      <trkpt lat="48.81025" lon="-3.46227">
        <ele>48.68</ele>
        <time>2013-05-15T14:37:06Z</time>
      </trkpt>
      <trkpt lat="48.81027" lon="-3.46218">
        <ele>48.2</ele>
        <time>2013-05-15T14:37:07Z</time>
      </trkpt>
      <trkpt lat="48.81029" lon="-3.46209">
        <ele>48.2</ele>
        <time>2013-05-15T14:37:08Z</time>
      </trkpt>
      <trkpt lat="48.81032" lon="-3.46201">
        <ele>48.68</ele>
        <time>2013-05-15T14:37:09Z</time>
      </trkpt>
      <trkpt lat="48.81036" lon="-3.46194">
        <ele>48.68</ele>
        <time>2013-05-15T14:37:10Z</time>
      </trkpt>
      <trkpt lat="48.8104" lon="-3.46188">
        <ele>48.2</ele>
        <time>2013-05-15T14:37:11Z</time>
      </trkpt>
      <trkpt lat="48.81044" lon="-3.46183">
        <ele>48.2</ele>
        <time>2013-05-15T14:37:12Z</time>
      </trkpt>
      <trkpt lat="48.81049" lon="-3.46179">
        <ele>49.16</ele>
        <time>2013-05-15T14:37:13Z</time>
      </trkpt>
      <trkpt lat="48.81053" lon="-3.46176">
        <ele>48.68</ele>
        <time>2013-05-15T14:37:14Z</time>
      </trkpt>
      <trkpt lat="48.81062" lon="-3.4617">
        <ele>48.68</ele>
        <time>2013-05-15T14:37:16Z</time>
      </trkpt>
      <trkpt lat="48.81066" lon="-3.46169">
        <ele>48.68</ele>
        <time>2013-05-15T14:37:17Z</time>
      </trkpt>
      <trkpt lat="48.81126" lon="-3.46154">
        <ele>51.09</ele>
        <time>2013-05-15T14:37:29Z</time>
      </trkpt>
      <trkpt lat="48.81145" lon="-3.4614">
        <ele>51.57</ele>
        <time>2013-05-15T14:37:33Z</time>
      </trkpt>
      <trkpt lat="48.8115" lon="-3.46135">
        <ele>51.57</ele>
        <time>2013-05-15T14:37:34Z</time>
      </trkpt>
      <trkpt lat="48.81154" lon="-3.46129">
        <ele>52.05</ele>
        <time>2013-05-15T14:37:35Z</time>
      </trkpt>
      <trkpt lat="48.81158" lon="-3.46124">
        <ele>52.53</ele>
        <time>2013-05-15T14:37:36Z</time>
      </trkpt>
      <trkpt lat="48.81162" lon="-3.46118">
        <ele>51.57</ele>
        <time>2013-05-15T14:37:37Z</time>
      </trkpt>
      <trkpt lat="48.81173" lon="-3.46098">
        <ele>52.53</ele>
        <time>2013-05-15T14:37:40Z</time>
      </trkpt>
      <trkpt lat="48.81207" lon="-3.45973">
        <ele>53.49</ele>
        <time>2013-05-15T14:37:55Z</time>
      </trkpt>
      <trkpt lat="48.81251" lon="-3.45833">
        <ele>54.45</ele>
        <time>2013-05-15T14:38:11Z</time>
      </trkpt>
      <trkpt lat="48.81285" lon="-3.45691">
        <ele>54.93</ele>
        <time>2013-05-15T14:38:26Z</time>
      </trkpt>
      <trkpt lat="48.81289" lon="-3.45653">
        <ele>55.41</ele>
        <time>2013-05-15T14:38:30Z</time>
      </trkpt>
      <trkpt lat="48.81296" lon="-3.45516">
        <ele>58.3</ele>
        <time>2013-05-15T14:38:45Z</time>
      </trkpt>
      <trkpt lat="48.81301" lon="-3.45347">
        <ele>61.18</ele>
        <time>2013-05-15T14:39:03Z</time>
      </trkpt>
      <trkpt lat="48.81308" lon="-3.45195">
        <ele>61.66</ele>
        <time>2013-05-15T14:39:20Z</time>
      </trkpt>
      <trkpt lat="48.81326" lon="-3.45078">
        <ele>61.66</ele>
        <time>2013-05-15T14:39:32Z</time>
      </trkpt>
      <trkpt lat="48.81367" lon="-3.44946">
        <ele>60.22</ele>
        <time>2013-05-15T14:39:46Z</time>
      </trkpt>
      <trkpt lat="48.81419" lon="-3.44816">
        <ele>59.26</ele>
        <time>2013-05-15T14:39:59Z</time>
      </trkpt>
      <trkpt lat="48.81456" lon="-3.44731">
        <ele>55.89</ele>
        <time>2013-05-15T14:40:08Z</time>
      </trkpt>
      <trkpt lat="48.81472" lon="-3.44693">
        <ele>53.49</ele>
        <time>2013-05-15T14:40:16Z</time>
      </trkpt>
      <trkpt lat="48.81499" lon="-3.44633">
        <ele>52.05</ele>
        <time>2013-05-15T14:40:23Z</time>
      </trkpt>
      <trkpt lat="48.81521" lon="-3.44588">
        <ele>50.61</ele>
        <time>2013-05-15T14:40:29Z</time>
      </trkpt>
      <trkpt lat="48.8153" lon="-3.44575">
        <ele>50.61</ele>
        <time>2013-05-15T14:40:31Z</time>
      </trkpt>
      <trkpt lat="48.8154" lon="-3.44554">
        <ele>50.13</ele>
        <time>2013-05-15T14:40:34Z</time>
      </trkpt>
      <trkpt lat="48.8155" lon="-3.44538">
        <ele>49.65</ele>
        <time>2013-05-15T14:40:38Z</time>
      </trkpt>
      <trkpt lat="48.81553" lon="-3.44533">
        <ele>49.65</ele>
        <time>2013-05-15T14:40:39Z</time>
      </trkpt>
      <trkpt lat="48.81557" lon="-3.44527">
        <ele>49.65</ele>
        <time>2013-05-15T14:40:40Z</time>
      </trkpt>
      <trkpt lat="48.81589" lon="-3.44452">
        <ele>49.65</ele>
        <time>2013-05-15T14:40:51Z</time>
      </trkpt>
      <trkpt lat="48.81594" lon="-3.44439">
        <ele>50.13</ele>
        <time>2013-05-15T14:40:53Z</time>
      </trkpt>
      <trkpt lat="48.81599" lon="-3.44424">
        <ele>50.13</ele>
        <time>2013-05-15T14:40:55Z</time>
      </trkpt>
      <trkpt lat="48.81602" lon="-3.44417">
        <ele>50.61</ele>
        <time>2013-05-15T14:40:56Z</time>
      </trkpt>
      <trkpt lat="48.81633" lon="-3.44342">
        <ele>52.05</ele>
        <time>2013-05-15T14:41:10Z</time>
      </trkpt>
      <trkpt lat="48.81662" lon="-3.44269">
        <ele>53.97</ele>
        <time>2013-05-15T14:41:22Z</time>
      </trkpt>
      <trkpt lat="48.81695" lon="-3.44187">
        <ele>56.37</ele>
        <time>2013-05-15T14:41:35Z</time>
      </trkpt>
      <trkpt lat="48.81743" lon="-3.44085">
        <ele>55.89</ele>
        <time>2013-05-15T14:41:49Z</time>
      </trkpt>
      <trkpt lat="48.81753" lon="-3.44071">
        <ele>55.89</ele>
        <time>2013-05-15T14:41:51Z</time>
      </trkpt>
      <trkpt lat="48.81802" lon="-3.43961">
        <ele>55.41</ele>
        <time>2013-05-15T14:42:05Z</time>
      </trkpt>
      <trkpt lat="48.81854" lon="-3.43851">
        <ele>57.34</ele>
        <time>2013-05-15T14:42:22Z</time>
      </trkpt>
      <trkpt lat="48.81871" lon="-3.43817">
        <ele>59.26</ele>
        <time>2013-05-15T14:42:28Z</time>
      </trkpt>
      <trkpt lat="48.81903" lon="-3.43749">
        <ele>61.18</ele>
        <time>2013-05-15T14:42:40Z</time>
      </trkpt>
      <trkpt lat="48.81914" lon="-3.43718">
        <ele>60.7</ele>
        <time>2013-05-15T14:42:44Z</time>
      </trkpt>
      <trkpt lat="48.81916" lon="-3.43708">
        <ele>60.22</ele>
        <time>2013-05-15T14:42:45Z</time>
      </trkpt>
      <trkpt lat="48.81918" lon="-3.43699">
        <ele>60.22</ele>
        <time>2013-05-15T14:42:46Z</time>
      </trkpt>
      <trkpt lat="48.8192" lon="-3.43689">
        <ele>60.22</ele>
        <time>2013-05-15T14:42:47Z</time>
      </trkpt>
      <trkpt lat="48.8192" lon="-3.43679">
        <ele>60.22</ele>
        <time>2013-05-15T14:42:48Z</time>
      </trkpt>
      <trkpt lat="48.8192" lon="-3.43669">
        <ele>60.22</ele>
        <time>2013-05-15T14:42:49Z</time>
      </trkpt>
      <trkpt lat="48.8192" lon="-3.43659">
        <ele>59.74</ele>
        <time>2013-05-15T14:42:50Z</time>
      </trkpt>
      <trkpt lat="48.81918" lon="-3.43649">
        <ele>59.26</ele>
        <time>2013-05-15T14:42:51Z</time>
      </trkpt>
      <trkpt lat="48.81915" lon="-3.43638">
        <ele>58.78</ele>
        <time>2013-05-15T14:42:52Z</time>
      </trkpt>
      <trkpt lat="48.81911" lon="-3.43628">
        <ele>58.78</ele>
        <time>2013-05-15T14:42:53Z</time>
      </trkpt>
      <trkpt lat="48.81906" lon="-3.43618">
        <ele>58.3</ele>
        <time>2013-05-15T14:42:54Z</time>
      </trkpt>
      <trkpt lat="48.81871" lon="-3.43564">
        <ele>55.41</ele>
        <time>2013-05-15T14:43:00Z</time>
      </trkpt>
      <trkpt lat="48.81867" lon="-3.43558">
        <ele>55.41</ele>
        <time>2013-05-15T14:43:01Z</time>
      </trkpt>
      <trkpt lat="48.81849" lon="-3.43532">
        <ele>53.97</ele>
        <time>2013-05-15T14:43:04Z</time>
      </trkpt>
      <trkpt lat="48.81786" lon="-3.43429">
        <ele>51.09</ele>
        <time>2013-05-15T14:43:15Z</time>
      </trkpt>
      <trkpt lat="48.81765" lon="-3.43373">
        <ele>48.2</ele>
        <time>2013-05-15T14:43:20Z</time>
      </trkpt>
      <trkpt lat="48.81748" lon="-3.43299">
        <ele>47.24</ele>
        <time>2013-05-15T14:43:26Z</time>
      </trkpt>
      <trkpt lat="48.81699" lon="-3.43185">
        <ele>45.8</ele>
        <time>2013-05-15T14:43:37Z</time>
      </trkpt>
      <trkpt lat="48.81663" lon="-3.43116">
        <ele>43.88</ele>
        <time>2013-05-15T14:43:43Z</time>
      </trkpt>
      <trkpt lat="48.81649" lon="-3.43101">
        <ele>43.4</ele>
        <time>2013-05-15T14:43:45Z</time>
      </trkpt>
      <trkpt lat="48.8164" lon="-3.43097">
        <ele>42.92</ele>
        <time>2013-05-15T14:43:46Z</time>
      </trkpt>
      <trkpt lat="48.81631" lon="-3.43095">
        <ele>42.44</ele>
        <time>2013-05-15T14:43:47Z</time>
      </trkpt>
      <trkpt lat="48.81621" lon="-3.43095">
        <ele>42.44</ele>
        <time>2013-05-15T14:43:48Z</time>
      </trkpt>
      <trkpt lat="48.81584" lon="-3.43093">
        <ele>40.51</ele>
        <time>2013-05-15T14:43:52Z</time>
      </trkpt>
      <trkpt lat="48.81566" lon="-3.4308">
        <ele>39.07</ele>
        <time>2013-05-15T14:43:55Z</time>
      </trkpt>
      <trkpt lat="48.81576" lon="-3.4327">
        <ele>37.15</ele>
        <time>2013-05-15T14:43:59Z</time>
      </trkpt>
      <trkpt lat="48.81573" lon="-3.4332">
        <ele>35.71</ele>
        <time>2013-05-15T14:44:02Z</time>
      </trkpt>
      <trkpt lat="48.81567" lon="-3.43389">
        <ele>34.74</ele>
        <time>2013-05-15T14:44:07Z</time>
      </trkpt>
      <trkpt lat="48.81562" lon="-3.434">
        <ele>34.26</ele>
        <time>2013-05-15T14:44:08Z</time>
      </trkpt>
      <trkpt lat="48.81556" lon="-3.4341">
        <ele>33.3</ele>
        <time>2013-05-15T14:44:09Z</time>
      </trkpt>
      <trkpt lat="48.81547" lon="-3.43418">
        <ele>32.82</ele>
        <time>2013-05-15T14:44:10Z</time>
      </trkpt>
      <trkpt lat="48.81537" lon="-3.43425">
        <ele>32.34</ele>
        <time>2013-05-15T14:44:11Z</time>
      </trkpt>
      <trkpt lat="48.81528" lon="-3.43432">
        <ele>31.86</ele>
        <time>2013-05-15T14:44:12Z</time>
      </trkpt>
      <trkpt lat="48.81519" lon="-3.43438">
        <ele>31.86</ele>
        <time>2013-05-15T14:44:13Z</time>
      </trkpt>
      <trkpt lat="48.8151" lon="-3.43443">
        <ele>31.86</ele>
        <time>2013-05-15T14:44:14Z</time>
      </trkpt>
      <trkpt lat="48.815" lon="-3.43446">
        <ele>30.9</ele>
        <time>2013-05-15T14:44:15Z</time>
      </trkpt>
      <trkpt lat="48.8149" lon="-3.43448">
        <ele>30.9</ele>
        <time>2013-05-15T14:44:16Z</time>
      </trkpt>
      <trkpt lat="48.81479" lon="-3.43449">
        <ele>30.42</ele>
        <time>2013-05-15T14:44:17Z</time>
      </trkpt>
      <trkpt lat="48.81418" lon="-3.43455">
        <ele>27.05</ele>
        <time>2013-05-15T14:44:23Z</time>
      </trkpt>
      <trkpt lat="48.81355" lon="-3.43464">
        <ele>23.69</ele>
        <time>2013-05-15T14:44:29Z</time>
      </trkpt>
      <trkpt lat="48.81324" lon="-3.43469">
        <ele>22.73</ele>
        <time>2013-05-15T14:44:32Z</time>
      </trkpt>
      <trkpt lat="48.81315" lon="-3.43473">
        <ele>22.73</ele>
        <time>2013-05-15T14:44:33Z</time>
      </trkpt>
      <trkpt lat="48.81304" lon="-3.43477">
        <ele>21.29</ele>
        <time>2013-05-15T14:44:34Z</time>
      </trkpt>
      <trkpt lat="48.81294" lon="-3.43483">
        <ele>21.29</ele>
        <time>2013-05-15T14:44:35Z</time>
      </trkpt>
      <trkpt lat="48.81284" lon="-3.43489">
        <ele>21.29</ele>
        <time>2013-05-15T14:44:36Z</time>
      </trkpt>
      <trkpt lat="48.81266" lon="-3.43505">
        <ele>20.32</ele>
        <time>2013-05-15T14:44:38Z</time>
      </trkpt>
      <trkpt lat="48.81257" lon="-3.43514">
        <ele>19.84</ele>
        <time>2013-05-15T14:44:39Z</time>
      </trkpt>
      <trkpt lat="48.81197" lon="-3.43606">
        <ele>16.48</ele>
        <time>2013-05-15T14:44:47Z</time>
      </trkpt>
      <trkpt lat="48.81181" lon="-3.43648">
        <ele>14.08</ele>
        <time>2013-05-15T14:44:50Z</time>
      </trkpt>
      <trkpt lat="48.81158" lon="-3.43714">
        <ele>12.15</ele>
        <time>2013-05-15T14:44:55Z</time>
      </trkpt>
      <trkpt lat="48.81153" lon="-3.43725">
        <ele>11.67</ele>
        <time>2013-05-15T14:44:56Z</time>
      </trkpt>
      <trkpt lat="48.81124" lon="-3.4376">
        <ele>9.75</ele>
        <time>2013-05-15T14:45:00Z</time>
      </trkpt>
      <trkpt lat="48.81116" lon="-3.43766">
        <ele>9.75</ele>
        <time>2013-05-15T14:45:01Z</time>
      </trkpt>
      <trkpt lat="48.81108" lon="-3.43771">
        <ele>9.27</ele>
        <time>2013-05-15T14:45:02Z</time>
      </trkpt>
      <trkpt lat="48.81099" lon="-3.43775">
        <ele>9.27</ele>
        <time>2013-05-15T14:45:03Z</time>
      </trkpt>
      <trkpt lat="48.81091" lon="-3.43778">
        <ele>9.75</ele>
        <time>2013-05-15T14:45:04Z</time>
      </trkpt>
      <trkpt lat="48.81083" lon="-3.4378">
        <ele>8.79</ele>
        <time>2013-05-15T14:45:05Z</time>
      </trkpt>
      <trkpt lat="48.81074" lon="-3.43781">
        <ele>9.27</ele>
        <time>2013-05-15T14:45:06Z</time>
      </trkpt>
      <trkpt lat="48.81066" lon="-3.43781">
        <ele>8.31</ele>
        <time>2013-05-15T14:45:07Z</time>
      </trkpt>
      <trkpt lat="48.80979" lon="-3.43756">
        <ele>7.35</ele>
        <time>2013-05-15T14:45:18Z</time>
      </trkpt>
      <trkpt lat="48.80862" lon="-3.43734">
        <ele>6.39</ele>
        <time>2013-05-15T14:45:33Z</time>
      </trkpt>
      <trkpt lat="48.80718" lon="-3.43713">
        <ele>5.91</ele>
        <time>2013-05-15T14:45:51Z</time>
      </trkpt>
      <trkpt lat="48.80648" lon="-3.43707">
        <ele>6.87</ele>
        <time>2013-05-15T14:46:00Z</time>
      </trkpt>
      <trkpt lat="48.80641" lon="-3.4371">
        <ele>6.87</ele>
        <time>2013-05-15T14:46:01Z</time>
      </trkpt>
      <trkpt lat="48.80635" lon="-3.43716">
        <ele>6.87</ele>
        <time>2013-05-15T14:46:02Z</time>
      </trkpt>
      <trkpt lat="48.80629" lon="-3.43724">
        <ele>6.87</ele>
        <time>2013-05-15T14:46:03Z</time>
      </trkpt>
      <trkpt lat="48.80625" lon="-3.43732">
        <ele>6.87</ele>
        <time>2013-05-15T14:46:04Z</time>
      </trkpt>
      <trkpt lat="48.8062" lon="-3.43742">
        <ele>6.39</ele>
        <time>2013-05-15T14:46:05Z</time>
      </trkpt>
      <trkpt lat="48.80617" lon="-3.43752">
        <ele>6.39</ele>
        <time>2013-05-15T14:46:06Z</time>
      </trkpt>
      <trkpt lat="48.80614" lon="-3.43763">
        <ele>6.87</ele>
        <time>2013-05-15T14:46:07Z</time>
      </trkpt>
      <trkpt lat="48.80611" lon="-3.43774">
        <ele>6.39</ele>
        <time>2013-05-15T14:46:08Z</time>
      </trkpt>
      <trkpt lat="48.8061" lon="-3.43785">
        <ele>6.87</ele>
        <time>2013-05-15T14:46:09Z</time>
      </trkpt>
      <trkpt lat="48.80609" lon="-3.43796">
        <ele>6.87</ele>
        <time>2013-05-15T14:46:10Z</time>
      </trkpt>
      <trkpt lat="48.80609" lon="-3.43807">
        <ele>7.35</ele>
        <time>2013-05-15T14:46:11Z</time>
      </trkpt>
      <trkpt lat="48.80609" lon="-3.43819">
        <ele>7.83</ele>
        <time>2013-05-15T14:46:12Z</time>
      </trkpt>
      <trkpt lat="48.8061" lon="-3.43829">
        <ele>8.31</ele>
        <time>2013-05-15T14:46:13Z</time>
      </trkpt>
      <trkpt lat="48.80611" lon="-3.43839">
        <ele>8.31</ele>
        <time>2013-05-15T14:46:14Z</time>
      </trkpt>
      <trkpt lat="48.80613" lon="-3.43849">
        <ele>7.83</ele>
        <time>2013-05-15T14:46:15Z</time>
      </trkpt>
      <trkpt lat="48.80617" lon="-3.43858">
        <ele>7.83</ele>
        <time>2013-05-15T14:46:16Z</time>
      </trkpt>
      <trkpt lat="48.8062" lon="-3.43867">
        <ele>7.83</ele>
        <time>2013-05-15T14:46:17Z</time>
      </trkpt>
      <trkpt lat="48.80657" lon="-3.43986">
        <ele>7.83</ele>
        <time>2013-05-15T14:46:30Z</time>
      </trkpt>
      <trkpt lat="48.80658" lon="-3.44006">
        <ele>7.83</ele>
        <time>2013-05-15T14:46:32Z</time>
      </trkpt>
      <trkpt lat="48.80638" lon="-3.44155">
        <ele>7.35</ele>
        <time>2013-05-15T14:46:48Z</time>
      </trkpt>
      <trkpt lat="48.80631" lon="-3.44178">
        <ele>6.87</ele>
        <time>2013-05-15T14:46:51Z</time>
      </trkpt>
      <trkpt lat="48.80628" lon="-3.44183">
        <ele>6.39</ele>
        <time>2013-05-15T14:46:52Z</time>
      </trkpt>
      <trkpt lat="48.80624" lon="-3.44188">
        <ele>6.39</ele>
        <time>2013-05-15T14:46:53Z</time>
      </trkpt>
      <trkpt lat="48.80619" lon="-3.4419">
        <ele>6.87</ele>
        <time>2013-05-15T14:46:54Z</time>
      </trkpt>
      <trkpt lat="48.80614" lon="-3.44192">
        <ele>6.87</ele>
        <time>2013-05-15T14:46:55Z</time>
      </trkpt>
      <trkpt lat="48.80597" lon="-3.442">
        <ele>6.39</ele>
        <time>2013-05-15T14:46:58Z</time>
      </trkpt>
      <trkpt lat="48.80514" lon="-3.44273">
        <ele>7.35</ele>
        <time>2013-05-15T14:47:13Z</time>
      </trkpt>
      <trkpt lat="48.80503" lon="-3.44281">
        <ele>7.35</ele>
        <time>2013-05-15T14:47:15Z</time>
      </trkpt>
      <trkpt lat="48.80497" lon="-3.44283">
        <ele>7.35</ele>
        <time>2013-05-15T14:47:16Z</time>
      </trkpt>
      <trkpt lat="48.80425" lon="-3.4431">
        <ele>6.87</ele>
        <time>2013-05-15T14:47:28Z</time>
      </trkpt>
      <trkpt lat="48.80384" lon="-3.44322">
        <ele>6.87</ele>
        <time>2013-05-15T14:47:35Z</time>
      </trkpt>
      <trkpt lat="48.8038" lon="-3.44323">
        <ele>6.87</ele>
        <time>2013-05-15T14:47:36Z</time>
      </trkpt>
      <trkpt lat="48.80376" lon="-3.44323">
        <ele>6.87</ele>
        <time>2013-05-15T14:47:37Z</time>
      </trkpt>
      <trkpt lat="48.80356" lon="-3.44327">
        <ele>6.87</ele>
        <time>2013-05-15T14:47:41Z</time>
      </trkpt>
      <trkpt lat="48.80351" lon="-3.44325">
        <ele>7.35</ele>
        <time>2013-05-15T14:47:42Z</time>
      </trkpt>
      <trkpt lat="48.80346" lon="-3.44323">
        <ele>7.35</ele>
        <time>2013-05-15T14:47:43Z</time>
      </trkpt>
      <trkpt lat="48.80308" lon="-3.44316">
        <ele>6.87</ele>
        <time>2013-05-15T14:47:50Z</time>
      </trkpt>
      <trkpt lat="48.80303" lon="-3.44318">
        <ele>6.87</ele>
        <time>2013-05-15T14:47:51Z</time>
      </trkpt>
      <trkpt lat="48.80241" lon="-3.44341">
        <ele>7.35</ele>
        <time>2013-05-15T14:48:03Z</time>
      </trkpt>
      <trkpt lat="48.8022" lon="-3.44347">
        <ele>7.83</ele>
        <time>2013-05-15T14:48:07Z</time>
      </trkpt>
      <trkpt lat="48.80216" lon="-3.44347">
        <ele>8.79</ele>
        <time>2013-05-15T14:48:08Z</time>
      </trkpt>
      <trkpt lat="48.80211" lon="-3.44348">
        <ele>9.27</ele>
        <time>2013-05-15T14:48:09Z</time>
      </trkpt>
      <trkpt lat="48.80188" lon="-3.4435">
        <ele>7.35</ele>
        <time>2013-05-15T14:48:14Z</time>
      </trkpt>
      <trkpt lat="48.80183" lon="-3.4435">
        <ele>7.35</ele>
        <time>2013-05-15T14:48:15Z</time>
      </trkpt>
      <trkpt lat="48.80178" lon="-3.44351">
        <ele>7.35</ele>
        <time>2013-05-15T14:48:16Z</time>
      </trkpt>
      <trkpt lat="48.80172" lon="-3.44351">
        <ele>7.35</ele>
        <time>2013-05-15T14:48:17Z</time>
      </trkpt>
      <trkpt lat="48.80168" lon="-3.44349">
        <ele>7.35</ele>
        <time>2013-05-15T14:48:18Z</time>
      </trkpt>
      <trkpt lat="48.80163" lon="-3.44346">
        <ele>7.35</ele>
        <time>2013-05-15T14:48:19Z</time>
      </trkpt>
      <trkpt lat="48.80102" lon="-3.44294">
        <ele>7.83</ele>
        <time>2013-05-15T14:48:31Z</time>
      </trkpt>
      <trkpt lat="48.80024" lon="-3.44259">
        <ele>7.35</ele>
        <time>2013-05-15T14:48:44Z</time>
      </trkpt>
      <trkpt lat="48.79949" lon="-3.44235">
        <ele>6.39</ele>
        <time>2013-05-15T14:48:57Z</time>
      </trkpt>
      <trkpt lat="48.79906" lon="-3.44221">
        <ele>6.39</ele>
        <time>2013-05-15T14:49:07Z</time>
      </trkpt>
      <trkpt lat="48.79838" lon="-3.44204">
        <ele>6.87</ele>
        <time>2013-05-15T14:49:18Z</time>
      </trkpt>
      <trkpt lat="48.79782" lon="-3.44178">
        <ele>7.83</ele>
        <time>2013-05-15T14:49:28Z</time>
      </trkpt>
      <trkpt lat="48.79764" lon="-3.44171">
        <ele>6.39</ele>
        <time>2013-05-15T14:49:31Z</time>
      </trkpt>
      <trkpt lat="48.79758" lon="-3.44166">
        <ele>6.39</ele>
        <time>2013-05-15T14:49:32Z</time>
      </trkpt>
      <trkpt lat="48.79753" lon="-3.4416">
        <ele>6.39</ele>
        <time>2013-05-15T14:49:33Z</time>
      </trkpt>
      <trkpt lat="48.79748" lon="-3.44153">
        <ele>6.87</ele>
        <time>2013-05-15T14:49:34Z</time>
      </trkpt>
      <trkpt lat="48.79744" lon="-3.44144">
        <ele>6.87</ele>
        <time>2013-05-15T14:49:35Z</time>
      </trkpt>
      <trkpt lat="48.79742" lon="-3.44134">
        <ele>6.87</ele>
        <time>2013-05-15T14:49:36Z</time>
      </trkpt>
      <trkpt lat="48.79741" lon="-3.44124">
        <ele>6.87</ele>
        <time>2013-05-15T14:49:37Z</time>
      </trkpt>
      <trkpt lat="48.7974" lon="-3.44113">
        <ele>6.87</ele>
        <time>2013-05-15T14:49:38Z</time>
      </trkpt>
      <trkpt lat="48.79742" lon="-3.44103">
        <ele>6.87</ele>
        <time>2013-05-15T14:49:39Z</time>
      </trkpt>
      <trkpt lat="48.79744" lon="-3.44093">
        <ele>6.87</ele>
        <time>2013-05-15T14:49:40Z</time>
      </trkpt>
      <trkpt lat="48.79749" lon="-3.44085">
        <ele>7.35</ele>
        <time>2013-05-15T14:49:41Z</time>
      </trkpt>
      <trkpt lat="48.79754" lon="-3.44079">
        <ele>6.87</ele>
        <time>2013-05-15T14:49:42Z</time>
      </trkpt>
      <trkpt lat="48.7976" lon="-3.44074">
        <ele>7.35</ele>
        <time>2013-05-15T14:49:43Z</time>
      </trkpt>
      <trkpt lat="48.79766" lon="-3.4407">
        <ele>7.35</ele>
        <time>2013-05-15T14:49:44Z</time>
      </trkpt>
      <trkpt lat="48.79772" lon="-3.44066">
        <ele>7.35</ele>
        <time>2013-05-15T14:49:45Z</time>
      </trkpt>
      <trkpt lat="48.79777" lon="-3.4406">
        <ele>6.87</ele>
        <time>2013-05-15T14:49:46Z</time>
      </trkpt>
      <trkpt lat="48.79783" lon="-3.44054">
        <ele>6.87</ele>
        <time>2013-05-15T14:49:47Z</time>
      </trkpt>
      <trkpt lat="48.79787" lon="-3.44046">
        <ele>6.87</ele>
        <time>2013-05-15T14:49:48Z</time>
      </trkpt>
      <trkpt lat="48.79789" lon="-3.44037">
        <ele>6.87</ele>
        <time>2013-05-15T14:49:49Z</time>
      </trkpt>
      <trkpt lat="48.7979" lon="-3.44027">
        <ele>6.87</ele>
        <time>2013-05-15T14:49:50Z</time>
      </trkpt>
      <trkpt lat="48.79792" lon="-3.44007">
        <ele>7.35</ele>
        <time>2013-05-15T14:49:52Z</time>
      </trkpt>
      <trkpt lat="48.79791" lon="-3.43997">
        <ele>7.83</ele>
        <time>2013-05-15T14:49:53Z</time>
      </trkpt>
      <trkpt lat="48.79787" lon="-3.43954">
        <ele>7.83</ele>
        <time>2013-05-15T14:49:57Z</time>
      </trkpt>
      <trkpt lat="48.7979" lon="-3.43797">
        <ele>8.31</ele>
        <time>2013-05-15T14:50:12Z</time>
      </trkpt>
      <trkpt lat="48.79771" lon="-3.43654">
        <ele>7.83</ele>
        <time>2013-05-15T14:50:26Z</time>
      </trkpt>
      <trkpt lat="48.79734" lon="-3.43513">
        <ele>7.35</ele>
        <time>2013-05-15T14:50:40Z</time>
      </trkpt>
      <trkpt lat="48.79722" lon="-3.43366">
        <ele>7.35</ele>
        <time>2013-05-15T14:50:54Z</time>
      </trkpt>
      <trkpt lat="48.79723" lon="-3.43166">
        <ele>7.35</ele>
        <time>2013-05-15T14:51:13Z</time>
      </trkpt>
      <trkpt lat="48.797" lon="-3.43017">
        <ele>9.75</ele>
        <time>2013-05-15T14:51:28Z</time>
      </trkpt>
      <trkpt lat="48.79674" lon="-3.42869">
        <ele>9.75</ele>
        <time>2013-05-15T14:51:43Z</time>
      </trkpt>
      <trkpt lat="48.79642" lon="-3.4269">
        <ele>10.23</ele>
        <time>2013-05-15T14:52:01Z</time>
      </trkpt>
      <trkpt lat="48.79613" lon="-3.42534">
        <ele>11.19</ele>
        <time>2013-05-15T14:52:17Z</time>
      </trkpt>
      <trkpt lat="48.79599" lon="-3.42387">
        <ele>12.15</ele>
        <time>2013-05-15T14:52:32Z</time>
      </trkpt>
      <trkpt lat="48.79599" lon="-3.4238">
        <ele>12.15</ele>
        <time>2013-05-15T14:52:33Z</time>
      </trkpt>
      <trkpt lat="48.79598" lon="-3.42358">
        <ele>12.63</ele>
        <time>2013-05-15T14:52:36Z</time>
      </trkpt>
      <trkpt lat="48.79598" lon="-3.42351">
        <ele>13.6</ele>
        <time>2013-05-15T14:52:37Z</time>
      </trkpt>
      <trkpt lat="48.79597" lon="-3.42343">
        <ele>13.6</ele>
        <time>2013-05-15T14:52:38Z</time>
      </trkpt>
      <trkpt lat="48.79597" lon="-3.42329">
        <ele>14.08</ele>
        <time>2013-05-15T14:52:40Z</time>
      </trkpt>
      <trkpt lat="48.79597" lon="-3.42321">
        <ele>14.56</ele>
        <time>2013-05-15T14:52:41Z</time>
      </trkpt>
      <trkpt lat="48.79592" lon="-3.42271">
        <ele>16.48</ele>
        <time>2013-05-15T14:52:49Z</time>
      </trkpt>
      <trkpt lat="48.79591" lon="-3.4227">
        <ele>16.96</ele>
        <time>2013-05-15T14:52:50Z</time>
      </trkpt>
      <trkpt lat="48.7959" lon="-3.42269">
        <ele>16.48</ele>
        <time>2013-05-15T14:52:51Z</time>
      </trkpt>
      <trkpt lat="48.79586" lon="-3.42272">
        <ele>16</ele>
        <time>2013-05-15T14:53:02Z</time>
      </trkpt>
      <trkpt lat="48.79583" lon="-3.42274">
        <ele>16</ele>
        <time>2013-05-15T14:53:17Z</time>
      </trkpt>
      <trkpt lat="48.79586" lon="-3.42275">
        <ele>16.48</ele>
        <time>2013-05-15T14:53:35Z</time>
      </trkpt>
      <trkpt lat="48.79585" lon="-3.42277">
        <ele>16.48</ele>
        <time>2013-05-15T14:54:00Z</time>
      </trkpt>
      <trkpt lat="48.79587" lon="-3.42279">
        <ele>16.48</ele>
        <time>2013-05-15T14:54:30Z</time>
      </trkpt>
      <trkpt lat="48.79586" lon="-3.42285">
        <ele>16.48</ele>
        <time>2013-05-15T14:54:48Z</time>
      </trkpt>
      <trkpt lat="48.79585" lon="-3.42284">
        <ele>16.96</ele>
        <time>2013-05-15T14:54:53Z</time>
      </trkpt>
      <trkpt lat="48.79594" lon="-3.42271">
        <ele>17.92</ele>
        <time>2013-05-15T14:55:03Z</time>
      </trkpt>
      <trkpt lat="48.7959" lon="-3.4222">
        <ele>20.32</ele>
        <time>2013-05-15T14:55:13Z</time>
      </trkpt>
      <trkpt lat="48.79582" lon="-3.4214">
        <ele>23.69</ele>
        <time>2013-05-15T14:55:27Z</time>
      </trkpt>
      <trkpt lat="48.79571" lon="-3.42067">
        <ele>26.57</ele>
        <time>2013-05-15T14:55:39Z</time>
      </trkpt>
      <trkpt lat="48.7955" lon="-3.41976">
        <ele>29.94</ele>
        <time>2013-05-15T14:55:53Z</time>
      </trkpt>
      <trkpt lat="48.79524" lon="-3.41905">
        <ele>32.82</ele>
        <time>2013-05-15T14:56:06Z</time>
      </trkpt>
      <trkpt lat="48.79502" lon="-3.41837">
        <ele>36.19</ele>
        <time>2013-05-15T14:56:18Z</time>
      </trkpt>
      <trkpt lat="48.79481" lon="-3.4176">
        <ele>39.07</ele>
        <time>2013-05-15T14:56:31Z</time>
      </trkpt>
      <trkpt lat="48.7947" lon="-3.41691">
        <ele>42.44</ele>
        <time>2013-05-15T14:56:42Z</time>
      </trkpt>
      <trkpt lat="48.79469" lon="-3.41678">
        <ele>42.44</ele>
        <time>2013-05-15T14:56:44Z</time>
      </trkpt>
      <trkpt lat="48.79472" lon="-3.41596">
        <ele>45.8</ele>
        <time>2013-05-15T14:56:57Z</time>
      </trkpt>
      <trkpt lat="48.79484" lon="-3.41517">
        <ele>48.68</ele>
        <time>2013-05-15T14:57:10Z</time>
      </trkpt>
      <trkpt lat="48.79486" lon="-3.41504">
        <ele>49.16</ele>
        <time>2013-05-15T14:57:12Z</time>
      </trkpt>
      <trkpt lat="48.79486" lon="-3.41498">
        <ele>49.16</ele>
        <time>2013-05-15T14:57:13Z</time>
      </trkpt>
      <trkpt lat="48.79489" lon="-3.41466">
        <ele>50.13</ele>
        <time>2013-05-15T14:57:18Z</time>
      </trkpt>
      <trkpt lat="48.79489" lon="-3.41426">
        <ele>51.09</ele>
        <time>2013-05-15T14:57:24Z</time>
      </trkpt>
      <trkpt lat="48.79487" lon="-3.41419">
        <ele>51.09</ele>
        <time>2013-05-15T14:57:25Z</time>
      </trkpt>
      <trkpt lat="48.79484" lon="-3.41408">
        <ele>51.09</ele>
        <time>2013-05-15T14:57:27Z</time>
      </trkpt>
      <trkpt lat="48.79484" lon="-3.41402">
        <ele>51.09</ele>
        <time>2013-05-15T14:57:28Z</time>
      </trkpt>
      <trkpt lat="48.79485" lon="-3.41377">
        <ele>52.05</ele>
        <time>2013-05-15T14:57:32Z</time>
      </trkpt>
      <trkpt lat="48.79485" lon="-3.41371">
        <ele>52.05</ele>
        <time>2013-05-15T14:57:33Z</time>
      </trkpt>
      <trkpt lat="48.79483" lon="-3.41364">
        <ele>52.05</ele>
        <time>2013-05-15T14:57:34Z</time>
      </trkpt>
      <trkpt lat="48.79464" lon="-3.41274">
        <ele>54.93</ele>
        <time>2013-05-15T14:57:49Z</time>
      </trkpt>
      <trkpt lat="48.79454" lon="-3.4122">
        <ele>57.82</ele>
        <time>2013-05-15T14:57:58Z</time>
      </trkpt>
      <trkpt lat="48.79443" lon="-3.41174">
        <ele>61.18</ele>
        <time>2013-05-15T14:58:06Z</time>
      </trkpt>
      <trkpt lat="48.79434" lon="-3.41146">
        <ele>62.62</ele>
        <time>2013-05-15T14:58:11Z</time>
      </trkpt>
      <trkpt lat="48.79431" lon="-3.41142">
        <ele>63.1</ele>
        <time>2013-05-15T14:58:12Z</time>
      </trkpt>
      <trkpt lat="48.79412" lon="-3.41113">
        <ele>63.1</ele>
        <time>2013-05-15T14:58:18Z</time>
      </trkpt>
      <trkpt lat="48.7941" lon="-3.41107">
        <ele>63.58</ele>
        <time>2013-05-15T14:58:19Z</time>
      </trkpt>
      <trkpt lat="48.79406" lon="-3.41093">
        <ele>63.1</ele>
        <time>2013-05-15T14:58:21Z</time>
      </trkpt>
      <trkpt lat="48.79404" lon="-3.41086">
        <ele>63.58</ele>
        <time>2013-05-15T14:58:22Z</time>
      </trkpt>
      <trkpt lat="48.79382" lon="-3.40978">
        <ele>63.58</ele>
        <time>2013-05-15T14:58:36Z</time>
      </trkpt>
      <trkpt lat="48.79367" lon="-3.40896">
        <ele>65.03</ele>
        <time>2013-05-15T14:58:46Z</time>
      </trkpt>
      <trkpt lat="48.79365" lon="-3.40889">
        <ele>65.03</ele>
        <time>2013-05-15T14:58:47Z</time>
      </trkpt>
      <trkpt lat="48.79348" lon="-3.40848">
        <ele>65.51</ele>
        <time>2013-05-15T14:58:53Z</time>
      </trkpt>
      <trkpt lat="48.79346" lon="-3.40841">
        <ele>65.51</ele>
        <time>2013-05-15T14:58:54Z</time>
      </trkpt>
      <trkpt lat="48.79303" lon="-3.4073">
        <ele>68.87</ele>
        <time>2013-05-15T14:59:10Z</time>
      </trkpt>
      <trkpt lat="48.79243" lon="-3.40597">
        <ele>70.31</ele>
        <time>2013-05-15T14:59:29Z</time>
      </trkpt>
      <trkpt lat="48.79178" lon="-3.40476">
        <ele>68.87</ele>
        <time>2013-05-15T14:59:45Z</time>
      </trkpt>
      <trkpt lat="48.79099" lon="-3.4033">
        <ele>70.79</ele>
        <time>2013-05-15T15:00:04Z</time>
      </trkpt>
      <trkpt lat="48.79046" lon="-3.4023">
        <ele>73.68</ele>
        <time>2013-05-15T15:00:18Z</time>
      </trkpt>
      <trkpt lat="48.78991" lon="-3.40148">
        <ele>77.04</ele>
        <time>2013-05-15T15:00:31Z</time>
      </trkpt>
      <trkpt lat="48.78963" lon="-3.40116">
        <ele>78</ele>
        <time>2013-05-15T15:00:37Z</time>
      </trkpt>
      <trkpt lat="48.78887" lon="-3.4005">
        <ele>81.37</ele>
        <time>2013-05-15T15:00:52Z</time>
      </trkpt>
      <trkpt lat="48.78798" lon="-3.39975">
        <ele>83.29</ele>
        <time>2013-05-15T15:01:09Z</time>
      </trkpt>
      <trkpt lat="48.78726" lon="-3.3991">
        <ele>85.69</ele>
        <time>2013-05-15T15:01:23Z</time>
      </trkpt>
      <trkpt lat="48.78689" lon="-3.39866">
        <ele>86.66</ele>
        <time>2013-05-15T15:01:31Z</time>
      </trkpt>
      <trkpt lat="48.78626" lon="-3.39786">
        <ele>87.62</ele>
        <time>2013-05-15T15:01:45Z</time>
      </trkpt>
      <trkpt lat="48.78542" lon="-3.39682">
        <ele>89.54</ele>
        <time>2013-05-15T15:02:03Z</time>
      </trkpt>
      <trkpt lat="48.78526" lon="-3.39667">
        <ele>90.02</ele>
        <time>2013-05-15T15:02:06Z</time>
      </trkpt>
      <trkpt lat="48.7852" lon="-3.39663">
        <ele>90.02</ele>
        <time>2013-05-15T15:02:07Z</time>
      </trkpt>
      <trkpt lat="48.78509" lon="-3.39657">
        <ele>90.02</ele>
        <time>2013-05-15T15:02:09Z</time>
      </trkpt>
      <trkpt lat="48.78504" lon="-3.39652">
        <ele>90.5</ele>
        <time>2013-05-15T15:02:10Z</time>
      </trkpt>
      <trkpt lat="48.78499" lon="-3.39646">
        <ele>90.02</ele>
        <time>2013-05-15T15:02:11Z</time>
      </trkpt>
      <trkpt lat="48.78491" lon="-3.39634">
        <ele>90.5</ele>
        <time>2013-05-15T15:02:13Z</time>
      </trkpt>
      <trkpt lat="48.78456" lon="-3.39596">
        <ele>90.5</ele>
        <time>2013-05-15T15:02:20Z</time>
      </trkpt>
      <trkpt lat="48.7836" lon="-3.39505">
        <ele>91.46</ele>
        <time>2013-05-15T15:02:38Z</time>
      </trkpt>
      <trkpt lat="48.783" lon="-3.3941">
        <ele>91.46</ele>
        <time>2013-05-15T15:02:51Z</time>
      </trkpt>
      <trkpt lat="48.78244" lon="-3.39273">
        <ele>91.46</ele>
        <time>2013-05-15T15:03:07Z</time>
      </trkpt>
      <trkpt lat="48.78204" lon="-3.39105">
        <ele>88.58</ele>
        <time>2013-05-15T15:03:22Z</time>
      </trkpt>
      <trkpt lat="48.78154" lon="-3.38891">
        <ele>87.14</ele>
        <time>2013-05-15T15:03:39Z</time>
      </trkpt>
      <trkpt lat="48.78092" lon="-3.38704">
        <ele>86.66</ele>
        <time>2013-05-15T15:03:56Z</time>
      </trkpt>
      <trkpt lat="48.78017" lon="-3.38512">
        <ele>89.54</ele>
        <time>2013-05-15T15:04:16Z</time>
      </trkpt>
      <trkpt lat="48.77944" lon="-3.38328">
        <ele>91.46</ele>
        <time>2013-05-15T15:04:36Z</time>
      </trkpt>
      <trkpt lat="48.77884" lon="-3.3817">
        <ele>91.46</ele>
        <time>2013-05-15T15:04:52Z</time>
      </trkpt>
      <trkpt lat="48.77822" lon="-3.38011">
        <ele>89.06</ele>
        <time>2013-05-15T15:05:07Z</time>
      </trkpt>
      <trkpt lat="48.77752" lon="-3.37832">
        <ele>86.18</ele>
        <time>2013-05-15T15:05:23Z</time>
      </trkpt>
      <trkpt lat="48.77675" lon="-3.37636">
        <ele>85.21</ele>
        <time>2013-05-15T15:05:41Z</time>
      </trkpt>
      <trkpt lat="48.77622" lon="-3.37497">
        <ele>87.62</ele>
        <time>2013-05-15T15:05:57Z</time>
      </trkpt>
      <trkpt lat="48.77594" lon="-3.37428">
        <ele>90.98</ele>
        <time>2013-05-15T15:06:08Z</time>
      </trkpt>
      <trkpt lat="48.77567" lon="-3.37361">
        <ele>93.87</ele>
        <time>2013-05-15T15:06:19Z</time>
      </trkpt>
      <trkpt lat="48.77538" lon="-3.37288">
        <ele>97.71</ele>
        <time>2013-05-15T15:06:31Z</time>
      </trkpt>
      <trkpt lat="48.7753" lon="-3.37268">
        <ele>98.19</ele>
        <time>2013-05-15T15:06:34Z</time>
      </trkpt>
      <trkpt lat="48.77487" lon="-3.37159">
        <ele>99.15</ele>
        <time>2013-05-15T15:06:49Z</time>
      </trkpt>
      <trkpt lat="48.77429" lon="-3.37014">
        <ele>98.67</ele>
        <time>2013-05-15T15:07:06Z</time>
      </trkpt>
      <trkpt lat="48.77338" lon="-3.36835">
        <ele>97.71</ele>
        <time>2013-05-15T15:07:25Z</time>
      </trkpt>
      <trkpt lat="48.77266" lon="-3.36707">
        <ele>99.15</ele>
        <time>2013-05-15T15:07:41Z</time>
      </trkpt>
      <trkpt lat="48.77213" lon="-3.3662">
        <ele>102.04</ele>
        <time>2013-05-15T15:07:54Z</time>
      </trkpt>
      <trkpt lat="48.77208" lon="-3.36615">
        <ele>102.52</ele>
        <time>2013-05-15T15:07:55Z</time>
      </trkpt>
      <trkpt lat="48.77202" lon="-3.36612">
        <ele>102.52</ele>
        <time>2013-05-15T15:07:56Z</time>
      </trkpt>
      <trkpt lat="48.77197" lon="-3.36609">
        <ele>103</ele>
        <time>2013-05-15T15:07:57Z</time>
      </trkpt>
      <trkpt lat="48.77192" lon="-3.36603">
        <ele>103</ele>
        <time>2013-05-15T15:07:58Z</time>
      </trkpt>
      <trkpt lat="48.77189" lon="-3.36596">
        <ele>103</ele>
        <time>2013-05-15T15:07:59Z</time>
      </trkpt>
      <trkpt lat="48.77187" lon="-3.36587">
        <ele>103.48</ele>
        <time>2013-05-15T15:08:00Z</time>
      </trkpt>
      <trkpt lat="48.77186" lon="-3.36579">
        <ele>103.96</ele>
        <time>2013-05-15T15:08:01Z</time>
      </trkpt>
      <trkpt lat="48.77184" lon="-3.3657">
        <ele>103.96</ele>
        <time>2013-05-15T15:08:02Z</time>
      </trkpt>
      <trkpt lat="48.7718" lon="-3.36562">
        <ele>103.96</ele>
        <time>2013-05-15T15:08:03Z</time>
      </trkpt>
      <trkpt lat="48.77176" lon="-3.36555">
        <ele>103.96</ele>
        <time>2013-05-15T15:08:04Z</time>
      </trkpt>
      <trkpt lat="48.77108" lon="-3.36432">
        <ele>106.84</ele>
        <time>2013-05-15T15:08:21Z</time>
      </trkpt>
      <trkpt lat="48.77019" lon="-3.36277">
        <ele>106.84</ele>
        <time>2013-05-15T15:08:41Z</time>
      </trkpt>
      <trkpt lat="48.76942" lon="-3.36112">
        <ele>106.84</ele>
        <time>2013-05-15T15:09:00Z</time>
      </trkpt>
      <trkpt lat="48.76893" lon="-3.35918">
        <ele>105.88</ele>
        <time>2013-05-15T15:09:18Z</time>
      </trkpt>
      <trkpt lat="48.76849" lon="-3.35728">
        <ele>102.52</ele>
        <time>2013-05-15T15:09:34Z</time>
      </trkpt>
      <trkpt lat="48.76844" lon="-3.35569">
        <ele>101.56</ele>
        <time>2013-05-15T15:09:47Z</time>
      </trkpt>
      <trkpt lat="48.76867" lon="-3.35383">
        <ele>101.08</ele>
        <time>2013-05-15T15:10:04Z</time>
      </trkpt>
      <trkpt lat="48.76892" lon="-3.35198">
        <ele>103</ele>
        <time>2013-05-15T15:10:21Z</time>
      </trkpt>
      <trkpt lat="48.76917" lon="-3.35006">
        <ele>103.96</ele>
        <time>2013-05-15T15:10:38Z</time>
      </trkpt>
      <trkpt lat="48.76948" lon="-3.34777">
        <ele>103.96</ele>
        <time>2013-05-15T15:10:59Z</time>
      </trkpt>
      <trkpt lat="48.76976" lon="-3.34558">
        <ele>104.92</ele>
        <time>2013-05-15T15:11:18Z</time>
      </trkpt>
      <trkpt lat="48.76988" lon="-3.34337">
        <ele>102.52</ele>
        <time>2013-05-15T15:11:37Z</time>
      </trkpt>
      <trkpt lat="48.76989" lon="-3.34169">
        <ele>101.56</ele>
        <time>2013-05-15T15:11:51Z</time>
      </trkpt>
      <trkpt lat="48.76991" lon="-3.33957">
        <ele>98.19</ele>
        <time>2013-05-15T15:12:07Z</time>
      </trkpt>
      <trkpt lat="48.76993" lon="-3.33694">
        <ele>95.79</ele>
        <time>2013-05-15T15:12:25Z</time>
      </trkpt>
      <trkpt lat="48.76995" lon="-3.33425">
        <ele>93.39</ele>
        <time>2013-05-15T15:12:44Z</time>
      </trkpt>
      <trkpt lat="48.7698" lon="-3.33226">
        <ele>92.42</ele>
        <time>2013-05-15T15:12:59Z</time>
      </trkpt>
      <trkpt lat="48.76948" lon="-3.32993">
        <ele>90.98</ele>
        <time>2013-05-15T15:13:17Z</time>
      </trkpt>
      <trkpt lat="48.76921" lon="-3.32802">
        <ele>88.58</ele>
        <time>2013-05-15T15:13:32Z</time>
      </trkpt>
      <trkpt lat="48.769" lon="-3.32658">
        <ele>86.66</ele>
        <time>2013-05-15T15:13:43Z</time>
      </trkpt>
      <trkpt lat="48.76876" lon="-3.32489">
        <ele>82.81</ele>
        <time>2013-05-15T15:13:54Z</time>
      </trkpt>
      <trkpt lat="48.76865" lon="-3.32407">
        <ele>81.37</ele>
        <time>2013-05-15T15:13:59Z</time>
      </trkpt>
      <trkpt lat="48.76852" lon="-3.32262">
        <ele>78.48</ele>
        <time>2013-05-15T15:14:08Z</time>
      </trkpt>
      <trkpt lat="48.76858" lon="-3.32065">
        <ele>75.12</ele>
        <time>2013-05-15T15:14:21Z</time>
      </trkpt>
      <trkpt lat="48.7687" lon="-3.31757">
        <ele>72.24</ele>
        <time>2013-05-15T15:14:42Z</time>
      </trkpt>
      <trkpt lat="48.76862" lon="-3.31534">
        <ele>70.31</ele>
        <time>2013-05-15T15:14:58Z</time>
      </trkpt>
      <trkpt lat="48.76819" lon="-3.31352">
        <ele>69.35</ele>
        <time>2013-05-15T15:15:12Z</time>
      </trkpt>
      <trkpt lat="48.76754" lon="-3.31122">
        <ele>66.95</ele>
        <time>2013-05-15T15:15:30Z</time>
      </trkpt>
      <trkpt lat="48.76686" lon="-3.30883">
        <ele>64.07</ele>
        <time>2013-05-15T15:15:49Z</time>
      </trkpt>
      <trkpt lat="48.76644" lon="-3.30757">
        <ele>60.22</ele>
        <time>2013-05-15T15:15:58Z</time>
      </trkpt>
      <trkpt lat="48.76637" lon="-3.30742">
        <ele>60.22</ele>
        <time>2013-05-15T15:15:59Z</time>
      </trkpt>
      <trkpt lat="48.76603" lon="-3.30668">
        <ele>57.34</ele>
        <time>2013-05-15T15:16:04Z</time>
      </trkpt>
      <trkpt lat="48.76566" lon="-3.30591">
        <ele>53.97</ele>
        <time>2013-05-15T15:16:09Z</time>
      </trkpt>
      <trkpt lat="48.76545" lon="-3.30544">
        <ele>52.53</ele>
        <time>2013-05-15T15:16:12Z</time>
      </trkpt>
      <trkpt lat="48.76489" lon="-3.30418">
        <ele>49.16</ele>
        <time>2013-05-15T15:16:20Z</time>
      </trkpt>
      <trkpt lat="48.76479" lon="-3.30385">
        <ele>48.2</ele>
        <time>2013-05-15T15:16:22Z</time>
      </trkpt>
      <trkpt lat="48.76467" lon="-3.30316">
        <ele>45.32</ele>
        <time>2013-05-15T15:16:26Z</time>
      </trkpt>
      <trkpt lat="48.76465" lon="-3.30298">
        <ele>45.32</ele>
        <time>2013-05-15T15:16:27Z</time>
      </trkpt>
      <trkpt lat="48.76449" lon="-3.30071">
        <ele>42.44</ele>
        <time>2013-05-15T15:16:41Z</time>
      </trkpt>
      <trkpt lat="48.76437" lon="-3.29895">
        <ele>40.99</ele>
        <time>2013-05-15T15:16:53Z</time>
      </trkpt>
      <trkpt lat="48.76411" lon="-3.29792">
        <ele>38.11</ele>
        <time>2013-05-15T15:17:00Z</time>
      </trkpt>
      <trkpt lat="48.76404" lon="-3.29779">
        <ele>37.15</ele>
        <time>2013-05-15T15:17:01Z</time>
      </trkpt>
      <trkpt lat="48.76362" lon="-3.29718">
        <ele>33.78</ele>
        <time>2013-05-15T15:17:06Z</time>
      </trkpt>
      <trkpt lat="48.76341" lon="-3.29701">
        <ele>32.34</ele>
        <time>2013-05-15T15:17:08Z</time>
      </trkpt>
      <trkpt lat="48.76284" lon="-3.29666">
        <ele>29.46</ele>
        <time>2013-05-15T15:17:13Z</time>
      </trkpt>
      <trkpt lat="48.76229" lon="-3.2963">
        <ele>26.57</ele>
        <time>2013-05-15T15:17:18Z</time>
      </trkpt>
      <trkpt lat="48.76143" lon="-3.29531">
        <ele>23.69</ele>
        <time>2013-05-15T15:17:28Z</time>
      </trkpt>
      <trkpt lat="48.76069" lon="-3.29431">
        <ele>25.13</ele>
        <time>2013-05-15T15:17:40Z</time>
      </trkpt>
      <trkpt lat="48.76063" lon="-3.29425">
        <ele>25.61</ele>
        <time>2013-05-15T15:17:41Z</time>
      </trkpt>
      <trkpt lat="48.76058" lon="-3.2942">
        <ele>26.09</ele>
        <time>2013-05-15T15:17:42Z</time>
      </trkpt>
      <trkpt lat="48.76051" lon="-3.29417">
        <ele>26.09</ele>
        <time>2013-05-15T15:17:43Z</time>
      </trkpt>
      <trkpt lat="48.76044" lon="-3.29417">
        <ele>26.57</ele>
        <time>2013-05-15T15:17:44Z</time>
      </trkpt>
      <trkpt lat="48.76037" lon="-3.29418">
        <ele>27.05</ele>
        <time>2013-05-15T15:17:45Z</time>
      </trkpt>
      <trkpt lat="48.7603" lon="-3.29418">
        <ele>26.57</ele>
        <time>2013-05-15T15:17:46Z</time>
      </trkpt>
      <trkpt lat="48.76023" lon="-3.29416">
        <ele>26.57</ele>
        <time>2013-05-15T15:17:47Z</time>
      </trkpt>
      <trkpt lat="48.76017" lon="-3.29412">
        <ele>25.61</ele>
        <time>2013-05-15T15:17:48Z</time>
      </trkpt>
      <trkpt lat="48.7601" lon="-3.29407">
        <ele>25.61</ele>
        <time>2013-05-15T15:17:49Z</time>
      </trkpt>
      <trkpt lat="48.76005" lon="-3.29401">
        <ele>25.61</ele>
        <time>2013-05-15T15:17:50Z</time>
      </trkpt>
      <trkpt lat="48.75999" lon="-3.29394">
        <ele>25.61</ele>
        <time>2013-05-15T15:17:51Z</time>
      </trkpt>
      <trkpt lat="48.75994" lon="-3.29388">
        <ele>25.61</ele>
        <time>2013-05-15T15:17:52Z</time>
      </trkpt>
      <trkpt lat="48.75988" lon="-3.29383">
        <ele>26.09</ele>
        <time>2013-05-15T15:17:53Z</time>
      </trkpt>
      <trkpt lat="48.75972" lon="-3.29373">
        <ele>27.05</ele>
        <time>2013-05-15T15:17:56Z</time>
      </trkpt>
      <trkpt lat="48.75967" lon="-3.29368">
        <ele>27.05</ele>
        <time>2013-05-15T15:17:57Z</time>
      </trkpt>
      <trkpt lat="48.75895" lon="-3.29286">
        <ele>30.42</ele>
        <time>2013-05-15T15:18:13Z</time>
      </trkpt>
      <trkpt lat="48.75806" lon="-3.29225">
        <ele>28.98</ele>
        <time>2013-05-15T15:18:28Z</time>
      </trkpt>
      <trkpt lat="48.75712" lon="-3.29201">
        <ele>30.42</ele>
        <time>2013-05-15T15:18:42Z</time>
      </trkpt>
      <trkpt lat="48.75612" lon="-3.29177">
        <ele>32.34</ele>
        <time>2013-05-15T15:18:58Z</time>
      </trkpt>
      <trkpt lat="48.7549" lon="-3.29127">
        <ele>33.78</ele>
        <time>2013-05-15T15:19:18Z</time>
      </trkpt>
      <trkpt lat="48.7538" lon="-3.29083">
        <ele>33.3</ele>
        <time>2013-05-15T15:19:35Z</time>
      </trkpt>
      <trkpt lat="48.75309" lon="-3.29048">
        <ele>32.34</ele>
        <time>2013-05-15T15:19:45Z</time>
      </trkpt>
      <trkpt lat="48.75303" lon="-3.2904">
        <ele>31.86</ele>
        <time>2013-05-15T15:19:46Z</time>
      </trkpt>
      <trkpt lat="48.75297" lon="-3.29032">
        <ele>31.86</ele>
        <time>2013-05-15T15:19:47Z</time>
      </trkpt>
      <trkpt lat="48.75292" lon="-3.29023">
        <ele>31.86</ele>
        <time>2013-05-15T15:19:48Z</time>
      </trkpt>
      <trkpt lat="48.75288" lon="-3.29013">
        <ele>31.38</ele>
        <time>2013-05-15T15:19:49Z</time>
      </trkpt>
      <trkpt lat="48.75284" lon="-3.29003">
        <ele>31.38</ele>
        <time>2013-05-15T15:19:50Z</time>
      </trkpt>
      <trkpt lat="48.7528" lon="-3.28992">
        <ele>30.9</ele>
        <time>2013-05-15T15:19:51Z</time>
      </trkpt>
      <trkpt lat="48.75277" lon="-3.28981">
        <ele>30.42</ele>
        <time>2013-05-15T15:19:52Z</time>
      </trkpt>
      <trkpt lat="48.75253" lon="-3.28849">
        <ele>27.53</ele>
        <time>2013-05-15T15:20:02Z</time>
      </trkpt>
      <trkpt lat="48.75237" lon="-3.28664">
        <ele>24.17</ele>
        <time>2013-05-15T15:20:14Z</time>
      </trkpt>
      <trkpt lat="48.75223" lon="-3.28514">
        <ele>24.17</ele>
        <time>2013-05-15T15:20:26Z</time>
      </trkpt>
      <trkpt lat="48.75212" lon="-3.28413">
        <ele>24.65</ele>
        <time>2013-05-15T15:20:36Z</time>
      </trkpt>
      <trkpt lat="48.75174" lon="-3.2827">
        <ele>27.05</ele>
        <time>2013-05-15T15:20:52Z</time>
      </trkpt>
      <trkpt lat="48.75164" lon="-3.28237">
        <ele>28.02</ele>
        <time>2013-05-15T15:20:56Z</time>
      </trkpt>
      <trkpt lat="48.7515" lon="-3.28208">
        <ele>28.98</ele>
        <time>2013-05-15T15:21:00Z</time>
      </trkpt>
      <trkpt lat="48.75146" lon="-3.28203">
        <ele>28.98</ele>
        <time>2013-05-15T15:21:01Z</time>
      </trkpt>
      <trkpt lat="48.75142" lon="-3.28198">
        <ele>28.98</ele>
        <time>2013-05-15T15:21:02Z</time>
      </trkpt>
      <trkpt lat="48.75126" lon="-3.28177">
        <ele>30.9</ele>
        <time>2013-05-15T15:21:06Z</time>
      </trkpt>
      <trkpt lat="48.75121" lon="-3.28173">
        <ele>30.9</ele>
        <time>2013-05-15T15:21:07Z</time>
      </trkpt>
      <trkpt lat="48.75093" lon="-3.28148">
        <ele>32.34</ele>
        <time>2013-05-15T15:21:13Z</time>
      </trkpt>
      <trkpt lat="48.75072" lon="-3.28126">
        <ele>33.3</ele>
        <time>2013-05-15T15:21:18Z</time>
      </trkpt>
      <trkpt lat="48.75067" lon="-3.28125">
        <ele>33.3</ele>
        <time>2013-05-15T15:21:19Z</time>
      </trkpt>
      <trkpt lat="48.75062" lon="-3.28127">
        <ele>33.3</ele>
        <time>2013-05-15T15:21:20Z</time>
      </trkpt>
      <trkpt lat="48.75057" lon="-3.2813">
        <ele>33.78</ele>
        <time>2013-05-15T15:21:21Z</time>
      </trkpt>
      <trkpt lat="48.75052" lon="-3.28134">
        <ele>33.78</ele>
        <time>2013-05-15T15:21:22Z</time>
      </trkpt>
      <trkpt lat="48.75012" lon="-3.28184">
        <ele>36.67</ele>
        <time>2013-05-15T15:21:32Z</time>
      </trkpt>
      <trkpt lat="48.7501" lon="-3.2819">
        <ele>36.19</ele>
        <time>2013-05-15T15:21:33Z</time>
      </trkpt>
      <trkpt lat="48.75007" lon="-3.28196">
        <ele>36.67</ele>
        <time>2013-05-15T15:21:34Z</time>
      </trkpt>
      <trkpt lat="48.75001" lon="-3.28207">
        <ele>36.19</ele>
        <time>2013-05-15T15:21:36Z</time>
      </trkpt>
      <trkpt lat="48.74998" lon="-3.28213">
        <ele>36.19</ele>
        <time>2013-05-15T15:21:37Z</time>
      </trkpt>
      <trkpt lat="48.74993" lon="-3.28226">
        <ele>37.15</ele>
        <time>2013-05-15T15:21:39Z</time>
      </trkpt>
      <trkpt lat="48.74951" lon="-3.28356">
        <ele>37.15</ele>
        <time>2013-05-15T15:21:56Z</time>
      </trkpt>
      <trkpt lat="48.74912" lon="-3.2849">
        <ele>38.59</ele>
        <time>2013-05-15T15:22:13Z</time>
      </trkpt>
      <trkpt lat="48.74895" lon="-3.2858">
        <ele>38.59</ele>
        <time>2013-05-15T15:22:24Z</time>
      </trkpt>
      <trkpt lat="48.74863" lon="-3.28749">
        <ele>36.19</ele>
        <time>2013-05-15T15:22:42Z</time>
      </trkpt>
      <trkpt lat="48.74851" lon="-3.28792">
        <ele>35.23</ele>
        <time>2013-05-15T15:22:46Z</time>
      </trkpt>
      <trkpt lat="48.74839" lon="-3.28867">
        <ele>32.34</ele>
        <time>2013-05-15T15:22:52Z</time>
      </trkpt>
      <trkpt lat="48.74839" lon="-3.2888">
        <ele>32.34</ele>
        <time>2013-05-15T15:22:53Z</time>
      </trkpt>
      <trkpt lat="48.74839" lon="-3.28893">
        <ele>32.34</ele>
        <time>2013-05-15T15:22:54Z</time>
      </trkpt>
      <trkpt lat="48.74841" lon="-3.28905">
        <ele>31.86</ele>
        <time>2013-05-15T15:22:55Z</time>
      </trkpt>
      <trkpt lat="48.74843" lon="-3.28917">
        <ele>31.86</ele>
        <time>2013-05-15T15:22:56Z</time>
      </trkpt>
      <trkpt lat="48.74845" lon="-3.28927">
        <ele>31.86</ele>
        <time>2013-05-15T15:22:57Z</time>
      </trkpt>
      <trkpt lat="48.74874" lon="-3.29043">
        <ele>33.78</ele>
        <time>2013-05-15T15:23:11Z</time>
      </trkpt>
      <trkpt lat="48.74876" lon="-3.29065">
        <ele>34.26</ele>
        <time>2013-05-15T15:23:14Z</time>
      </trkpt>
      <trkpt lat="48.74876" lon="-3.29072">
        <ele>34.74</ele>
        <time>2013-05-15T15:23:15Z</time>
      </trkpt>
      <trkpt lat="48.74876" lon="-3.29079">
        <ele>34.74</ele>
        <time>2013-05-15T15:23:16Z</time>
      </trkpt>
      <trkpt lat="48.74877" lon="-3.29085">
        <ele>35.23</ele>
        <time>2013-05-15T15:23:17Z</time>
      </trkpt>
      <trkpt lat="48.74879" lon="-3.29091">
        <ele>35.23</ele>
        <time>2013-05-15T15:23:18Z</time>
      </trkpt>
      <trkpt lat="48.7488" lon="-3.29098">
        <ele>35.23</ele>
        <time>2013-05-15T15:23:19Z</time>
      </trkpt>
      <trkpt lat="48.74882" lon="-3.29104">
        <ele>35.23</ele>
        <time>2013-05-15T15:23:20Z</time>
      </trkpt>
      <trkpt lat="48.74884" lon="-3.29111">
        <ele>36.19</ele>
        <time>2013-05-15T15:23:21Z</time>
      </trkpt>
      <trkpt lat="48.74885" lon="-3.29118">
        <ele>36.67</ele>
        <time>2013-05-15T15:23:22Z</time>
      </trkpt>
      <trkpt lat="48.74886" lon="-3.29125">
        <ele>36.19</ele>
        <time>2013-05-15T15:23:23Z</time>
      </trkpt>
      <trkpt lat="48.74887" lon="-3.29131">
        <ele>36.19</ele>
        <time>2013-05-15T15:23:24Z</time>
      </trkpt>
      <trkpt lat="48.74887" lon="-3.29139">
        <ele>36.67</ele>
        <time>2013-05-15T15:23:25Z</time>
      </trkpt>
      <trkpt lat="48.74888" lon="-3.29146">
        <ele>36.67</ele>
        <time>2013-05-15T15:23:26Z</time>
      </trkpt>
      <trkpt lat="48.74888" lon="-3.29152">
        <ele>37.15</ele>
        <time>2013-05-15T15:23:27Z</time>
      </trkpt>
      <trkpt lat="48.74887" lon="-3.29212">
        <ele>37.63</ele>
        <time>2013-05-15T15:23:36Z</time>
      </trkpt>
      <trkpt lat="48.74861" lon="-3.29325">
        <ele>40.51</ele>
        <time>2013-05-15T15:23:52Z</time>
      </trkpt>
      <trkpt lat="48.74845" lon="-3.29396">
        <ele>41.47</ele>
        <time>2013-05-15T15:24:02Z</time>
      </trkpt>
      <trkpt lat="48.74841" lon="-3.29515">
        <ele>43.88</ele>
        <time>2013-05-15T15:24:18Z</time>
      </trkpt>
      <trkpt lat="48.74839" lon="-3.2953">
        <ele>44.36</ele>
        <time>2013-05-15T15:24:20Z</time>
      </trkpt>
      <trkpt lat="48.74826" lon="-3.29599">
        <ele>44.84</ele>
        <time>2013-05-15T15:24:30Z</time>
      </trkpt>
      <trkpt lat="48.74807" lon="-3.29714">
        <ele>47.24</ele>
        <time>2013-05-15T15:24:46Z</time>
      </trkpt>
      <trkpt lat="48.74803" lon="-3.29744">
        <ele>47.24</ele>
        <time>2013-05-15T15:24:50Z</time>
      </trkpt>
      <trkpt lat="48.74802" lon="-3.29765">
        <ele>47.72</ele>
        <time>2013-05-15T15:24:53Z</time>
      </trkpt>
      <trkpt lat="48.74814" lon="-3.29894">
        <ele>48.2</ele>
        <time>2013-05-15T15:25:10Z</time>
      </trkpt>
      <trkpt lat="48.74829" lon="-3.29949">
        <ele>46.28</ele>
        <time>2013-05-15T15:25:17Z</time>
      </trkpt>
      <trkpt lat="48.74839" lon="-3.29998">
        <ele>45.8</ele>
        <time>2013-05-15T15:25:23Z</time>
      </trkpt>
      <trkpt lat="48.74842" lon="-3.30093">
        <ele>44.36</ele>
        <time>2013-05-15T15:25:34Z</time>
      </trkpt>
      <trkpt lat="48.74825" lon="-3.30238">
        <ele>42.44</ele>
        <time>2013-05-15T15:25:48Z</time>
      </trkpt>
      <trkpt lat="48.74825" lon="-3.30392">
        <ele>39.07</ele>
        <time>2013-05-15T15:26:01Z</time>
      </trkpt>
      <trkpt lat="48.7483" lon="-3.30499">
        <ele>35.71</ele>
        <time>2013-05-15T15:26:09Z</time>
      </trkpt>
      <trkpt lat="48.74831" lon="-3.30525">
        <ele>34.26</ele>
        <time>2013-05-15T15:26:11Z</time>
      </trkpt>
      <trkpt lat="48.74832" lon="-3.30652">
        <ele>31.38</ele>
        <time>2013-05-15T15:26:21Z</time>
      </trkpt>
      <trkpt lat="48.74836" lon="-3.30697">
        <ele>30.42</ele>
        <time>2013-05-15T15:26:25Z</time>
      </trkpt>
      <trkpt lat="48.74835" lon="-3.3071">
        <ele>29.94</ele>
        <time>2013-05-15T15:26:26Z</time>
      </trkpt>
      <trkpt lat="48.74833" lon="-3.30723">
        <ele>30.42</ele>
        <time>2013-05-15T15:26:27Z</time>
      </trkpt>
      <trkpt lat="48.74832" lon="-3.30735">
        <ele>29.94</ele>
        <time>2013-05-15T15:26:28Z</time>
      </trkpt>
      <trkpt lat="48.7483" lon="-3.30747">
        <ele>29.94</ele>
        <time>2013-05-15T15:26:29Z</time>
      </trkpt>
      <trkpt lat="48.74824" lon="-3.30781">
        <ele>29.46</ele>
        <time>2013-05-15T15:26:32Z</time>
      </trkpt>
      <trkpt lat="48.74803" lon="-3.30936">
        <ele>29.46</ele>
        <time>2013-05-15T15:26:46Z</time>
      </trkpt>
      <trkpt lat="48.74813" lon="-3.31045">
        <ele>32.82</ele>
        <time>2013-05-15T15:26:59Z</time>
      </trkpt>
      <trkpt lat="48.74827" lon="-3.31155">
        <ele>35.71</ele>
        <time>2013-05-15T15:27:16Z</time>
      </trkpt>
      <trkpt lat="48.74839" lon="-3.31229">
        <ele>38.11</ele>
        <time>2013-05-15T15:27:29Z</time>
      </trkpt>
      <trkpt lat="48.7484" lon="-3.31235">
        <ele>38.59</ele>
        <time>2013-05-15T15:27:30Z</time>
      </trkpt>
      <trkpt lat="48.74837" lon="-3.3132">
        <ele>40.51</ele>
        <time>2013-05-15T15:27:43Z</time>
      </trkpt>
      <trkpt lat="48.74829" lon="-3.31409">
        <ele>42.92</ele>
        <time>2013-05-15T15:27:58Z</time>
      </trkpt>
      <trkpt lat="48.74812" lon="-3.31541">
        <ele>42.92</ele>
        <time>2013-05-15T15:28:15Z</time>
      </trkpt>
      <trkpt lat="48.74791" lon="-3.31706">
        <ele>41.95</ele>
        <time>2013-05-15T15:28:34Z</time>
      </trkpt>
      <trkpt lat="48.74782" lon="-3.3176">
        <ele>41.47</ele>
        <time>2013-05-15T15:28:40Z</time>
      </trkpt>
      <trkpt lat="48.74781" lon="-3.31769">
        <ele>41.47</ele>
        <time>2013-05-15T15:28:41Z</time>
      </trkpt>
      <trkpt lat="48.74751" lon="-3.319">
        <ele>40.51</ele>
        <time>2013-05-15T15:28:56Z</time>
      </trkpt>
      <trkpt lat="48.74731" lon="-3.32026">
        <ele>42.92</ele>
        <time>2013-05-15T15:29:11Z</time>
      </trkpt>
      <trkpt lat="48.74715" lon="-3.32194">
        <ele>44.84</ele>
        <time>2013-05-15T15:29:32Z</time>
      </trkpt>
      <trkpt lat="48.74687" lon="-3.32335">
        <ele>46.28</ele>
        <time>2013-05-15T15:29:50Z</time>
      </trkpt>
      <trkpt lat="48.74672" lon="-3.32402">
        <ele>46.76</ele>
        <time>2013-05-15T15:29:59Z</time>
      </trkpt>
      <trkpt lat="48.74662" lon="-3.32462">
        <ele>48.2</ele>
        <time>2013-05-15T15:30:07Z</time>
      </trkpt>
      <trkpt lat="48.74631" lon="-3.32595">
        <ele>49.16</ele>
        <time>2013-05-15T15:30:24Z</time>
      </trkpt>
      <trkpt lat="48.74629" lon="-3.32745">
        <ele>48.2</ele>
        <time>2013-05-15T15:30:42Z</time>
      </trkpt>
      <trkpt lat="48.74645" lon="-3.32923">
        <ele>46.28</ele>
        <time>2013-05-15T15:31:01Z</time>
      </trkpt>
      <trkpt lat="48.7465" lon="-3.33073">
        <ele>43.4</ele>
        <time>2013-05-15T15:31:16Z</time>
      </trkpt>
      <trkpt lat="48.74666" lon="-3.33231">
        <ele>41.95</ele>
        <time>2013-05-15T15:31:32Z</time>
      </trkpt>
      <trkpt lat="48.7469" lon="-3.334">
        <ele>40.51</ele>
        <time>2013-05-15T15:31:50Z</time>
      </trkpt>
      <trkpt lat="48.74709" lon="-3.33543">
        <ele>37.63</ele>
        <time>2013-05-15T15:32:04Z</time>
      </trkpt>
      <trkpt lat="48.74709" lon="-3.33618">
        <ele>34.26</ele>
        <time>2013-05-15T15:32:10Z</time>
      </trkpt>
      <trkpt lat="48.74708" lon="-3.33632">
        <ele>34.26</ele>
        <time>2013-05-15T15:32:11Z</time>
      </trkpt>
      <trkpt lat="48.74719" lon="-3.33775">
        <ele>32.34</ele>
        <time>2013-05-15T15:32:23Z</time>
      </trkpt>
      <trkpt lat="48.74721" lon="-3.33801">
        <ele>31.86</ele>
        <time>2013-05-15T15:32:26Z</time>
      </trkpt>
      <trkpt lat="48.7472" lon="-3.3381">
        <ele>31.86</ele>
        <time>2013-05-15T15:32:27Z</time>
      </trkpt>
      <trkpt lat="48.74711" lon="-3.33858">
        <ele>33.3</ele>
        <time>2013-05-15T15:32:33Z</time>
      </trkpt>
      <trkpt lat="48.74709" lon="-3.33864">
        <ele>33.78</ele>
        <time>2013-05-15T15:32:34Z</time>
      </trkpt>
      <trkpt lat="48.74702" lon="-3.33883">
        <ele>34.26</ele>
        <time>2013-05-15T15:32:37Z</time>
      </trkpt>
      <trkpt lat="48.74698" lon="-3.33896">
        <ele>34.26</ele>
        <time>2013-05-15T15:32:39Z</time>
      </trkpt>
      <trkpt lat="48.74694" lon="-3.33909">
        <ele>34.74</ele>
        <time>2013-05-15T15:32:41Z</time>
      </trkpt>
      <trkpt lat="48.74692" lon="-3.33915">
        <ele>35.23</ele>
        <time>2013-05-15T15:32:42Z</time>
      </trkpt>
      <trkpt lat="48.74684" lon="-3.33934">
        <ele>35.71</ele>
        <time>2013-05-15T15:32:45Z</time>
      </trkpt>
      <trkpt lat="48.74679" lon="-3.33946">
        <ele>36.19</ele>
        <time>2013-05-15T15:32:47Z</time>
      </trkpt>
      <trkpt lat="48.74655" lon="-3.34011">
        <ele>38.11</ele>
        <time>2013-05-15T15:32:58Z</time>
      </trkpt>
      <trkpt lat="48.74655" lon="-3.34019">
        <ele>38.59</ele>
        <time>2013-05-15T15:32:59Z</time>
      </trkpt>
      <trkpt lat="48.74636" lon="-3.34116">
        <ele>40.03</ele>
        <time>2013-05-15T15:33:12Z</time>
      </trkpt>
      <trkpt lat="48.7463" lon="-3.34128">
        <ele>40.51</ele>
        <time>2013-05-15T15:33:14Z</time>
      </trkpt>
      <trkpt lat="48.74588" lon="-3.3418">
        <ele>42.92</ele>
        <time>2013-05-15T15:33:26Z</time>
      </trkpt>
      <trkpt lat="48.74541" lon="-3.34264">
        <ele>43.88</ele>
        <time>2013-05-15T15:33:41Z</time>
      </trkpt>
      <trkpt lat="48.7449" lon="-3.34374">
        <ele>46.28</ele>
        <time>2013-05-15T15:34:00Z</time>
      </trkpt>
      <trkpt lat="48.74487" lon="-3.34378">
        <ele>46.28</ele>
        <time>2013-05-15T15:34:01Z</time>
      </trkpt>
      <trkpt lat="48.74475" lon="-3.34401">
        <ele>46.76</ele>
        <time>2013-05-15T15:34:05Z</time>
      </trkpt>
      <trkpt lat="48.7444" lon="-3.34501">
        <ele>49.16</ele>
        <time>2013-05-15T15:34:21Z</time>
      </trkpt>
      <trkpt lat="48.74382" lon="-3.34606">
        <ele>49.65</ele>
        <time>2013-05-15T15:34:38Z</time>
      </trkpt>
      <trkpt lat="48.74336" lon="-3.34687">
        <ele>48.68</ele>
        <time>2013-05-15T15:34:50Z</time>
      </trkpt>
      <trkpt lat="48.74331" lon="-3.34694">
        <ele>48.68</ele>
        <time>2013-05-15T15:34:51Z</time>
      </trkpt>
      <trkpt lat="48.74326" lon="-3.34699">
        <ele>48.2</ele>
        <time>2013-05-15T15:34:52Z</time>
      </trkpt>
      <trkpt lat="48.74321" lon="-3.34704">
        <ele>48.2</ele>
        <time>2013-05-15T15:34:53Z</time>
      </trkpt>
      <trkpt lat="48.74316" lon="-3.34709">
        <ele>48.2</ele>
        <time>2013-05-15T15:34:54Z</time>
      </trkpt>
      <trkpt lat="48.74236" lon="-3.34785">
        <ele>45.32</ele>
        <time>2013-05-15T15:35:08Z</time>
      </trkpt>
      <trkpt lat="48.74175" lon="-3.349">
        <ele>43.88</ele>
        <time>2013-05-15T15:35:22Z</time>
      </trkpt>
      <trkpt lat="48.7413" lon="-3.35007">
        <ele>44.84</ele>
        <time>2013-05-15T15:35:35Z</time>
      </trkpt>
      <trkpt lat="48.74125" lon="-3.35021">
        <ele>44.36</ele>
        <time>2013-05-15T15:35:37Z</time>
      </trkpt>
      <trkpt lat="48.74086" lon="-3.3513">
        <ele>44.84</ele>
        <time>2013-05-15T15:35:52Z</time>
      </trkpt>
      <trkpt lat="48.74035" lon="-3.35265">
        <ele>45.32</ele>
        <time>2013-05-15T15:36:10Z</time>
      </trkpt>
      <trkpt lat="48.73989" lon="-3.35417">
        <ele>45.8</ele>
        <time>2013-05-15T15:36:29Z</time>
      </trkpt>
      <trkpt lat="48.73948" lon="-3.35568">
        <ele>45.8</ele>
        <time>2013-05-15T15:36:47Z</time>
      </trkpt>
      <trkpt lat="48.73912" lon="-3.35715">
        <ele>46.28</ele>
        <time>2013-05-15T15:37:04Z</time>
      </trkpt>
      <trkpt lat="48.73872" lon="-3.35835">
        <ele>45.8</ele>
        <time>2013-05-15T15:37:19Z</time>
      </trkpt>
      <trkpt lat="48.73829" lon="-3.35961">
        <ele>46.76</ele>
        <time>2013-05-15T15:37:35Z</time>
      </trkpt>
      <trkpt lat="48.7379" lon="-3.36084">
        <ele>47.72</ele>
        <time>2013-05-15T15:37:51Z</time>
      </trkpt>
      <trkpt lat="48.73747" lon="-3.36205">
        <ele>48.68</ele>
        <time>2013-05-15T15:38:07Z</time>
      </trkpt>
      <trkpt lat="48.73725" lon="-3.36352">
        <ele>49.65</ele>
        <time>2013-05-15T15:38:25Z</time>
      </trkpt>
      <trkpt lat="48.73734" lon="-3.36474">
        <ele>51.57</ele>
        <time>2013-05-15T15:38:40Z</time>
      </trkpt>
      <trkpt lat="48.73714" lon="-3.36592">
        <ele>52.53</ele>
        <time>2013-05-15T15:38:55Z</time>
      </trkpt>
      <trkpt lat="48.73705" lon="-3.36709">
        <ele>52.53</ele>
        <time>2013-05-15T15:39:09Z</time>
      </trkpt>
      <trkpt lat="48.73702" lon="-3.36787">
        <ele>52.53</ele>
        <time>2013-05-15T15:39:18Z</time>
      </trkpt>
      <trkpt lat="48.73677" lon="-3.36897">
        <ele>53.97</ele>
        <time>2013-05-15T15:39:33Z</time>
      </trkpt>
      <trkpt lat="48.73657" lon="-3.36978">
        <ele>55.41</ele>
        <time>2013-05-15T15:39:44Z</time>
      </trkpt>
      <trkpt lat="48.73632" lon="-3.37083">
        <ele>58.3</ele>
        <time>2013-05-15T15:39:59Z</time>
      </trkpt>
      <trkpt lat="48.73605" lon="-3.37203">
        <ele>61.18</ele>
        <time>2013-05-15T15:40:14Z</time>
      </trkpt>
      <trkpt lat="48.73593" lon="-3.37309">
        <ele>64.55</ele>
        <time>2013-05-15T15:40:26Z</time>
      </trkpt>
      <trkpt lat="48.73588" lon="-3.37393">
        <ele>67.43</ele>
        <time>2013-05-15T15:40:37Z</time>
      </trkpt>
      <trkpt lat="48.73586" lon="-3.37435">
        <ele>68.87</ele>
        <time>2013-05-15T15:40:42Z</time>
      </trkpt>
      <trkpt lat="48.73585" lon="-3.37443">
        <ele>68.87</ele>
        <time>2013-05-15T15:40:43Z</time>
      </trkpt>
      <trkpt lat="48.73583" lon="-3.37459">
        <ele>69.35</ele>
        <time>2013-05-15T15:40:45Z</time>
      </trkpt>
      <trkpt lat="48.7358" lon="-3.37466">
        <ele>69.35</ele>
        <time>2013-05-15T15:40:46Z</time>
      </trkpt>
      <trkpt lat="48.73577" lon="-3.37472">
        <ele>69.83</ele>
        <time>2013-05-15T15:40:47Z</time>
      </trkpt>
      <trkpt lat="48.73574" lon="-3.37478">
        <ele>69.35</ele>
        <time>2013-05-15T15:40:48Z</time>
      </trkpt>
      <trkpt lat="48.7357" lon="-3.37484">
        <ele>69.83</ele>
        <time>2013-05-15T15:40:49Z</time>
      </trkpt>
      <trkpt lat="48.73566" lon="-3.3749">
        <ele>69.83</ele>
        <time>2013-05-15T15:40:50Z</time>
      </trkpt>
      <trkpt lat="48.73521" lon="-3.3754">
        <ele>70.79</ele>
        <time>2013-05-15T15:41:00Z</time>
      </trkpt>
      <trkpt lat="48.73516" lon="-3.37545">
        <ele>71.27</ele>
        <time>2013-05-15T15:41:01Z</time>
      </trkpt>
      <trkpt lat="48.73512" lon="-3.37552">
        <ele>70.79</ele>
        <time>2013-05-15T15:41:02Z</time>
      </trkpt>
      <trkpt lat="48.73508" lon="-3.37559">
        <ele>71.27</ele>
        <time>2013-05-15T15:41:03Z</time>
      </trkpt>
      <trkpt lat="48.73505" lon="-3.37566">
        <ele>71.27</ele>
        <time>2013-05-15T15:41:04Z</time>
      </trkpt>
      <trkpt lat="48.73477" lon="-3.37673">
        <ele>72.24</ele>
        <time>2013-05-15T15:41:17Z</time>
      </trkpt>
      <trkpt lat="48.73435" lon="-3.3779">
        <ele>73.68</ele>
        <time>2013-05-15T15:41:33Z</time>
      </trkpt>
      <trkpt lat="48.73368" lon="-3.37876">
        <ele>73.2</ele>
        <time>2013-05-15T15:41:47Z</time>
      </trkpt>
      <trkpt lat="48.73275" lon="-3.37986">
        <ele>75.6</ele>
        <time>2013-05-15T15:42:05Z</time>
      </trkpt>
      <trkpt lat="48.73202" lon="-3.38096">
        <ele>78.48</ele>
        <time>2013-05-15T15:42:23Z</time>
      </trkpt>
      <trkpt lat="48.73182" lon="-3.38118">
        <ele>78.97</ele>
        <time>2013-05-15T15:42:28Z</time>
      </trkpt>
      <trkpt lat="48.73117" lon="-3.38191">
        <ele>81.85</ele>
        <time>2013-05-15T15:42:44Z</time>
      </trkpt>
      <trkpt lat="48.73065" lon="-3.38288">
        <ele>83.29</ele>
        <time>2013-05-15T15:43:00Z</time>
      </trkpt>
      <trkpt lat="48.7302" lon="-3.38368">
        <ele>84.25</ele>
        <time>2013-05-15T15:43:14Z</time>
      </trkpt>
      <trkpt lat="48.72982" lon="-3.38431">
        <ele>85.21</ele>
        <time>2013-05-15T15:43:25Z</time>
      </trkpt>
      <trkpt lat="48.72978" lon="-3.38435">
        <ele>84.73</ele>
        <time>2013-05-15T15:43:26Z</time>
      </trkpt>
      <trkpt lat="48.72971" lon="-3.38442">
        <ele>84.73</ele>
        <time>2013-05-15T15:43:28Z</time>
      </trkpt>
      <trkpt lat="48.72967" lon="-3.38445">
        <ele>84.73</ele>
        <time>2013-05-15T15:43:29Z</time>
      </trkpt>
      <trkpt lat="48.72945" lon="-3.38461">
        <ele>86.18</ele>
        <time>2013-05-15T15:43:34Z</time>
      </trkpt>
      <trkpt lat="48.72942" lon="-3.38467">
        <ele>85.21</ele>
        <time>2013-05-15T15:43:35Z</time>
      </trkpt>
      <trkpt lat="48.72938" lon="-3.38473">
        <ele>85.69</ele>
        <time>2013-05-15T15:43:36Z</time>
      </trkpt>
      <trkpt lat="48.72915" lon="-3.38535">
        <ele>87.14</ele>
        <time>2013-05-15T15:43:45Z</time>
      </trkpt>
      <trkpt lat="48.72914" lon="-3.38543">
        <ele>87.14</ele>
        <time>2013-05-15T15:43:46Z</time>
      </trkpt>
      <trkpt lat="48.72913" lon="-3.3855">
        <ele>86.66</ele>
        <time>2013-05-15T15:43:47Z</time>
      </trkpt>
      <trkpt lat="48.72914" lon="-3.38558">
        <ele>86.66</ele>
        <time>2013-05-15T15:43:48Z</time>
      </trkpt>
      <trkpt lat="48.72916" lon="-3.38565">
        <ele>87.14</ele>
        <time>2013-05-15T15:43:49Z</time>
      </trkpt>
      <trkpt lat="48.72919" lon="-3.38572">
        <ele>87.14</ele>
        <time>2013-05-15T15:43:50Z</time>
      </trkpt>
      <trkpt lat="48.72921" lon="-3.38579">
        <ele>86.66</ele>
        <time>2013-05-15T15:43:51Z</time>
      </trkpt>
      <trkpt lat="48.72923" lon="-3.38587">
        <ele>86.18</ele>
        <time>2013-05-15T15:43:52Z</time>
      </trkpt>
      <trkpt lat="48.72924" lon="-3.38595">
        <ele>86.18</ele>
        <time>2013-05-15T15:43:53Z</time>
      </trkpt>
      <trkpt lat="48.72924" lon="-3.38604">
        <ele>86.18</ele>
        <time>2013-05-15T15:43:54Z</time>
      </trkpt>
      <trkpt lat="48.72924" lon="-3.38613">
        <ele>86.18</ele>
        <time>2013-05-15T15:43:55Z</time>
      </trkpt>
      <trkpt lat="48.72924" lon="-3.38622">
        <ele>85.69</ele>
        <time>2013-05-15T15:43:56Z</time>
      </trkpt>
      <trkpt lat="48.72928" lon="-3.38679">
        <ele>84.73</ele>
        <time>2013-05-15T15:44:02Z</time>
      </trkpt>
      <trkpt lat="48.72926" lon="-3.38698">
        <ele>84.73</ele>
        <time>2013-05-15T15:44:04Z</time>
      </trkpt>
      <trkpt lat="48.72924" lon="-3.38707">
        <ele>84.73</ele>
        <time>2013-05-15T15:44:05Z</time>
      </trkpt>
      <trkpt lat="48.72922" lon="-3.38716">
        <ele>84.25</ele>
        <time>2013-05-15T15:44:06Z</time>
      </trkpt>
      <trkpt lat="48.72919" lon="-3.38725">
        <ele>84.73</ele>
        <time>2013-05-15T15:44:07Z</time>
      </trkpt>
      <trkpt lat="48.72916" lon="-3.38733">
        <ele>84.25</ele>
        <time>2013-05-15T15:44:08Z</time>
      </trkpt>
      <trkpt lat="48.72913" lon="-3.38742">
        <ele>84.25</ele>
        <time>2013-05-15T15:44:09Z</time>
      </trkpt>
      <trkpt lat="48.72875" lon="-3.38879">
        <ele>85.21</ele>
        <time>2013-05-15T15:44:25Z</time>
      </trkpt>
      <trkpt lat="48.72854" lon="-3.39066">
        <ele>87.62</ele>
        <time>2013-05-15T15:44:46Z</time>
      </trkpt>
      <trkpt lat="48.7284" lon="-3.39199">
        <ele>89.06</ele>
        <time>2013-05-15T15:45:01Z</time>
      </trkpt>
      <trkpt lat="48.7284" lon="-3.39349">
        <ele>89.54</ele>
        <time>2013-05-15T15:45:17Z</time>
      </trkpt>
      <trkpt lat="48.72831" lon="-3.39491">
        <ele>89.54</ele>
        <time>2013-05-15T15:45:32Z</time>
      </trkpt>
      <trkpt lat="48.72835" lon="-3.39644">
        <ele>90.5</ele>
        <time>2013-05-15T15:45:49Z</time>
      </trkpt>
      <trkpt lat="48.72879" lon="-3.39773">
        <ele>90.02</ele>
        <time>2013-05-15T15:46:04Z</time>
      </trkpt>
      <trkpt lat="48.72932" lon="-3.39885">
        <ele>90.02</ele>
        <time>2013-05-15T15:46:18Z</time>
      </trkpt>
      <trkpt lat="48.72974" lon="-3.40027">
        <ele>89.06</ele>
        <time>2013-05-15T15:46:34Z</time>
      </trkpt>
      <trkpt lat="48.72998" lon="-3.4018">
        <ele>86.66</ele>
        <time>2013-05-15T15:46:49Z</time>
      </trkpt>
      <trkpt lat="48.73019" lon="-3.40312">
        <ele>85.21</ele>
        <time>2013-05-15T15:47:02Z</time>
      </trkpt>
      <trkpt lat="48.73026" lon="-3.40357">
        <ele>86.18</ele>
        <time>2013-05-15T15:47:07Z</time>
      </trkpt>
      <trkpt lat="48.73028" lon="-3.40365">
        <ele>85.69</ele>
        <time>2013-05-15T15:47:08Z</time>
      </trkpt>
      <trkpt lat="48.73036" lon="-3.4039">
        <ele>86.18</ele>
        <time>2013-05-15T15:47:11Z</time>
      </trkpt>
      <trkpt lat="48.73056" lon="-3.40494">
        <ele>86.18</ele>
        <time>2013-05-15T15:47:22Z</time>
      </trkpt>
      <trkpt lat="48.73063" lon="-3.40587">
        <ele>86.18</ele>
        <time>2013-05-15T15:47:31Z</time>
      </trkpt>
      <trkpt lat="48.73065" lon="-3.40597">
        <ele>86.18</ele>
        <time>2013-05-15T15:47:32Z</time>
      </trkpt>
      <trkpt lat="48.73069" lon="-3.40607">
        <ele>86.18</ele>
        <time>2013-05-15T15:47:33Z</time>
      </trkpt>
      <trkpt lat="48.73072" lon="-3.40616">
        <ele>85.69</ele>
        <time>2013-05-15T15:47:34Z</time>
      </trkpt>
      <trkpt lat="48.73076" lon="-3.40625">
        <ele>86.66</ele>
        <time>2013-05-15T15:47:35Z</time>
      </trkpt>
      <trkpt lat="48.73102" lon="-3.40675">
        <ele>85.69</ele>
        <time>2013-05-15T15:47:41Z</time>
      </trkpt>
      <trkpt lat="48.73133" lon="-3.4079">
        <ele>82.81</ele>
        <time>2013-05-15T15:47:53Z</time>
      </trkpt>
      <trkpt lat="48.73175" lon="-3.40969">
        <ele>82.33</ele>
        <time>2013-05-15T15:48:12Z</time>
      </trkpt>
      <trkpt lat="48.73194" lon="-3.41067">
        <ele>82.81</ele>
        <time>2013-05-15T15:48:23Z</time>
      </trkpt>
      <trkpt lat="48.73196" lon="-3.41076">
        <ele>82.33</ele>
        <time>2013-05-15T15:48:24Z</time>
      </trkpt>
      <trkpt lat="48.73213" lon="-3.41268">
        <ele>80.41</ele>
        <time>2013-05-15T15:48:43Z</time>
      </trkpt>
      <trkpt lat="48.73218" lon="-3.41378">
        <ele>80.41</ele>
        <time>2013-05-15T15:48:54Z</time>
      </trkpt>
      <trkpt lat="48.73218" lon="-3.41388">
        <ele>80.89</ele>
        <time>2013-05-15T15:48:55Z</time>
      </trkpt>
      <trkpt lat="48.73218" lon="-3.41398">
        <ele>81.37</ele>
        <time>2013-05-15T15:48:56Z</time>
      </trkpt>
      <trkpt lat="48.73217" lon="-3.41418">
        <ele>82.33</ele>
        <time>2013-05-15T15:48:58Z</time>
      </trkpt>
      <trkpt lat="48.73213" lon="-3.41525">
        <ele>79.45</ele>
        <time>2013-05-15T15:49:09Z</time>
      </trkpt>
      <trkpt lat="48.7322" lon="-3.41672">
        <ele>76.08</ele>
        <time>2013-05-15T15:49:21Z</time>
      </trkpt>
      <trkpt lat="48.73237" lon="-3.4176">
        <ele>74.64</ele>
        <time>2013-05-15T15:49:29Z</time>
      </trkpt>
      <trkpt lat="48.73274" lon="-3.4189">
        <ele>72.24</ele>
        <time>2013-05-15T15:49:42Z</time>
      </trkpt>
      <trkpt lat="48.73316" lon="-3.41953">
        <ele>69.35</ele>
        <time>2013-05-15T15:49:49Z</time>
      </trkpt>
      <trkpt lat="48.73352" lon="-3.41997">
        <ele>66.47</ele>
        <time>2013-05-15T15:49:54Z</time>
      </trkpt>
      <trkpt lat="48.73357" lon="-3.42007">
        <ele>66.47</ele>
        <time>2013-05-15T15:49:55Z</time>
      </trkpt>
      <trkpt lat="48.73362" lon="-3.42018">
        <ele>65.99</ele>
        <time>2013-05-15T15:49:56Z</time>
      </trkpt>
      <trkpt lat="48.73365" lon="-3.4203">
        <ele>65.99</ele>
        <time>2013-05-15T15:49:57Z</time>
      </trkpt>
      <trkpt lat="48.73367" lon="-3.42041">
        <ele>65.99</ele>
        <time>2013-05-15T15:49:58Z</time>
      </trkpt>
      <trkpt lat="48.73367" lon="-3.42052">
        <ele>65.51</ele>
        <time>2013-05-15T15:49:59Z</time>
      </trkpt>
      <trkpt lat="48.73367" lon="-3.42063">
        <ele>65.99</ele>
        <time>2013-05-15T15:50:00Z</time>
      </trkpt>
      <trkpt lat="48.73366" lon="-3.42075">
        <ele>65.99</ele>
        <time>2013-05-15T15:50:01Z</time>
      </trkpt>
      <trkpt lat="48.73365" lon="-3.42085">
        <ele>66.47</ele>
        <time>2013-05-15T15:50:02Z</time>
      </trkpt>
      <trkpt lat="48.73341" lon="-3.42207">
        <ele>68.39</ele>
        <time>2013-05-15T15:50:15Z</time>
      </trkpt>
      <trkpt lat="48.73341" lon="-3.42217">
        <ele>68.39</ele>
        <time>2013-05-15T15:50:16Z</time>
      </trkpt>
      <trkpt lat="48.73341" lon="-3.42226">
        <ele>68.87</ele>
        <time>2013-05-15T15:50:17Z</time>
      </trkpt>
      <trkpt lat="48.73341" lon="-3.42245">
        <ele>69.83</ele>
        <time>2013-05-15T15:50:19Z</time>
      </trkpt>
      <trkpt lat="48.73344" lon="-3.42373">
        <ele>70.31</ele>
        <time>2013-05-15T15:50:34Z</time>
      </trkpt>
      <trkpt lat="48.73342" lon="-3.42486">
        <ele>68.87</ele>
        <time>2013-05-15T15:50:47Z</time>
      </trkpt>
      <trkpt lat="48.73358" lon="-3.4266">
        <ele>67.43</ele>
        <time>2013-05-15T15:51:04Z</time>
      </trkpt>
      <trkpt lat="48.73369" lon="-3.42816">
        <ele>69.83</ele>
        <time>2013-05-15T15:51:21Z</time>
      </trkpt>
      <trkpt lat="48.73371" lon="-3.42832">
        <ele>69.83</ele>
        <time>2013-05-15T15:51:23Z</time>
      </trkpt>
      <trkpt lat="48.73373" lon="-3.42848">
        <ele>69.83</ele>
        <time>2013-05-15T15:51:25Z</time>
      </trkpt>
      <trkpt lat="48.73374" lon="-3.42856">
        <ele>69.83</ele>
        <time>2013-05-15T15:51:26Z</time>
      </trkpt>
      <trkpt lat="48.73396" lon="-3.42987">
        <ele>70.31</ele>
        <time>2013-05-15T15:51:42Z</time>
      </trkpt>
      <trkpt lat="48.73392" lon="-3.43099">
        <ele>68.87</ele>
        <time>2013-05-15T15:51:55Z</time>
      </trkpt>
      <trkpt lat="48.73391" lon="-3.43229">
        <ele>65.51</ele>
        <time>2013-05-15T15:52:08Z</time>
      </trkpt>
      <trkpt lat="48.73391" lon="-3.43241">
        <ele>65.03</ele>
        <time>2013-05-15T15:52:09Z</time>
      </trkpt>
      <trkpt lat="48.73393" lon="-3.43265">
        <ele>65.03</ele>
        <time>2013-05-15T15:52:11Z</time>
      </trkpt>
      <trkpt lat="48.73395" lon="-3.43289">
        <ele>63.58</ele>
        <time>2013-05-15T15:52:13Z</time>
      </trkpt>
      <trkpt lat="48.73396" lon="-3.43302">
        <ele>63.58</ele>
        <time>2013-05-15T15:52:14Z</time>
      </trkpt>
      <trkpt lat="48.73397" lon="-3.43315">
        <ele>63.1</ele>
        <time>2013-05-15T15:52:15Z</time>
      </trkpt>
      <trkpt lat="48.73398" lon="-3.43328">
        <ele>63.1</ele>
        <time>2013-05-15T15:52:16Z</time>
      </trkpt>
      <trkpt lat="48.734" lon="-3.43341">
        <ele>62.62</ele>
        <time>2013-05-15T15:52:17Z</time>
      </trkpt>
      <trkpt lat="48.73407" lon="-3.43401">
        <ele>61.18</ele>
        <time>2013-05-15T15:52:22Z</time>
      </trkpt>
      <trkpt lat="48.73408" lon="-3.43413">
        <ele>60.7</ele>
        <time>2013-05-15T15:52:23Z</time>
      </trkpt>
      <trkpt lat="48.73409" lon="-3.43425">
        <ele>60.7</ele>
        <time>2013-05-15T15:52:24Z</time>
      </trkpt>
      <trkpt lat="48.73426" lon="-3.43531">
        <ele>58.3</ele>
        <time>2013-05-15T15:52:33Z</time>
      </trkpt>
      <trkpt lat="48.73429" lon="-3.43542">
        <ele>58.78</ele>
        <time>2013-05-15T15:52:34Z</time>
      </trkpt>
      <trkpt lat="48.73433" lon="-3.43553">
        <ele>57.82</ele>
        <time>2013-05-15T15:52:35Z</time>
      </trkpt>
      <trkpt lat="48.73437" lon="-3.43564">
        <ele>57.82</ele>
        <time>2013-05-15T15:52:36Z</time>
      </trkpt>
      <trkpt lat="48.73441" lon="-3.43574">
        <ele>57.82</ele>
        <time>2013-05-15T15:52:37Z</time>
      </trkpt>
      <trkpt lat="48.73452" lon="-3.43591">
        <ele>57.34</ele>
        <time>2013-05-15T15:52:39Z</time>
      </trkpt>
      <trkpt lat="48.73457" lon="-3.43598">
        <ele>57.34</ele>
        <time>2013-05-15T15:52:40Z</time>
      </trkpt>
      <trkpt lat="48.73463" lon="-3.43605">
        <ele>57.34</ele>
        <time>2013-05-15T15:52:41Z</time>
      </trkpt>
      <trkpt lat="48.73469" lon="-3.4361">
        <ele>56.86</ele>
        <time>2013-05-15T15:52:42Z</time>
      </trkpt>
      <trkpt lat="48.73476" lon="-3.43614">
        <ele>56.37</ele>
        <time>2013-05-15T15:52:43Z</time>
      </trkpt>
      <trkpt lat="48.73482" lon="-3.43615">
        <ele>55.89</ele>
        <time>2013-05-15T15:52:44Z</time>
      </trkpt>
      <trkpt lat="48.73489" lon="-3.43616">
        <ele>55.41</ele>
        <time>2013-05-15T15:52:45Z</time>
      </trkpt>
      <trkpt lat="48.73496" lon="-3.43619">
        <ele>55.89</ele>
        <time>2013-05-15T15:52:46Z</time>
      </trkpt>
      <trkpt lat="48.73501" lon="-3.43625">
        <ele>56.86</ele>
        <time>2013-05-15T15:52:47Z</time>
      </trkpt>
      <trkpt lat="48.73506" lon="-3.43632">
        <ele>55.41</ele>
        <time>2013-05-15T15:52:48Z</time>
      </trkpt>
      <trkpt lat="48.7351" lon="-3.43639">
        <ele>54.45</ele>
        <time>2013-05-15T15:52:49Z</time>
      </trkpt>
      <trkpt lat="48.73516" lon="-3.43644">
        <ele>54.45</ele>
        <time>2013-05-15T15:52:50Z</time>
      </trkpt>
      <trkpt lat="48.73522" lon="-3.43649">
        <ele>54.45</ele>
        <time>2013-05-15T15:52:51Z</time>
      </trkpt>
      <trkpt lat="48.73534" lon="-3.4366">
        <ele>53.97</ele>
        <time>2013-05-15T15:52:53Z</time>
      </trkpt>
      <trkpt lat="48.73539" lon="-3.43668">
        <ele>53.97</ele>
        <time>2013-05-15T15:52:54Z</time>
      </trkpt>
      <trkpt lat="48.73542" lon="-3.43677">
        <ele>53.97</ele>
        <time>2013-05-15T15:52:55Z</time>
      </trkpt>
      <trkpt lat="48.73544" lon="-3.43688">
        <ele>53.97</ele>
        <time>2013-05-15T15:52:56Z</time>
      </trkpt>
      <trkpt lat="48.73543" lon="-3.43698">
        <ele>53.01</ele>
        <time>2013-05-15T15:52:57Z</time>
      </trkpt>
      <trkpt lat="48.73542" lon="-3.43708">
        <ele>53.01</ele>
        <time>2013-05-15T15:52:58Z</time>
      </trkpt>
      <trkpt lat="48.73539" lon="-3.43716">
        <ele>53.01</ele>
        <time>2013-05-15T15:52:59Z</time>
      </trkpt>
      <trkpt lat="48.73534" lon="-3.43723">
        <ele>52.53</ele>
        <time>2013-05-15T15:53:00Z</time>
      </trkpt>
      <trkpt lat="48.73529" lon="-3.43728">
        <ele>53.01</ele>
        <time>2013-05-15T15:53:01Z</time>
      </trkpt>
      <trkpt lat="48.73523" lon="-3.43732">
        <ele>52.53</ele>
        <time>2013-05-15T15:53:02Z</time>
      </trkpt>
      <trkpt lat="48.73518" lon="-3.43736">
        <ele>52.53</ele>
        <time>2013-05-15T15:53:03Z</time>
      </trkpt>
      <trkpt lat="48.73512" lon="-3.43741">
        <ele>53.01</ele>
        <time>2013-05-15T15:53:04Z</time>
      </trkpt>
      <trkpt lat="48.73507" lon="-3.43746">
        <ele>53.01</ele>
        <time>2013-05-15T15:53:05Z</time>
      </trkpt>
      <trkpt lat="48.73502" lon="-3.43752">
        <ele>53.49</ele>
        <time>2013-05-15T15:53:06Z</time>
      </trkpt>
      <trkpt lat="48.73497" lon="-3.43758">
        <ele>53.01</ele>
        <time>2013-05-15T15:53:07Z</time>
      </trkpt>
      <trkpt lat="48.73493" lon="-3.43766">
        <ele>53.49</ele>
        <time>2013-05-15T15:53:08Z</time>
      </trkpt>
      <trkpt lat="48.73489" lon="-3.43774">
        <ele>53.49</ele>
        <time>2013-05-15T15:53:09Z</time>
      </trkpt>
      <trkpt lat="48.73458" lon="-3.43848">
        <ele>50.61</ele>
        <time>2013-05-15T15:53:18Z</time>
      </trkpt>
      <trkpt lat="48.73448" lon="-3.4388">
        <ele>49.65</ele>
        <time>2013-05-15T15:53:24Z</time>
      </trkpt>
      <trkpt lat="48.73442" lon="-3.43894">
        <ele>49.16</ele>
        <time>2013-05-15T15:53:26Z</time>
      </trkpt>
      <trkpt lat="48.7344" lon="-3.43903">
        <ele>49.16</ele>
        <time>2013-05-15T15:53:27Z</time>
      </trkpt>
      <trkpt lat="48.73428" lon="-3.44002">
        <ele>46.28</ele>
        <time>2013-05-15T15:53:37Z</time>
      </trkpt>
      <trkpt lat="48.73428" lon="-3.44012">
        <ele>45.8</ele>
        <time>2013-05-15T15:53:38Z</time>
      </trkpt>
      <trkpt lat="48.73426" lon="-3.44031">
        <ele>45.32</ele>
        <time>2013-05-15T15:53:40Z</time>
      </trkpt>
      <trkpt lat="48.73424" lon="-3.44041">
        <ele>45.32</ele>
        <time>2013-05-15T15:53:41Z</time>
      </trkpt>
      <trkpt lat="48.73399" lon="-3.44137">
        <ele>42.44</ele>
        <time>2013-05-15T15:53:51Z</time>
      </trkpt>
      <trkpt lat="48.73393" lon="-3.4417">
        <ele>42.44</ele>
        <time>2013-05-15T15:53:55Z</time>
      </trkpt>
      <trkpt lat="48.73398" lon="-3.44307">
        <ele>41.47</ele>
        <time>2013-05-15T15:54:09Z</time>
      </trkpt>
      <trkpt lat="48.73409" lon="-3.44391">
        <ele>41.47</ele>
        <time>2013-05-15T15:54:18Z</time>
      </trkpt>
      <trkpt lat="48.73411" lon="-3.44399">
        <ele>41.47</ele>
        <time>2013-05-15T15:54:19Z</time>
      </trkpt>
      <trkpt lat="48.73413" lon="-3.44406">
        <ele>41.47</ele>
        <time>2013-05-15T15:54:20Z</time>
      </trkpt>
      <trkpt lat="48.73417" lon="-3.44411">
        <ele>41.47</ele>
        <time>2013-05-15T15:54:21Z</time>
      </trkpt>
      <trkpt lat="48.7342" lon="-3.44414">
        <ele>40.99</ele>
        <time>2013-05-15T15:54:22Z</time>
      </trkpt>
      <trkpt lat="48.73423" lon="-3.44415">
        <ele>40.51</ele>
        <time>2013-05-15T15:54:23Z</time>
      </trkpt>
      <trkpt lat="48.73427" lon="-3.44415">
        <ele>40.51</ele>
        <time>2013-05-15T15:54:24Z</time>
      </trkpt>
      <trkpt lat="48.7343" lon="-3.44415">
        <ele>40.51</ele>
        <time>2013-05-15T15:54:25Z</time>
      </trkpt>
      <trkpt lat="48.73435" lon="-3.44416">
        <ele>40.51</ele>
        <time>2013-05-15T15:54:26Z</time>
      </trkpt>
      <trkpt lat="48.7344" lon="-3.44418">
        <ele>40.03</ele>
        <time>2013-05-15T15:54:27Z</time>
      </trkpt>
      <trkpt lat="48.73445" lon="-3.4442">
        <ele>40.51</ele>
        <time>2013-05-15T15:54:28Z</time>
      </trkpt>
      <trkpt lat="48.73455" lon="-3.44424">
        <ele>40.51</ele>
        <time>2013-05-15T15:54:30Z</time>
      </trkpt>
      <trkpt lat="48.7346" lon="-3.44424">
        <ele>40.03</ele>
        <time>2013-05-15T15:54:31Z</time>
      </trkpt>
      <trkpt lat="48.73465" lon="-3.44422">
        <ele>40.03</ele>
        <time>2013-05-15T15:54:32Z</time>
      </trkpt>
      <trkpt lat="48.73471" lon="-3.44419">
        <ele>40.51</ele>
        <time>2013-05-15T15:54:33Z</time>
      </trkpt>
      <trkpt lat="48.73476" lon="-3.44415">
        <ele>40.51</ele>
        <time>2013-05-15T15:54:34Z</time>
      </trkpt>
      <trkpt lat="48.73522" lon="-3.44396">
        <ele>37.63</ele>
        <time>2013-05-15T15:54:41Z</time>
      </trkpt>
      <trkpt lat="48.7359" lon="-3.44392">
        <ele>34.74</ele>
        <time>2013-05-15T15:54:50Z</time>
      </trkpt>
      <trkpt lat="48.73632" lon="-3.44409">
        <ele>31.38</ele>
        <time>2013-05-15T15:54:55Z</time>
      </trkpt>
      <trkpt lat="48.73675" lon="-3.44439">
        <ele>28.98</ele>
        <time>2013-05-15T15:55:00Z</time>
      </trkpt>
      <trkpt lat="48.7372" lon="-3.44476">
        <ele>28.02</ele>
        <time>2013-05-15T15:55:06Z</time>
      </trkpt>
      <trkpt lat="48.73727" lon="-3.4448">
        <ele>28.02</ele>
        <time>2013-05-15T15:55:07Z</time>
      </trkpt>
      <trkpt lat="48.73734" lon="-3.44481">
        <ele>28.02</ele>
        <time>2013-05-15T15:55:08Z</time>
      </trkpt>
      <trkpt lat="48.73741" lon="-3.44482">
        <ele>28.5</ele>
        <time>2013-05-15T15:55:09Z</time>
      </trkpt>
      <trkpt lat="48.73747" lon="-3.44481">
        <ele>28.98</ele>
        <time>2013-05-15T15:55:10Z</time>
      </trkpt>
      <trkpt lat="48.73753" lon="-3.44479">
        <ele>28.98</ele>
        <time>2013-05-15T15:55:11Z</time>
      </trkpt>
      <trkpt lat="48.73757" lon="-3.44476">
        <ele>29.46</ele>
        <time>2013-05-15T15:55:12Z</time>
      </trkpt>
      <trkpt lat="48.73761" lon="-3.44472">
        <ele>29.94</ele>
        <time>2013-05-15T15:55:13Z</time>
      </trkpt>
      <trkpt lat="48.73765" lon="-3.44467">
        <ele>30.42</ele>
        <time>2013-05-15T15:55:14Z</time>
      </trkpt>
      <trkpt lat="48.73768" lon="-3.44462">
        <ele>30.9</ele>
        <time>2013-05-15T15:55:15Z</time>
      </trkpt>
      <trkpt lat="48.73772" lon="-3.44458">
        <ele>31.38</ele>
        <time>2013-05-15T15:55:16Z</time>
      </trkpt>
      <trkpt lat="48.73775" lon="-3.44455">
        <ele>31.38</ele>
        <time>2013-05-15T15:55:17Z</time>
      </trkpt>
      <trkpt lat="48.73804" lon="-3.44441">
        <ele>33.78</ele>
        <time>2013-05-15T15:55:27Z</time>
      </trkpt>
      <trkpt lat="48.7384" lon="-3.44434">
        <ele>37.15</ele>
        <time>2013-05-15T15:55:36Z</time>
      </trkpt>
      <trkpt lat="48.73869" lon="-3.44442">
        <ele>38.59</ele>
        <time>2013-05-15T15:55:42Z</time>
      </trkpt>
      <trkpt lat="48.73916" lon="-3.44456">
        <ele>41.47</ele>
        <time>2013-05-15T15:55:52Z</time>
      </trkpt>
      <trkpt lat="48.7392" lon="-3.44457">
        <ele>41.47</ele>
        <time>2013-05-15T15:55:53Z</time>
      </trkpt>
      <trkpt lat="48.73949" lon="-3.44447">
        <ele>41.95</ele>
        <time>2013-05-15T15:56:00Z</time>
      </trkpt>
      <trkpt lat="48.73953" lon="-3.44445">
        <ele>41.95</ele>
        <time>2013-05-15T15:56:01Z</time>
      </trkpt>
      <trkpt lat="48.73958" lon="-3.44444">
        <ele>41.95</ele>
        <time>2013-05-15T15:56:02Z</time>
      </trkpt>
      <trkpt lat="48.73962" lon="-3.44445">
        <ele>42.44</ele>
        <time>2013-05-15T15:56:03Z</time>
      </trkpt>
      <trkpt lat="48.73966" lon="-3.44447">
        <ele>42.44</ele>
        <time>2013-05-15T15:56:04Z</time>
      </trkpt>
      <trkpt lat="48.7397" lon="-3.4445">
        <ele>42.44</ele>
        <time>2013-05-15T15:56:05Z</time>
      </trkpt>
      <trkpt lat="48.73974" lon="-3.44454">
        <ele>42.92</ele>
        <time>2013-05-15T15:56:06Z</time>
      </trkpt>
      <trkpt lat="48.73977" lon="-3.44458">
        <ele>42.44</ele>
        <time>2013-05-15T15:56:07Z</time>
      </trkpt>
      <trkpt lat="48.73981" lon="-3.44463">
        <ele>41.95</ele>
        <time>2013-05-15T15:56:08Z</time>
      </trkpt>
      <trkpt lat="48.73988" lon="-3.44473">
        <ele>41.95</ele>
        <time>2013-05-15T15:56:10Z</time>
      </trkpt>
      <trkpt lat="48.73992" lon="-3.44476">
        <ele>42.44</ele>
        <time>2013-05-15T15:56:11Z</time>
      </trkpt>
      <trkpt lat="48.73997" lon="-3.44479">
        <ele>42.92</ele>
        <time>2013-05-15T15:56:12Z</time>
      </trkpt>
      <trkpt lat="48.74071" lon="-3.44507">
        <ele>43.88</ele>
        <time>2013-05-15T15:56:28Z</time>
      </trkpt>
      <trkpt lat="48.74147" lon="-3.44545">
        <ele>45.8</ele>
        <time>2013-05-15T15:56:47Z</time>
      </trkpt>
      <trkpt lat="48.74217" lon="-3.44576">
        <ele>49.16</ele>
        <time>2013-05-15T15:57:04Z</time>
      </trkpt>
      <trkpt lat="48.7423" lon="-3.44582">
        <ele>49.16</ele>
        <time>2013-05-15T15:57:07Z</time>
      </trkpt>
      <trkpt lat="48.74234" lon="-3.44584">
        <ele>49.16</ele>
        <time>2013-05-15T15:57:08Z</time>
      </trkpt>
      <trkpt lat="48.74254" lon="-3.44597">
        <ele>49.65</ele>
        <time>2013-05-15T15:57:13Z</time>
      </trkpt>
      <trkpt lat="48.74258" lon="-3.446">
        <ele>49.65</ele>
        <time>2013-05-15T15:57:14Z</time>
      </trkpt>
      <trkpt lat="48.74261" lon="-3.44604">
        <ele>49.65</ele>
        <time>2013-05-15T15:57:15Z</time>
      </trkpt>
      <trkpt lat="48.74264" lon="-3.4461">
        <ele>50.13</ele>
        <time>2013-05-15T15:57:16Z</time>
      </trkpt>
      <trkpt lat="48.74265" lon="-3.44615">
        <ele>50.13</ele>
        <time>2013-05-15T15:57:17Z</time>
      </trkpt>
      <trkpt lat="48.74265" lon="-3.44622">
        <ele>50.13</ele>
        <time>2013-05-15T15:57:18Z</time>
      </trkpt>
      <trkpt lat="48.74265" lon="-3.44628">
        <ele>50.13</ele>
        <time>2013-05-15T15:57:19Z</time>
      </trkpt>
      <trkpt lat="48.74265" lon="-3.44634">
        <ele>50.61</ele>
        <time>2013-05-15T15:57:20Z</time>
      </trkpt>
      <trkpt lat="48.74266" lon="-3.4464">
        <ele>50.61</ele>
        <time>2013-05-15T15:57:21Z</time>
      </trkpt>
      <trkpt lat="48.74266" lon="-3.44646">
        <ele>51.09</ele>
        <time>2013-05-15T15:57:22Z</time>
      </trkpt>
      <trkpt lat="48.74267" lon="-3.44652">
        <ele>51.09</ele>
        <time>2013-05-15T15:57:23Z</time>
      </trkpt>
      <trkpt lat="48.74276" lon="-3.44721">
        <ele>53.49</ele>
        <time>2013-05-15T15:57:35Z</time>
      </trkpt>
      <trkpt lat="48.74277" lon="-3.44773">
        <ele>54.93</ele>
        <time>2013-05-15T15:57:43Z</time>
      </trkpt>
      <trkpt lat="48.74277" lon="-3.448">
        <ele>55.89</ele>
        <time>2013-05-15T15:57:47Z</time>
      </trkpt>
      <trkpt lat="48.74277" lon="-3.44807">
        <ele>56.37</ele>
        <time>2013-05-15T15:57:48Z</time>
      </trkpt>
      <trkpt lat="48.74276" lon="-3.44814">
        <ele>56.86</ele>
        <time>2013-05-15T15:57:49Z</time>
      </trkpt>
      <trkpt lat="48.74276" lon="-3.44834">
        <ele>57.34</ele>
        <time>2013-05-15T15:57:52Z</time>
      </trkpt>
      <trkpt lat="48.74275" lon="-3.4484">
        <ele>57.34</ele>
        <time>2013-05-15T15:57:53Z</time>
      </trkpt>
      <trkpt lat="48.74274" lon="-3.44846">
        <ele>57.34</ele>
        <time>2013-05-15T15:57:54Z</time>
      </trkpt>
      <trkpt lat="48.74272" lon="-3.44909">
        <ele>59.74</ele>
        <time>2013-05-15T15:58:03Z</time>
      </trkpt>
      <trkpt lat="48.74272" lon="-3.44916">
        <ele>60.22</ele>
        <time>2013-05-15T15:58:04Z</time>
      </trkpt>
      <trkpt lat="48.74272" lon="-3.44932">
        <ele>60.7</ele>
        <time>2013-05-15T15:58:06Z</time>
      </trkpt>
      <trkpt lat="48.74273" lon="-3.44939">
        <ele>61.18</ele>
        <time>2013-05-15T15:58:07Z</time>
      </trkpt>
      <trkpt lat="48.74273" lon="-3.44954">
        <ele>61.18</ele>
        <time>2013-05-15T15:58:09Z</time>
      </trkpt>
      <trkpt lat="48.74274" lon="-3.45016">
        <ele>63.1</ele>
        <time>2013-05-15T15:58:22Z</time>
      </trkpt>
      <trkpt lat="48.74278" lon="-3.45087">
        <ele>65.99</ele>
        <time>2013-05-15T15:58:37Z</time>
      </trkpt>
      <trkpt lat="48.74288" lon="-3.45128">
        <ele>67.91</ele>
        <time>2013-05-15T15:58:46Z</time>
      </trkpt>
      <trkpt lat="48.74321" lon="-3.45185">
        <ele>71.27</ele>
        <time>2013-05-15T15:58:59Z</time>
      </trkpt>
      <trkpt lat="48.74348" lon="-3.45205">
        <ele>73.68</ele>
        <time>2013-05-15T15:59:08Z</time>
      </trkpt>
      <trkpt lat="48.74394" lon="-3.45229">
        <ele>74.64</ele>
        <time>2013-05-15T15:59:22Z</time>
      </trkpt>
      <trkpt lat="48.74401" lon="-3.45235">
        <ele>74.16</ele>
        <time>2013-05-15T15:59:35Z</time>
      </trkpt>
      <trkpt lat="48.744" lon="-3.45234">
        <ele>73.68</ele>
        <time>2013-05-15T15:59:54Z</time>
      </trkpt>
      <trkpt lat="48.74401" lon="-3.45235">
        <ele>74.16</ele>
        <time>2013-05-15T15:59:55Z</time>
      </trkpt>
      <trkpt lat="48.74403" lon="-3.45237">
        <ele>74.16</ele>
        <time>2013-05-15T15:59:56Z</time>
      </trkpt>
      <trkpt lat="48.74405" lon="-3.45239">
        <ele>74.16</ele>
        <time>2013-05-15T15:59:57Z</time>
      </trkpt>
      <trkpt lat="48.74407" lon="-3.45241">
        <ele>74.64</ele>
        <time>2013-05-15T15:59:58Z</time>
      </trkpt>
      <trkpt lat="48.74451" lon="-3.45296">
        <ele>71.27</ele>
        <time>2013-05-15T16:00:10Z</time>
      </trkpt>
      <trkpt lat="48.74493" lon="-3.45349">
        <ele>68.39</ele>
        <time>2013-05-15T16:00:17Z</time>
      </trkpt>
      <trkpt lat="48.74514" lon="-3.45378">
        <ele>65.03</ele>
        <time>2013-05-15T16:00:20Z</time>
      </trkpt>
      <trkpt lat="48.74528" lon="-3.454">
        <ele>64.07</ele>
        <time>2013-05-15T16:00:22Z</time>
      </trkpt>
      <trkpt lat="48.74572" lon="-3.45482">
        <ele>65.99</ele>
        <time>2013-05-15T16:00:31Z</time>
      </trkpt>
      <trkpt lat="48.74585" lon="-3.45502">
        <ele>67.43</ele>
        <time>2013-05-15T16:00:35Z</time>
      </trkpt>
      <trkpt lat="48.74596" lon="-3.4551">
        <ele>67.91</ele>
        <time>2013-05-15T16:00:38Z</time>
      </trkpt>
      <trkpt lat="48.746" lon="-3.45508">
        <ele>68.39</ele>
        <time>2013-05-15T16:00:39Z</time>
      </trkpt>
      <trkpt lat="48.74603" lon="-3.45504">
        <ele>68.39</ele>
        <time>2013-05-15T16:00:40Z</time>
      </trkpt>
      <trkpt lat="48.74605" lon="-3.45498">
        <ele>68.87</ele>
        <time>2013-05-15T16:00:41Z</time>
      </trkpt>
      <trkpt lat="48.74607" lon="-3.45493">
        <ele>69.35</ele>
        <time>2013-05-15T16:00:42Z</time>
      </trkpt>
      <trkpt lat="48.74609" lon="-3.45488">
        <ele>69.35</ele>
        <time>2013-05-15T16:00:43Z</time>
      </trkpt>
      <trkpt lat="48.74611" lon="-3.45484">
        <ele>70.31</ele>
        <time>2013-05-15T16:00:44Z</time>
      </trkpt>
      <trkpt lat="48.74613" lon="-3.45479">
        <ele>70.79</ele>
        <time>2013-05-15T16:00:45Z</time>
      </trkpt>
      <trkpt lat="48.74615" lon="-3.45474">
        <ele>71.27</ele>
        <time>2013-05-15T16:00:46Z</time>
      </trkpt>
      <trkpt lat="48.74618" lon="-3.4547">
        <ele>71.76</ele>
        <time>2013-05-15T16:00:47Z</time>
      </trkpt>
      <trkpt lat="48.74621" lon="-3.45467">
        <ele>72.24</ele>
        <time>2013-05-15T16:00:48Z</time>
      </trkpt>
      <trkpt lat="48.74625" lon="-3.45467">
        <ele>72.72</ele>
        <time>2013-05-15T16:00:49Z</time>
      </trkpt>
      <trkpt lat="48.74628" lon="-3.45467">
        <ele>72.72</ele>
        <time>2013-05-15T16:00:50Z</time>
      </trkpt>
      <trkpt lat="48.74632" lon="-3.4547">
        <ele>73.2</ele>
        <time>2013-05-15T16:00:51Z</time>
      </trkpt>
      <trkpt lat="48.74635" lon="-3.45473">
        <ele>73.2</ele>
        <time>2013-05-15T16:00:52Z</time>
      </trkpt>
      <trkpt lat="48.74638" lon="-3.45476">
        <ele>73.68</ele>
        <time>2013-05-15T16:00:53Z</time>
      </trkpt>
      <trkpt lat="48.74665" lon="-3.45508">
        <ele>75.6</ele>
        <time>2013-05-15T16:01:05Z</time>
      </trkpt>
      <trkpt lat="48.74685" lon="-3.45518">
        <ele>76.56</ele>
        <time>2013-05-15T16:01:12Z</time>
      </trkpt>
      <trkpt lat="48.74687" lon="-3.45515">
        <ele>77.04</ele>
        <time>2013-05-15T16:01:13Z</time>
      </trkpt>
      <trkpt lat="48.7469" lon="-3.45512">
        <ele>77.04</ele>
        <time>2013-05-15T16:01:14Z</time>
      </trkpt>
      <trkpt lat="48.74691" lon="-3.45508">
        <ele>77.04</ele>
        <time>2013-05-15T16:01:15Z</time>
      </trkpt>
      <trkpt lat="48.74692" lon="-3.45505">
        <ele>77.04</ele>
        <time>2013-05-15T16:01:16Z</time>
      </trkpt>
      <trkpt lat="48.74692" lon="-3.45501">
        <ele>77.52</ele>
        <time>2013-05-15T16:01:17Z</time>
      </trkpt>
      <trkpt lat="48.74692" lon="-3.45499">
        <ele>77.04</ele>
        <time>2013-05-15T16:01:18Z</time>
      </trkpt>
      <trkpt lat="48.74692" lon="-3.45496">
        <ele>77.04</ele>
        <time>2013-05-15T16:01:29Z</time>
      </trkpt>
      <trkpt lat="48.74693" lon="-3.45496">
        <ele>77.04</ele>
        <time>2013-05-15T16:01:45Z</time>
      </trkpt>
      <trkpt lat="48.74688" lon="-3.45498">
        <ele>77.04</ele>
        <time>2013-05-15T16:02:06Z</time>
      </trkpt>
    </trkseg>
  </trk>
</gpx>